<?xml version="1.0" encoding="UTF-8" standalone="no" ?>
<gpx xmlns="http://www.topografix.com/GPX/1/1" xmlns:xsi="http://www.w3.org/2001/XMLSchema-instance" xsi:schemaLocation="http://www.topografix.com/GPX/1/1 http://www.topografix.com/GPX/1/1/gpx.xsd" version="1.1" creator="VisuGPX - https://www.visugpx.com">
  <metadata>
    <name>Chaume au loup - Bellenot sous Pouilly</name>
    <desc><![CDATA[Jolie rando sur les hauts de Bellenot avec un retour par le canal de Bourgogne]]></desc>
  </metadata>
  <trk>
    <name><![CDATA[20181014212825-pKuR6]]></name>
    <trkseg>
      <trkpt lat="47.26816" lon="4.55236">
        <ele>398</ele>
        <time>2018-10-14T07:58:58Z</time>
      </trkpt>
      <trkpt lat="47.26816" lon="4.55235">
        <ele>398</ele>
        <time>2018-10-14T07:58:59Z</time>
      </trkpt>
      <trkpt lat="47.26822" lon="4.55225">
        <ele>398</ele>
        <time>2018-10-14T07:59:08Z</time>
      </trkpt>
      <trkpt lat="47.26828" lon="4.5522">
        <ele>397</ele>
        <time>2018-10-14T07:59:15Z</time>
      </trkpt>
      <trkpt lat="47.2683" lon="4.55217">
        <ele>396</ele>
        <time>2018-10-14T07:59:18Z</time>
      </trkpt>
      <trkpt lat="47.26837" lon="4.55212">
        <ele>393</ele>
        <time>2018-10-14T07:59:23Z</time>
      </trkpt>
      <trkpt lat="47.26839" lon="4.55207">
        <ele>394</ele>
        <time>2018-10-14T07:59:27Z</time>
      </trkpt>
      <trkpt lat="47.26839" lon="4.55198">
        <ele>393</ele>
        <time>2018-10-14T07:59:35Z</time>
      </trkpt>
      <trkpt lat="47.26841" lon="4.55194">
        <ele>394</ele>
        <time>2018-10-14T07:59:37Z</time>
      </trkpt>
      <trkpt lat="47.26847" lon="4.55181">
        <ele>393</ele>
        <time>2018-10-14T07:59:45Z</time>
      </trkpt>
      <trkpt lat="47.26852" lon="4.55176">
        <ele>397</ele>
        <time>2018-10-14T07:59:54Z</time>
      </trkpt>
      <trkpt lat="47.26859" lon="4.55174">
        <ele>400</ele>
        <time>2018-10-14T08:00:00Z</time>
      </trkpt>
      <trkpt lat="47.26875" lon="4.5517">
        <ele>401</ele>
        <time>2018-10-14T08:00:11Z</time>
      </trkpt>
      <trkpt lat="47.26887" lon="4.55169">
        <ele>401</ele>
        <time>2018-10-14T08:00:17Z</time>
      </trkpt>
      <trkpt lat="47.26901" lon="4.55169">
        <ele>399</ele>
        <time>2018-10-14T08:00:23Z</time>
      </trkpt>
      <trkpt lat="47.26928" lon="4.55159">
        <ele>394</ele>
        <time>2018-10-14T08:00:40Z</time>
      </trkpt>
      <trkpt lat="47.26966" lon="4.55158">
        <ele>402</ele>
        <time>2018-10-14T08:01:10Z</time>
      </trkpt>
      <trkpt lat="47.2698" lon="4.55155">
        <ele>404</ele>
        <time>2018-10-14T08:01:23Z</time>
      </trkpt>
      <trkpt lat="47.26993" lon="4.55142">
        <ele>402</ele>
        <time>2018-10-14T08:01:31Z</time>
      </trkpt>
      <trkpt lat="47.27" lon="4.5513">
        <ele>400</ele>
        <time>2018-10-14T08:01:37Z</time>
      </trkpt>
      <trkpt lat="47.27006" lon="4.55125">
        <ele>399</ele>
        <time>2018-10-14T08:01:45Z</time>
      </trkpt>
      <trkpt lat="47.27008" lon="4.55121">
        <ele>399</ele>
        <time>2018-10-14T08:01:51Z</time>
      </trkpt>
      <trkpt lat="47.27021" lon="4.55107">
        <ele>398</ele>
        <time>2018-10-14T08:02:07Z</time>
      </trkpt>
      <trkpt lat="47.27026" lon="4.55102">
        <ele>398</ele>
        <time>2018-10-14T08:02:14Z</time>
      </trkpt>
      <trkpt lat="47.27038" lon="4.55091">
        <ele>400</ele>
        <time>2018-10-14T08:02:21Z</time>
      </trkpt>
      <trkpt lat="47.27041" lon="4.55087">
        <ele>400</ele>
        <time>2018-10-14T08:02:23Z</time>
      </trkpt>
      <trkpt lat="47.27068" lon="4.55072">
        <ele>404</ele>
        <time>2018-10-14T08:02:39Z</time>
      </trkpt>
      <trkpt lat="47.27076" lon="4.55072">
        <ele>404</ele>
        <time>2018-10-14T08:02:44Z</time>
      </trkpt>
      <trkpt lat="47.27083" lon="4.5507">
        <ele>403</ele>
        <time>2018-10-14T08:02:52Z</time>
      </trkpt>
      <trkpt lat="47.27086" lon="4.55067">
        <ele>404</ele>
        <time>2018-10-14T08:02:57Z</time>
      </trkpt>
      <trkpt lat="47.27088" lon="4.55065">
        <ele>404</ele>
        <time>2018-10-14T08:03:00Z</time>
      </trkpt>
      <trkpt lat="47.27095" lon="4.55061">
        <ele>404</ele>
        <time>2018-10-14T08:03:06Z</time>
      </trkpt>
      <trkpt lat="47.27101" lon="4.5506">
        <ele>404</ele>
        <time>2018-10-14T08:03:14Z</time>
      </trkpt>
      <trkpt lat="47.27105" lon="4.55059">
        <ele>405</ele>
        <time>2018-10-14T08:03:17Z</time>
      </trkpt>
      <trkpt lat="47.27115" lon="4.55054">
        <ele>405</ele>
        <time>2018-10-14T08:03:25Z</time>
      </trkpt>
      <trkpt lat="47.27134" lon="4.55046">
        <ele>400</ele>
        <time>2018-10-14T08:03:37Z</time>
      </trkpt>
      <trkpt lat="47.27138" lon="4.55047">
        <ele>401</ele>
        <time>2018-10-14T08:03:40Z</time>
      </trkpt>
      <trkpt lat="47.27142" lon="4.55046">
        <ele>401</ele>
        <time>2018-10-14T08:03:42Z</time>
      </trkpt>
      <trkpt lat="47.27184" lon="4.55036">
        <ele>401</ele>
        <time>2018-10-14T08:04:08Z</time>
      </trkpt>
      <trkpt lat="47.2719" lon="4.55033">
        <ele>400</ele>
        <time>2018-10-14T08:04:28Z</time>
      </trkpt>
      <trkpt lat="47.27194" lon="4.5503">
        <ele>399</ele>
        <time>2018-10-14T08:04:31Z</time>
      </trkpt>
      <trkpt lat="47.27201" lon="4.55031">
        <ele>397</ele>
        <time>2018-10-14T08:04:39Z</time>
      </trkpt>
      <trkpt lat="47.27205" lon="4.55031">
        <ele>398</ele>
        <time>2018-10-14T08:04:42Z</time>
      </trkpt>
      <trkpt lat="47.27215" lon="4.55029">
        <ele>397</ele>
        <time>2018-10-14T08:04:49Z</time>
      </trkpt>
      <trkpt lat="47.27223" lon="4.55028">
        <ele>397</ele>
        <time>2018-10-14T08:04:52Z</time>
      </trkpt>
      <trkpt lat="47.27244" lon="4.55022">
        <ele>394</ele>
        <time>2018-10-14T08:04:59Z</time>
      </trkpt>
      <trkpt lat="47.27257" lon="4.55023">
        <ele>395</ele>
        <time>2018-10-14T08:05:11Z</time>
      </trkpt>
      <trkpt lat="47.27308" lon="4.55008">
        <ele>396</ele>
        <time>2018-10-14T08:05:41Z</time>
      </trkpt>
      <trkpt lat="47.27312" lon="4.55002">
        <ele>397</ele>
        <time>2018-10-14T08:05:45Z</time>
      </trkpt>
      <trkpt lat="47.27348" lon="4.54986">
        <ele>397</ele>
        <time>2018-10-14T08:06:09Z</time>
      </trkpt>
      <trkpt lat="47.27378" lon="4.54985">
        <ele>404</ele>
        <time>2018-10-14T08:06:33Z</time>
      </trkpt>
      <trkpt lat="47.27386" lon="4.54984">
        <ele>407</ele>
        <time>2018-10-14T08:06:39Z</time>
      </trkpt>
      <trkpt lat="47.27389" lon="4.54983">
        <ele>407</ele>
        <time>2018-10-14T08:06:42Z</time>
      </trkpt>
      <trkpt lat="47.27433" lon="4.54976">
        <ele>405</ele>
        <time>2018-10-14T08:07:12Z</time>
      </trkpt>
      <trkpt lat="47.27462" lon="4.54975">
        <ele>404</ele>
        <time>2018-10-14T08:07:37Z</time>
      </trkpt>
      <trkpt lat="47.27463" lon="4.54979">
        <ele>405</ele>
        <time>2018-10-14T08:07:48Z</time>
      </trkpt>
      <trkpt lat="47.27473" lon="4.54976">
        <ele>405</ele>
        <time>2018-10-14T08:07:54Z</time>
      </trkpt>
      <trkpt lat="47.27505" lon="4.5498">
        <ele>408</ele>
        <time>2018-10-14T08:08:23Z</time>
      </trkpt>
      <trkpt lat="47.2751" lon="4.5498">
        <ele>409</ele>
        <time>2018-10-14T08:08:26Z</time>
      </trkpt>
      <trkpt lat="47.27517" lon="4.54981">
        <ele>411</ele>
        <time>2018-10-14T08:08:32Z</time>
      </trkpt>
      <trkpt lat="47.27533" lon="4.5498">
        <ele>411</ele>
        <time>2018-10-14T08:08:48Z</time>
      </trkpt>
      <trkpt lat="47.27539" lon="4.5498">
        <ele>411</ele>
        <time>2018-10-14T08:08:53Z</time>
      </trkpt>
      <trkpt lat="47.2755" lon="4.54978">
        <ele>410</ele>
        <time>2018-10-14T08:08:59Z</time>
      </trkpt>
      <trkpt lat="47.2756" lon="4.5498">
        <ele>409</ele>
        <time>2018-10-14T08:09:07Z</time>
      </trkpt>
      <trkpt lat="47.27594" lon="4.54971">
        <ele>413</ele>
        <time>2018-10-14T08:09:33Z</time>
      </trkpt>
      <trkpt lat="47.27605" lon="4.54971">
        <ele>413</ele>
        <time>2018-10-14T08:09:41Z</time>
      </trkpt>
      <trkpt lat="47.27618" lon="4.54966">
        <ele>412</ele>
        <time>2018-10-14T08:09:50Z</time>
      </trkpt>
      <trkpt lat="47.27631" lon="4.54961">
        <ele>413</ele>
        <time>2018-10-14T08:10:01Z</time>
      </trkpt>
      <trkpt lat="47.27638" lon="4.54959">
        <ele>413</ele>
        <time>2018-10-14T08:10:06Z</time>
      </trkpt>
      <trkpt lat="47.27681" lon="4.54941">
        <ele>411</ele>
        <time>2018-10-14T08:10:38Z</time>
      </trkpt>
      <trkpt lat="47.27697" lon="4.5493">
        <ele>410</ele>
        <time>2018-10-14T08:10:52Z</time>
      </trkpt>
      <trkpt lat="47.277" lon="4.54927">
        <ele>410</ele>
        <time>2018-10-14T08:10:55Z</time>
      </trkpt>
      <trkpt lat="47.27718" lon="4.54908">
        <ele>407</ele>
        <time>2018-10-14T08:11:16Z</time>
      </trkpt>
      <trkpt lat="47.27736" lon="4.54889">
        <ele>405</ele>
        <time>2018-10-14T08:11:31Z</time>
      </trkpt>
      <trkpt lat="47.27742" lon="4.54878">
        <ele>402</ele>
        <time>2018-10-14T08:11:37Z</time>
      </trkpt>
      <trkpt lat="47.27761" lon="4.54864">
        <ele>401</ele>
        <time>2018-10-14T08:11:53Z</time>
      </trkpt>
      <trkpt lat="47.27767" lon="4.54856">
        <ele>401</ele>
        <time>2018-10-14T08:11:59Z</time>
      </trkpt>
      <trkpt lat="47.27773" lon="4.5485">
        <ele>401</ele>
        <time>2018-10-14T08:12:04Z</time>
      </trkpt>
      <trkpt lat="47.2779" lon="4.54823">
        <ele>402</ele>
        <time>2018-10-14T08:12:21Z</time>
      </trkpt>
      <trkpt lat="47.27794" lon="4.54821">
        <ele>403</ele>
        <time>2018-10-14T08:12:23Z</time>
      </trkpt>
      <trkpt lat="47.278" lon="4.54815">
        <ele>402</ele>
        <time>2018-10-14T08:12:27Z</time>
      </trkpt>
      <trkpt lat="47.27806" lon="4.54811">
        <ele>401</ele>
        <time>2018-10-14T08:12:31Z</time>
      </trkpt>
      <trkpt lat="47.27811" lon="4.54806">
        <ele>401</ele>
        <time>2018-10-14T08:12:37Z</time>
      </trkpt>
      <trkpt lat="47.27843" lon="4.54773">
        <ele>397</ele>
        <time>2018-10-14T08:13:09Z</time>
      </trkpt>
      <trkpt lat="47.27848" lon="4.54765">
        <ele>396</ele>
        <time>2018-10-14T08:13:20Z</time>
      </trkpt>
      <trkpt lat="47.27851" lon="4.54764">
        <ele>395</ele>
        <time>2018-10-14T08:13:24Z</time>
      </trkpt>
      <trkpt lat="47.27877" lon="4.54745">
        <ele>393</ele>
        <time>2018-10-14T08:13:39Z</time>
      </trkpt>
      <trkpt lat="47.27915" lon="4.54711">
        <ele>399</ele>
        <time>2018-10-14T08:14:10Z</time>
      </trkpt>
      <trkpt lat="47.27923" lon="4.54705">
        <ele>402</ele>
        <time>2018-10-14T08:14:16Z</time>
      </trkpt>
      <trkpt lat="47.27931" lon="4.54699">
        <ele>402</ele>
        <time>2018-10-14T08:14:22Z</time>
      </trkpt>
      <trkpt lat="47.27934" lon="4.54695">
        <ele>401</ele>
        <time>2018-10-14T08:14:24Z</time>
      </trkpt>
      <trkpt lat="47.27938" lon="4.54694">
        <ele>399</ele>
        <time>2018-10-14T08:14:27Z</time>
      </trkpt>
      <trkpt lat="47.2794" lon="4.54693">
        <ele>399</ele>
        <time>2018-10-14T08:14:29Z</time>
      </trkpt>
      <trkpt lat="47.27944" lon="4.54689">
        <ele>399</ele>
        <time>2018-10-14T08:14:34Z</time>
      </trkpt>
      <trkpt lat="47.27952" lon="4.54684">
        <ele>397</ele>
        <time>2018-10-14T08:14:40Z</time>
      </trkpt>
      <trkpt lat="47.27954" lon="4.5468">
        <ele>397</ele>
        <time>2018-10-14T08:14:43Z</time>
      </trkpt>
      <trkpt lat="47.27957" lon="4.54677">
        <ele>396</ele>
        <time>2018-10-14T08:14:50Z</time>
      </trkpt>
      <trkpt lat="47.2796" lon="4.54675">
        <ele>395</ele>
        <time>2018-10-14T08:14:54Z</time>
      </trkpt>
      <trkpt lat="47.27972" lon="4.54665">
        <ele>393</ele>
        <time>2018-10-14T08:15:07Z</time>
      </trkpt>
      <trkpt lat="47.27978" lon="4.5466">
        <ele>393</ele>
        <time>2018-10-14T08:15:12Z</time>
      </trkpt>
      <trkpt lat="47.27981" lon="4.54658">
        <ele>393</ele>
        <time>2018-10-14T08:15:17Z</time>
      </trkpt>
      <trkpt lat="47.27984" lon="4.54654">
        <ele>395</ele>
        <time>2018-10-14T08:15:21Z</time>
      </trkpt>
      <trkpt lat="47.27993" lon="4.54651">
        <ele>395</ele>
        <time>2018-10-14T08:15:33Z</time>
      </trkpt>
      <trkpt lat="47.28013" lon="4.54635">
        <ele>393</ele>
        <time>2018-10-14T08:15:45Z</time>
      </trkpt>
      <trkpt lat="47.28023" lon="4.54629">
        <ele>393</ele>
        <time>2018-10-14T08:15:51Z</time>
      </trkpt>
      <trkpt lat="47.28042" lon="4.54617">
        <ele>394</ele>
        <time>2018-10-14T08:16:04Z</time>
      </trkpt>
      <trkpt lat="47.2805" lon="4.54614">
        <ele>397</ele>
        <time>2018-10-14T08:16:09Z</time>
      </trkpt>
      <trkpt lat="47.28059" lon="4.54614">
        <ele>399</ele>
        <time>2018-10-14T08:16:13Z</time>
      </trkpt>
      <trkpt lat="47.28077" lon="4.54598">
        <ele>395</ele>
        <time>2018-10-14T08:16:31Z</time>
      </trkpt>
      <trkpt lat="47.2808" lon="4.54593">
        <ele>394</ele>
        <time>2018-10-14T08:16:37Z</time>
      </trkpt>
      <trkpt lat="47.28083" lon="4.54591">
        <ele>395</ele>
        <time>2018-10-14T08:16:39Z</time>
      </trkpt>
      <trkpt lat="47.28086" lon="4.54591">
        <ele>395</ele>
        <time>2018-10-14T08:16:46Z</time>
      </trkpt>
      <trkpt lat="47.28101" lon="4.54583">
        <ele>394</ele>
        <time>2018-10-14T08:17:03Z</time>
      </trkpt>
      <trkpt lat="47.28104" lon="4.54583">
        <ele>394</ele>
        <time>2018-10-14T08:17:06Z</time>
      </trkpt>
      <trkpt lat="47.28108" lon="4.54582">
        <ele>394</ele>
        <time>2018-10-14T08:17:09Z</time>
      </trkpt>
      <trkpt lat="47.28115" lon="4.5458">
        <ele>393</ele>
        <time>2018-10-14T08:17:14Z</time>
      </trkpt>
      <trkpt lat="47.28122" lon="4.54579">
        <ele>392</ele>
        <time>2018-10-14T08:17:18Z</time>
      </trkpt>
      <trkpt lat="47.28126" lon="4.54577">
        <ele>392</ele>
        <time>2018-10-14T08:17:20Z</time>
      </trkpt>
      <trkpt lat="47.28132" lon="4.54574">
        <ele>394</ele>
        <time>2018-10-14T08:17:24Z</time>
      </trkpt>
      <trkpt lat="47.28139" lon="4.54574">
        <ele>398</ele>
        <time>2018-10-14T08:17:28Z</time>
      </trkpt>
      <trkpt lat="47.28144" lon="4.5457">
        <ele>399</ele>
        <time>2018-10-14T08:17:32Z</time>
      </trkpt>
      <trkpt lat="47.28148" lon="4.54568">
        <ele>399</ele>
        <time>2018-10-14T08:17:34Z</time>
      </trkpt>
      <trkpt lat="47.28162" lon="4.54572">
        <ele>397</ele>
        <time>2018-10-14T08:17:47Z</time>
      </trkpt>
      <trkpt lat="47.28178" lon="4.54586">
        <ele>397</ele>
        <time>2018-10-14T08:18:02Z</time>
      </trkpt>
      <trkpt lat="47.28184" lon="4.54599">
        <ele>396</ele>
        <time>2018-10-14T08:18:11Z</time>
      </trkpt>
      <trkpt lat="47.282" lon="4.54626">
        <ele>398</ele>
        <time>2018-10-14T08:18:32Z</time>
      </trkpt>
      <trkpt lat="47.28211" lon="4.5464">
        <ele>399</ele>
        <time>2018-10-14T08:18:44Z</time>
      </trkpt>
      <trkpt lat="47.28215" lon="4.54642">
        <ele>398</ele>
        <time>2018-10-14T08:18:49Z</time>
      </trkpt>
      <trkpt lat="47.28225" lon="4.54654">
        <ele>400</ele>
        <time>2018-10-14T08:18:58Z</time>
      </trkpt>
      <trkpt lat="47.28229" lon="4.54657">
        <ele>400</ele>
        <time>2018-10-14T08:19:02Z</time>
      </trkpt>
      <trkpt lat="47.2823" lon="4.54662">
        <ele>401</ele>
        <time>2018-10-14T08:19:05Z</time>
      </trkpt>
      <trkpt lat="47.28237" lon="4.54671">
        <ele>403</ele>
        <time>2018-10-14T08:19:10Z</time>
      </trkpt>
      <trkpt lat="47.28249" lon="4.54677">
        <ele>402</ele>
        <time>2018-10-14T08:19:16Z</time>
      </trkpt>
      <trkpt lat="47.28253" lon="4.5468">
        <ele>403</ele>
        <time>2018-10-14T08:19:20Z</time>
      </trkpt>
      <trkpt lat="47.28256" lon="4.54678">
        <ele>403</ele>
        <time>2018-10-14T08:19:27Z</time>
      </trkpt>
      <trkpt lat="47.28262" lon="4.54678">
        <ele>403</ele>
        <time>2018-10-14T08:19:31Z</time>
      </trkpt>
      <trkpt lat="47.28265" lon="4.5468">
        <ele>402</ele>
        <time>2018-10-14T08:19:34Z</time>
      </trkpt>
      <trkpt lat="47.28268" lon="4.54679">
        <ele>402</ele>
        <time>2018-10-14T08:19:37Z</time>
      </trkpt>
      <trkpt lat="47.28274" lon="4.54681">
        <ele>402</ele>
        <time>2018-10-14T08:19:41Z</time>
      </trkpt>
      <trkpt lat="47.28282" lon="4.54693">
        <ele>407</ele>
        <time>2018-10-14T08:19:53Z</time>
      </trkpt>
      <trkpt lat="47.28285" lon="4.54694">
        <ele>408</ele>
        <time>2018-10-14T08:19:57Z</time>
      </trkpt>
      <trkpt lat="47.2832" lon="4.54691">
        <ele>406</ele>
        <time>2018-10-14T08:20:28Z</time>
      </trkpt>
      <trkpt lat="47.28323" lon="4.54691">
        <ele>405</ele>
        <time>2018-10-14T08:20:30Z</time>
      </trkpt>
      <trkpt lat="47.28327" lon="4.54692">
        <ele>405</ele>
        <time>2018-10-14T08:20:33Z</time>
      </trkpt>
      <trkpt lat="47.28338" lon="4.54693">
        <ele>404</ele>
        <time>2018-10-14T08:20:37Z</time>
      </trkpt>
      <trkpt lat="47.28354" lon="4.54683">
        <ele>406</ele>
        <time>2018-10-14T08:20:46Z</time>
      </trkpt>
      <trkpt lat="47.28356" lon="4.5468">
        <ele>410</ele>
        <time>2018-10-14T08:20:53Z</time>
      </trkpt>
      <trkpt lat="47.28359" lon="4.54683">
        <ele>411</ele>
        <time>2018-10-14T08:20:58Z</time>
      </trkpt>
      <trkpt lat="47.28367" lon="4.54682">
        <ele>412</ele>
        <time>2018-10-14T08:21:07Z</time>
      </trkpt>
      <trkpt lat="47.28408" lon="4.54669">
        <ele>412</ele>
        <time>2018-10-14T08:21:39Z</time>
      </trkpt>
      <trkpt lat="47.28412" lon="4.54666">
        <ele>411</ele>
        <time>2018-10-14T08:21:42Z</time>
      </trkpt>
      <trkpt lat="47.28416" lon="4.54664">
        <ele>410</ele>
        <time>2018-10-14T08:21:44Z</time>
      </trkpt>
      <trkpt lat="47.2842" lon="4.54663">
        <ele>409</ele>
        <time>2018-10-14T08:21:47Z</time>
      </trkpt>
      <trkpt lat="47.28457" lon="4.5465">
        <ele>411</ele>
        <time>2018-10-14T08:22:19Z</time>
      </trkpt>
      <trkpt lat="47.28461" lon="4.54649">
        <ele>411</ele>
        <time>2018-10-14T08:22:22Z</time>
      </trkpt>
      <trkpt lat="47.28467" lon="4.54651">
        <ele>413</ele>
        <time>2018-10-14T08:22:29Z</time>
      </trkpt>
      <trkpt lat="47.2847" lon="4.5465">
        <ele>414</ele>
        <time>2018-10-14T08:22:32Z</time>
      </trkpt>
      <trkpt lat="47.28476" lon="4.54652">
        <ele>415</ele>
        <time>2018-10-14T08:22:38Z</time>
      </trkpt>
      <trkpt lat="47.28484" lon="4.54653">
        <ele>415</ele>
        <time>2018-10-14T08:22:42Z</time>
      </trkpt>
      <trkpt lat="47.28491" lon="4.54655">
        <ele>418</ele>
        <time>2018-10-14T08:22:49Z</time>
      </trkpt>
      <trkpt lat="47.28494" lon="4.54652">
        <ele>417</ele>
        <time>2018-10-14T08:22:52Z</time>
      </trkpt>
      <trkpt lat="47.28497" lon="4.54652">
        <ele>416</ele>
        <time>2018-10-14T08:22:56Z</time>
      </trkpt>
      <trkpt lat="47.28506" lon="4.54654">
        <ele>418</ele>
        <time>2018-10-14T08:23:03Z</time>
      </trkpt>
      <trkpt lat="47.28539" lon="4.54681">
        <ele>417</ele>
        <time>2018-10-14T08:23:34Z</time>
      </trkpt>
      <trkpt lat="47.28559" lon="4.54699">
        <ele>414</ele>
        <time>2018-10-14T08:23:52Z</time>
      </trkpt>
      <trkpt lat="47.28588" lon="4.54739">
        <ele>413</ele>
        <time>2018-10-14T08:24:17Z</time>
      </trkpt>
      <trkpt lat="47.28591" lon="4.54743">
        <ele>413</ele>
        <time>2018-10-14T08:24:20Z</time>
      </trkpt>
      <trkpt lat="47.28592" lon="4.54748">
        <ele>413</ele>
        <time>2018-10-14T08:24:22Z</time>
      </trkpt>
      <trkpt lat="47.2859" lon="4.54752">
        <ele>413</ele>
        <time>2018-10-14T08:24:37Z</time>
      </trkpt>
      <trkpt lat="47.28593" lon="4.54761">
        <ele>414</ele>
        <time>2018-10-14T08:24:41Z</time>
      </trkpt>
      <trkpt lat="47.28595" lon="4.54772">
        <ele>415</ele>
        <time>2018-10-14T08:24:45Z</time>
      </trkpt>
      <trkpt lat="47.28598" lon="4.54782">
        <ele>417</ele>
        <time>2018-10-14T08:24:49Z</time>
      </trkpt>
      <trkpt lat="47.28599" lon="4.54792">
        <ele>417</ele>
        <time>2018-10-14T08:24:55Z</time>
      </trkpt>
      <trkpt lat="47.28599" lon="4.54804">
        <ele>417</ele>
        <time>2018-10-14T08:25:01Z</time>
      </trkpt>
      <trkpt lat="47.28606" lon="4.54828">
        <ele>416</ele>
        <time>2018-10-14T08:25:13Z</time>
      </trkpt>
      <trkpt lat="47.28607" lon="4.54837">
        <ele>417</ele>
        <time>2018-10-14T08:25:17Z</time>
      </trkpt>
      <trkpt lat="47.28616" lon="4.54868">
        <ele>418</ele>
        <time>2018-10-14T08:25:30Z</time>
      </trkpt>
      <trkpt lat="47.2862" lon="4.54879">
        <ele>417</ele>
        <time>2018-10-14T08:25:34Z</time>
      </trkpt>
      <trkpt lat="47.28619" lon="4.54918">
        <ele>419</ele>
        <time>2018-10-14T08:26:06Z</time>
      </trkpt>
      <trkpt lat="47.2862" lon="4.54922">
        <ele>420</ele>
        <time>2018-10-14T08:26:08Z</time>
      </trkpt>
      <trkpt lat="47.28621" lon="4.54926">
        <ele>420</ele>
        <time>2018-10-14T08:26:10Z</time>
      </trkpt>
      <trkpt lat="47.28624" lon="4.54941">
        <ele>419</ele>
        <time>2018-10-14T08:26:19Z</time>
      </trkpt>
      <trkpt lat="47.28627" lon="4.5494">
        <ele>418</ele>
        <time>2018-10-14T08:26:48Z</time>
      </trkpt>
      <trkpt lat="47.28627" lon="4.54945">
        <ele>418</ele>
        <time>2018-10-14T08:26:50Z</time>
      </trkpt>
      <trkpt lat="47.28628" lon="4.54951">
        <ele>418</ele>
        <time>2018-10-14T08:26:53Z</time>
      </trkpt>
      <trkpt lat="47.28631" lon="4.54969">
        <ele>420</ele>
        <time>2018-10-14T08:27:02Z</time>
      </trkpt>
      <trkpt lat="47.28634" lon="4.54979">
        <ele>422</ele>
        <time>2018-10-14T08:27:07Z</time>
      </trkpt>
      <trkpt lat="47.28637" lon="4.54997">
        <ele>421</ele>
        <time>2018-10-14T08:27:19Z</time>
      </trkpt>
      <trkpt lat="47.2864" lon="4.54999">
        <ele>422</ele>
        <time>2018-10-14T08:27:22Z</time>
      </trkpt>
      <trkpt lat="47.28643" lon="4.55">
        <ele>422</ele>
        <time>2018-10-14T08:27:25Z</time>
      </trkpt>
      <trkpt lat="47.28646" lon="4.54993">
        <ele>420</ele>
        <time>2018-10-14T08:27:34Z</time>
      </trkpt>
      <trkpt lat="47.28649" lon="4.54991">
        <ele>420</ele>
        <time>2018-10-14T08:27:37Z</time>
      </trkpt>
      <trkpt lat="47.28653" lon="4.54988">
        <ele>420</ele>
        <time>2018-10-14T08:27:41Z</time>
      </trkpt>
      <trkpt lat="47.28657" lon="4.54982">
        <ele>421</ele>
        <time>2018-10-14T08:27:55Z</time>
      </trkpt>
      <trkpt lat="47.28676" lon="4.54951">
        <ele>422</ele>
        <time>2018-10-14T08:28:24Z</time>
      </trkpt>
      <trkpt lat="47.28678" lon="4.54948">
        <ele>421</ele>
        <time>2018-10-14T08:29:12Z</time>
      </trkpt>
      <trkpt lat="47.28682" lon="4.54948">
        <ele>421</ele>
        <time>2018-10-14T08:29:14Z</time>
      </trkpt>
      <trkpt lat="47.28685" lon="4.54948">
        <ele>420</ele>
        <time>2018-10-14T08:29:16Z</time>
      </trkpt>
      <trkpt lat="47.28688" lon="4.54945">
        <ele>419</ele>
        <time>2018-10-14T08:29:19Z</time>
      </trkpt>
      <trkpt lat="47.28691" lon="4.54941">
        <ele>418</ele>
        <time>2018-10-14T08:29:25Z</time>
      </trkpt>
      <trkpt lat="47.28694" lon="4.54937">
        <ele>417</ele>
        <time>2018-10-14T08:29:27Z</time>
      </trkpt>
      <trkpt lat="47.28698" lon="4.54933">
        <ele>419</ele>
        <time>2018-10-14T08:29:32Z</time>
      </trkpt>
      <trkpt lat="47.28702" lon="4.54922">
        <ele>420</ele>
        <time>2018-10-14T08:29:38Z</time>
      </trkpt>
      <trkpt lat="47.28702" lon="4.54916">
        <ele>422</ele>
        <time>2018-10-14T08:29:40Z</time>
      </trkpt>
      <trkpt lat="47.28703" lon="4.54908">
        <ele>423</ele>
        <time>2018-10-14T08:29:43Z</time>
      </trkpt>
      <trkpt lat="47.2871" lon="4.54888">
        <ele>424</ele>
        <time>2018-10-14T08:29:56Z</time>
      </trkpt>
      <trkpt lat="47.28712" lon="4.54883">
        <ele>425</ele>
        <time>2018-10-14T08:30:00Z</time>
      </trkpt>
      <trkpt lat="47.28726" lon="4.54863">
        <ele>426</ele>
        <time>2018-10-14T08:30:25Z</time>
      </trkpt>
      <trkpt lat="47.28732" lon="4.54858">
        <ele>428</ele>
        <time>2018-10-14T08:30:32Z</time>
      </trkpt>
      <trkpt lat="47.28736" lon="4.54856">
        <ele>432</ele>
        <time>2018-10-14T08:30:37Z</time>
      </trkpt>
      <trkpt lat="47.2874" lon="4.54856">
        <ele>433</ele>
        <time>2018-10-14T08:30:39Z</time>
      </trkpt>
      <trkpt lat="47.28745" lon="4.54853">
        <ele>435</ele>
        <time>2018-10-14T08:30:47Z</time>
      </trkpt>
      <trkpt lat="47.2875" lon="4.54845">
        <ele>437</ele>
        <time>2018-10-14T08:30:56Z</time>
      </trkpt>
      <trkpt lat="47.2876" lon="4.54837">
        <ele>441</ele>
        <time>2018-10-14T08:31:09Z</time>
      </trkpt>
      <trkpt lat="47.28763" lon="4.54834">
        <ele>442</ele>
        <time>2018-10-14T08:31:12Z</time>
      </trkpt>
      <trkpt lat="47.28767" lon="4.54833">
        <ele>444</ele>
        <time>2018-10-14T08:31:17Z</time>
      </trkpt>
      <trkpt lat="47.2877" lon="4.54837">
        <ele>447</ele>
        <time>2018-10-14T08:31:21Z</time>
      </trkpt>
      <trkpt lat="47.28775" lon="4.54838">
        <ele>454</ele>
        <time>2018-10-14T08:31:27Z</time>
      </trkpt>
      <trkpt lat="47.28779" lon="4.54831">
        <ele>452</ele>
        <time>2018-10-14T08:31:32Z</time>
      </trkpt>
      <trkpt lat="47.28781" lon="4.54824">
        <ele>450</ele>
        <time>2018-10-14T08:31:34Z</time>
      </trkpt>
      <trkpt lat="47.28781" lon="4.5482">
        <ele>450</ele>
        <time>2018-10-14T08:31:37Z</time>
      </trkpt>
      <trkpt lat="47.28783" lon="4.54817">
        <ele>451</ele>
        <time>2018-10-14T08:31:41Z</time>
      </trkpt>
      <trkpt lat="47.28786" lon="4.54812">
        <ele>451</ele>
        <time>2018-10-14T08:31:44Z</time>
      </trkpt>
      <trkpt lat="47.2879" lon="4.54812">
        <ele>451</ele>
        <time>2018-10-14T08:31:46Z</time>
      </trkpt>
      <trkpt lat="47.28819" lon="4.54792">
        <ele>458</ele>
        <time>2018-10-14T08:32:18Z</time>
      </trkpt>
      <trkpt lat="47.28823" lon="4.5479">
        <ele>459</ele>
        <time>2018-10-14T08:32:20Z</time>
      </trkpt>
      <trkpt lat="47.28824" lon="4.54786">
        <ele>458</ele>
        <time>2018-10-14T08:32:26Z</time>
      </trkpt>
      <trkpt lat="47.28827" lon="4.54782">
        <ele>458</ele>
        <time>2018-10-14T08:32:31Z</time>
      </trkpt>
      <trkpt lat="47.2883" lon="4.54782">
        <ele>460</ele>
        <time>2018-10-14T08:32:37Z</time>
      </trkpt>
      <trkpt lat="47.28834" lon="4.54778">
        <ele>460</ele>
        <time>2018-10-14T08:32:43Z</time>
      </trkpt>
      <trkpt lat="47.28836" lon="4.54773">
        <ele>458</ele>
        <time>2018-10-14T08:32:47Z</time>
      </trkpt>
      <trkpt lat="47.28838" lon="4.54769">
        <ele>457</ele>
        <time>2018-10-14T08:32:57Z</time>
      </trkpt>
      <trkpt lat="47.28842" lon="4.54768">
        <ele>456</ele>
        <time>2018-10-14T08:33:01Z</time>
      </trkpt>
      <trkpt lat="47.28844" lon="4.54766">
        <ele>455</ele>
        <time>2018-10-14T08:33:03Z</time>
      </trkpt>
      <trkpt lat="47.2885" lon="4.54762">
        <ele>458</ele>
        <time>2018-10-14T08:33:11Z</time>
      </trkpt>
      <trkpt lat="47.28858" lon="4.54755">
        <ele>460</ele>
        <time>2018-10-14T08:33:19Z</time>
      </trkpt>
      <trkpt lat="47.28865" lon="4.54751">
        <ele>464</ele>
        <time>2018-10-14T08:33:27Z</time>
      </trkpt>
      <trkpt lat="47.28868" lon="4.54749">
        <ele>465</ele>
        <time>2018-10-14T08:33:36Z</time>
      </trkpt>
      <trkpt lat="47.28871" lon="4.54745">
        <ele>464</ele>
        <time>2018-10-14T08:33:41Z</time>
      </trkpt>
      <trkpt lat="47.28877" lon="4.54741">
        <ele>465</ele>
        <time>2018-10-14T08:33:48Z</time>
      </trkpt>
      <trkpt lat="47.28879" lon="4.54737">
        <ele>465</ele>
        <time>2018-10-14T08:33:51Z</time>
      </trkpt>
      <trkpt lat="47.28892" lon="4.54724">
        <ele>467</ele>
        <time>2018-10-14T08:34:07Z</time>
      </trkpt>
      <trkpt lat="47.28896" lon="4.5472">
        <ele>457</ele>
        <time>2018-10-14T08:34:11Z</time>
      </trkpt>
      <trkpt lat="47.28902" lon="4.54716">
        <ele>465</ele>
        <time>2018-10-14T08:34:17Z</time>
      </trkpt>
      <trkpt lat="47.28906" lon="4.54715">
        <ele>467</ele>
        <time>2018-10-14T08:34:23Z</time>
      </trkpt>
      <trkpt lat="47.28909" lon="4.54712">
        <ele>468</ele>
        <time>2018-10-14T08:34:26Z</time>
      </trkpt>
      <trkpt lat="47.28912" lon="4.54708">
        <ele>470</ele>
        <time>2018-10-14T08:34:30Z</time>
      </trkpt>
      <trkpt lat="47.28918" lon="4.54703">
        <ele>472</ele>
        <time>2018-10-14T08:34:39Z</time>
      </trkpt>
      <trkpt lat="47.28922" lon="4.54704">
        <ele>472</ele>
        <time>2018-10-14T08:34:48Z</time>
      </trkpt>
      <trkpt lat="47.28924" lon="4.547">
        <ele>474</ele>
        <time>2018-10-14T08:34:51Z</time>
      </trkpt>
      <trkpt lat="47.28927" lon="4.54696">
        <ele>474</ele>
        <time>2018-10-14T08:34:55Z</time>
      </trkpt>
      <trkpt lat="47.28931" lon="4.54693">
        <ele>470</ele>
        <time>2018-10-14T08:34:59Z</time>
      </trkpt>
      <trkpt lat="47.28934" lon="4.54691">
        <ele>465</ele>
        <time>2018-10-14T08:35:02Z</time>
      </trkpt>
      <trkpt lat="47.28937" lon="4.54687">
        <ele>468</ele>
        <time>2018-10-14T08:35:08Z</time>
      </trkpt>
      <trkpt lat="47.2894" lon="4.54683">
        <ele>469</ele>
        <time>2018-10-14T08:35:14Z</time>
      </trkpt>
      <trkpt lat="47.28946" lon="4.54682">
        <ele>473</ele>
        <time>2018-10-14T08:35:20Z</time>
      </trkpt>
      <trkpt lat="47.2895" lon="4.54681">
        <ele>476</ele>
        <time>2018-10-14T08:35:24Z</time>
      </trkpt>
      <trkpt lat="47.28954" lon="4.54684">
        <ele>477</ele>
        <time>2018-10-14T08:35:29Z</time>
      </trkpt>
      <trkpt lat="47.28959" lon="4.5468">
        <ele>478</ele>
        <time>2018-10-14T08:35:34Z</time>
      </trkpt>
      <trkpt lat="47.28961" lon="4.54677">
        <ele>477</ele>
        <time>2018-10-14T08:35:38Z</time>
      </trkpt>
      <trkpt lat="47.28964" lon="4.54679">
        <ele>480</ele>
        <time>2018-10-14T08:35:49Z</time>
      </trkpt>
      <trkpt lat="47.28968" lon="4.54677">
        <ele>483</ele>
        <time>2018-10-14T08:35:57Z</time>
      </trkpt>
      <trkpt lat="47.28974" lon="4.54673">
        <ele>482</ele>
        <time>2018-10-14T08:36:03Z</time>
      </trkpt>
      <trkpt lat="47.28977" lon="4.5467">
        <ele>484</ele>
        <time>2018-10-14T08:36:06Z</time>
      </trkpt>
      <trkpt lat="47.2898" lon="4.54669">
        <ele>485</ele>
        <time>2018-10-14T08:36:11Z</time>
      </trkpt>
      <trkpt lat="47.28983" lon="4.5467">
        <ele>486</ele>
        <time>2018-10-14T08:36:15Z</time>
      </trkpt>
      <trkpt lat="47.28985" lon="4.54668">
        <ele>487</ele>
        <time>2018-10-14T08:36:26Z</time>
      </trkpt>
      <trkpt lat="47.29012" lon="4.54657">
        <ele>492</ele>
        <time>2018-10-14T08:36:59Z</time>
      </trkpt>
      <trkpt lat="47.29016" lon="4.54658">
        <ele>495</ele>
        <time>2018-10-14T08:37:08Z</time>
      </trkpt>
      <trkpt lat="47.29019" lon="4.54655">
        <ele>495</ele>
        <time>2018-10-14T08:37:13Z</time>
      </trkpt>
      <trkpt lat="47.29028" lon="4.54647">
        <ele>491</ele>
        <time>2018-10-14T08:37:21Z</time>
      </trkpt>
      <trkpt lat="47.29031" lon="4.54648">
        <ele>493</ele>
        <time>2018-10-14T08:37:27Z</time>
      </trkpt>
      <trkpt lat="47.29034" lon="4.54645">
        <ele>494</ele>
        <time>2018-10-14T08:37:31Z</time>
      </trkpt>
      <trkpt lat="47.29037" lon="4.54645">
        <ele>495</ele>
        <time>2018-10-14T08:37:39Z</time>
      </trkpt>
      <trkpt lat="47.29041" lon="4.54647">
        <ele>495</ele>
        <time>2018-10-14T08:37:42Z</time>
      </trkpt>
      <trkpt lat="47.29044" lon="4.54646">
        <ele>495</ele>
        <time>2018-10-14T08:37:45Z</time>
      </trkpt>
      <trkpt lat="47.29046" lon="4.54643">
        <ele>496</ele>
        <time>2018-10-14T08:37:48Z</time>
      </trkpt>
      <trkpt lat="47.29049" lon="4.54642">
        <ele>494</ele>
        <time>2018-10-14T08:37:53Z</time>
      </trkpt>
      <trkpt lat="47.29057" lon="4.5464">
        <ele>496</ele>
        <time>2018-10-14T08:37:58Z</time>
      </trkpt>
      <trkpt lat="47.2906" lon="4.54638">
        <ele>497</ele>
        <time>2018-10-14T08:38:04Z</time>
      </trkpt>
      <trkpt lat="47.29063" lon="4.54635">
        <ele>498</ele>
        <time>2018-10-14T08:38:08Z</time>
      </trkpt>
      <trkpt lat="47.2907" lon="4.54634">
        <ele>498</ele>
        <time>2018-10-14T08:38:16Z</time>
      </trkpt>
      <trkpt lat="47.29074" lon="4.54626">
        <ele>498</ele>
        <time>2018-10-14T08:38:25Z</time>
      </trkpt>
      <trkpt lat="47.29076" lon="4.54624">
        <ele>497</ele>
        <time>2018-10-14T08:38:33Z</time>
      </trkpt>
      <trkpt lat="47.29077" lon="4.54619">
        <ele>497</ele>
        <time>2018-10-14T08:38:47Z</time>
      </trkpt>
      <trkpt lat="47.29078" lon="4.54613">
        <ele>498</ele>
        <time>2018-10-14T08:38:50Z</time>
      </trkpt>
      <trkpt lat="47.29078" lon="4.54602">
        <ele>499</ele>
        <time>2018-10-14T08:38:54Z</time>
      </trkpt>
      <trkpt lat="47.29078" lon="4.54589">
        <ele>501</ele>
        <time>2018-10-14T08:38:58Z</time>
      </trkpt>
      <trkpt lat="47.29078" lon="4.54585">
        <ele>501</ele>
        <time>2018-10-14T08:39:02Z</time>
      </trkpt>
      <trkpt lat="47.29078" lon="4.54576">
        <ele>502</ele>
        <time>2018-10-14T08:39:11Z</time>
      </trkpt>
      <trkpt lat="47.29078" lon="4.5457">
        <ele>502</ele>
        <time>2018-10-14T08:39:14Z</time>
      </trkpt>
      <trkpt lat="47.29083" lon="4.54544">
        <ele>503</ele>
        <time>2018-10-14T08:39:30Z</time>
      </trkpt>
      <trkpt lat="47.29089" lon="4.54532">
        <ele>502</ele>
        <time>2018-10-14T08:39:36Z</time>
      </trkpt>
      <trkpt lat="47.29089" lon="4.54527">
        <ele>502</ele>
        <time>2018-10-14T08:39:38Z</time>
      </trkpt>
      <trkpt lat="47.2909" lon="4.54522">
        <ele>501</ele>
        <time>2018-10-14T08:39:42Z</time>
      </trkpt>
      <trkpt lat="47.29093" lon="4.54507">
        <ele>504</ele>
        <time>2018-10-14T08:39:55Z</time>
      </trkpt>
      <trkpt lat="47.29097" lon="4.54501">
        <ele>503</ele>
        <time>2018-10-14T08:39:58Z</time>
      </trkpt>
      <trkpt lat="47.29099" lon="4.54497">
        <ele>502</ele>
        <time>2018-10-14T08:40:02Z</time>
      </trkpt>
      <trkpt lat="47.29101" lon="4.54493">
        <ele>502</ele>
        <time>2018-10-14T08:40:04Z</time>
      </trkpt>
      <trkpt lat="47.29107" lon="4.54473">
        <ele>508</ele>
        <time>2018-10-14T08:40:18Z</time>
      </trkpt>
      <trkpt lat="47.29117" lon="4.54454">
        <ele>508</ele>
        <time>2018-10-14T08:40:34Z</time>
      </trkpt>
      <trkpt lat="47.29122" lon="4.54449">
        <ele>509</ele>
        <time>2018-10-14T08:40:38Z</time>
      </trkpt>
      <trkpt lat="47.29124" lon="4.54445">
        <ele>510</ele>
        <time>2018-10-14T08:40:41Z</time>
      </trkpt>
      <trkpt lat="47.29127" lon="4.54441">
        <ele>511</ele>
        <time>2018-10-14T08:40:45Z</time>
      </trkpt>
      <trkpt lat="47.29129" lon="4.54437">
        <ele>491</ele>
        <time>2018-10-14T08:40:49Z</time>
      </trkpt>
      <trkpt lat="47.29133" lon="4.54433">
        <ele>491</ele>
        <time>2018-10-14T08:40:51Z</time>
      </trkpt>
      <trkpt lat="47.29139" lon="4.54426">
        <ele>502</ele>
        <time>2018-10-14T08:40:57Z</time>
      </trkpt>
      <trkpt lat="47.29139" lon="4.54421">
        <ele>509</ele>
        <time>2018-10-14T08:41:02Z</time>
      </trkpt>
      <trkpt lat="47.29138" lon="4.54416">
        <ele>509</ele>
        <time>2018-10-14T08:41:04Z</time>
      </trkpt>
      <trkpt lat="47.29143" lon="4.54407">
        <ele>509</ele>
        <time>2018-10-14T08:41:08Z</time>
      </trkpt>
      <trkpt lat="47.29145" lon="4.54402">
        <ele>510</ele>
        <time>2018-10-14T08:41:11Z</time>
      </trkpt>
      <trkpt lat="47.29143" lon="4.5439">
        <ele>509</ele>
        <time>2018-10-14T08:41:15Z</time>
      </trkpt>
      <trkpt lat="47.29144" lon="4.54371">
        <ele>510</ele>
        <time>2018-10-14T08:41:21Z</time>
      </trkpt>
      <trkpt lat="47.29143" lon="4.54366">
        <ele>510</ele>
        <time>2018-10-14T08:41:23Z</time>
      </trkpt>
      <trkpt lat="47.29143" lon="4.54359">
        <ele>513</ele>
        <time>2018-10-14T08:41:27Z</time>
      </trkpt>
      <trkpt lat="47.29151" lon="4.54336">
        <ele>512</ele>
        <time>2018-10-14T08:41:39Z</time>
      </trkpt>
      <trkpt lat="47.29153" lon="4.5433">
        <ele>510</ele>
        <time>2018-10-14T08:41:46Z</time>
      </trkpt>
      <trkpt lat="47.29156" lon="4.54326">
        <ele>509</ele>
        <time>2018-10-14T08:41:48Z</time>
      </trkpt>
      <trkpt lat="47.29158" lon="4.5432">
        <ele>510</ele>
        <time>2018-10-14T08:41:50Z</time>
      </trkpt>
      <trkpt lat="47.2916" lon="4.54297">
        <ele>509</ele>
        <time>2018-10-14T08:41:56Z</time>
      </trkpt>
      <trkpt lat="47.2916" lon="4.54292">
        <ele>509</ele>
        <time>2018-10-14T08:41:58Z</time>
      </trkpt>
      <trkpt lat="47.29159" lon="4.54287">
        <ele>509</ele>
        <time>2018-10-14T08:42:01Z</time>
      </trkpt>
      <trkpt lat="47.29159" lon="4.54283">
        <ele>509</ele>
        <time>2018-10-14T08:42:05Z</time>
      </trkpt>
      <trkpt lat="47.29162" lon="4.54279">
        <ele>509</ele>
        <time>2018-10-14T08:42:08Z</time>
      </trkpt>
      <trkpt lat="47.29161" lon="4.54268">
        <ele>509</ele>
        <time>2018-10-14T08:42:12Z</time>
      </trkpt>
      <trkpt lat="47.29155" lon="4.54248">
        <ele>508</ele>
        <time>2018-10-14T08:42:19Z</time>
      </trkpt>
      <trkpt lat="47.29156" lon="4.54244">
        <ele>511</ele>
        <time>2018-10-14T08:42:54Z</time>
      </trkpt>
      <trkpt lat="47.29156" lon="4.54239">
        <ele>511</ele>
        <time>2018-10-14T08:42:57Z</time>
      </trkpt>
      <trkpt lat="47.29158" lon="4.54234">
        <ele>509</ele>
        <time>2018-10-14T08:43:00Z</time>
      </trkpt>
      <trkpt lat="47.29158" lon="4.54228">
        <ele>508</ele>
        <time>2018-10-14T08:43:02Z</time>
      </trkpt>
      <trkpt lat="47.29158" lon="4.54223">
        <ele>508</ele>
        <time>2018-10-14T08:43:04Z</time>
      </trkpt>
      <trkpt lat="47.29158" lon="4.54219">
        <ele>507</ele>
        <time>2018-10-14T08:43:08Z</time>
      </trkpt>
      <trkpt lat="47.29164" lon="4.54201">
        <ele>509</ele>
        <time>2018-10-14T08:43:20Z</time>
      </trkpt>
      <trkpt lat="47.29165" lon="4.54196">
        <ele>510</ele>
        <time>2018-10-14T08:43:22Z</time>
      </trkpt>
      <trkpt lat="47.29167" lon="4.54159">
        <ele>512</ele>
        <time>2018-10-14T08:43:37Z</time>
      </trkpt>
      <trkpt lat="47.29166" lon="4.54152">
        <ele>511</ele>
        <time>2018-10-14T08:43:40Z</time>
      </trkpt>
      <trkpt lat="47.29164" lon="4.54146">
        <ele>509</ele>
        <time>2018-10-14T08:43:44Z</time>
      </trkpt>
      <trkpt lat="47.29162" lon="4.5414">
        <ele>507</ele>
        <time>2018-10-14T08:43:48Z</time>
      </trkpt>
      <trkpt lat="47.29164" lon="4.54133">
        <ele>507</ele>
        <time>2018-10-14T08:43:51Z</time>
      </trkpt>
      <trkpt lat="47.29166" lon="4.54127">
        <ele>507</ele>
        <time>2018-10-14T08:43:54Z</time>
      </trkpt>
      <trkpt lat="47.29169" lon="4.54119">
        <ele>506</ele>
        <time>2018-10-14T08:43:58Z</time>
      </trkpt>
      <trkpt lat="47.29168" lon="4.54115">
        <ele>506</ele>
        <time>2018-10-14T08:44:00Z</time>
      </trkpt>
      <trkpt lat="47.29166" lon="4.54111">
        <ele>506</ele>
        <time>2018-10-14T08:44:02Z</time>
      </trkpt>
      <trkpt lat="47.29162" lon="4.54103">
        <ele>505</ele>
        <time>2018-10-14T08:44:08Z</time>
      </trkpt>
      <trkpt lat="47.29159" lon="4.54099">
        <ele>504</ele>
        <time>2018-10-14T08:44:11Z</time>
      </trkpt>
      <trkpt lat="47.29153" lon="4.54092">
        <ele>506</ele>
        <time>2018-10-14T08:44:15Z</time>
      </trkpt>
      <trkpt lat="47.29149" lon="4.5409">
        <ele>508</ele>
        <time>2018-10-14T08:44:17Z</time>
      </trkpt>
      <trkpt lat="47.29146" lon="4.54087">
        <ele>508</ele>
        <time>2018-10-14T08:44:19Z</time>
      </trkpt>
      <trkpt lat="47.29144" lon="4.54083">
        <ele>511</ele>
        <time>2018-10-14T08:44:21Z</time>
      </trkpt>
      <trkpt lat="47.29143" lon="4.54078">
        <ele>510</ele>
        <time>2018-10-14T08:44:24Z</time>
      </trkpt>
      <trkpt lat="47.29123" lon="4.54055">
        <ele>503</ele>
        <time>2018-10-14T08:44:42Z</time>
      </trkpt>
      <trkpt lat="47.2912" lon="4.54052">
        <ele>504</ele>
        <time>2018-10-14T08:44:45Z</time>
      </trkpt>
      <trkpt lat="47.29118" lon="4.54047">
        <ele>502</ele>
        <time>2018-10-14T08:44:49Z</time>
      </trkpt>
      <trkpt lat="47.29092" lon="4.54007">
        <ele>497</ele>
        <time>2018-10-14T08:45:16Z</time>
      </trkpt>
      <trkpt lat="47.29091" lon="4.54003">
        <ele>497</ele>
        <time>2018-10-14T08:45:19Z</time>
      </trkpt>
      <trkpt lat="47.29089" lon="4.53998">
        <ele>498</ele>
        <time>2018-10-14T08:45:21Z</time>
      </trkpt>
      <trkpt lat="47.29087" lon="4.53994">
        <ele>498</ele>
        <time>2018-10-14T08:45:24Z</time>
      </trkpt>
      <trkpt lat="47.29086" lon="4.5399">
        <ele>497</ele>
        <time>2018-10-14T08:45:29Z</time>
      </trkpt>
      <trkpt lat="47.29083" lon="4.53985">
        <ele>498</ele>
        <time>2018-10-14T08:45:32Z</time>
      </trkpt>
      <trkpt lat="47.29082" lon="4.53982">
        <ele>498</ele>
        <time>2018-10-14T08:45:35Z</time>
      </trkpt>
      <trkpt lat="47.29081" lon="4.53976">
        <ele>497</ele>
        <time>2018-10-14T08:45:39Z</time>
      </trkpt>
      <trkpt lat="47.29074" lon="4.5391">
        <ele>490</ele>
        <time>2018-10-14T08:46:11Z</time>
      </trkpt>
      <trkpt lat="47.29074" lon="4.53905">
        <ele>489</ele>
        <time>2018-10-14T08:46:15Z</time>
      </trkpt>
      <trkpt lat="47.29074" lon="4.53899">
        <ele>488</ele>
        <time>2018-10-14T08:46:19Z</time>
      </trkpt>
      <trkpt lat="47.29073" lon="4.53895">
        <ele>487</ele>
        <time>2018-10-14T08:46:21Z</time>
      </trkpt>
      <trkpt lat="47.29071" lon="4.53869">
        <ele>487</ele>
        <time>2018-10-14T08:46:31Z</time>
      </trkpt>
      <trkpt lat="47.29071" lon="4.53864">
        <ele>487</ele>
        <time>2018-10-14T08:46:33Z</time>
      </trkpt>
      <trkpt lat="47.29078" lon="4.53852">
        <ele>488</ele>
        <time>2018-10-14T08:46:40Z</time>
      </trkpt>
      <trkpt lat="47.29085" lon="4.53846">
        <ele>486</ele>
        <time>2018-10-14T08:46:46Z</time>
      </trkpt>
      <trkpt lat="47.29092" lon="4.53839">
        <ele>485</ele>
        <time>2018-10-14T08:46:52Z</time>
      </trkpt>
      <trkpt lat="47.29096" lon="4.53837">
        <ele>485</ele>
        <time>2018-10-14T08:46:55Z</time>
      </trkpt>
      <trkpt lat="47.29105" lon="4.5383">
        <ele>483</ele>
        <time>2018-10-14T08:47:03Z</time>
      </trkpt>
      <trkpt lat="47.29109" lon="4.53829">
        <ele>483</ele>
        <time>2018-10-14T08:47:07Z</time>
      </trkpt>
      <trkpt lat="47.29112" lon="4.53828">
        <ele>482</ele>
        <time>2018-10-14T08:47:11Z</time>
      </trkpt>
      <trkpt lat="47.29116" lon="4.53827">
        <ele>480</ele>
        <time>2018-10-14T08:47:15Z</time>
      </trkpt>
      <trkpt lat="47.29132" lon="4.53814">
        <ele>476</ele>
        <time>2018-10-14T08:47:28Z</time>
      </trkpt>
      <trkpt lat="47.29158" lon="4.53796">
        <ele>477</ele>
        <time>2018-10-14T08:47:40Z</time>
      </trkpt>
      <trkpt lat="47.29173" lon="4.53791">
        <ele>478</ele>
        <time>2018-10-14T08:47:48Z</time>
      </trkpt>
      <trkpt lat="47.29181" lon="4.53785">
        <ele>478</ele>
        <time>2018-10-14T08:47:55Z</time>
      </trkpt>
      <trkpt lat="47.29184" lon="4.53782">
        <ele>476</ele>
        <time>2018-10-14T08:47:58Z</time>
      </trkpt>
      <trkpt lat="47.29186" lon="4.53777">
        <ele>475</ele>
        <time>2018-10-14T08:48:02Z</time>
      </trkpt>
      <trkpt lat="47.29221" lon="4.53749">
        <ele>468</ele>
        <time>2018-10-14T08:48:32Z</time>
      </trkpt>
      <trkpt lat="47.29249" lon="4.5373">
        <ele>465</ele>
        <time>2018-10-14T08:49:03Z</time>
      </trkpt>
      <trkpt lat="47.29282" lon="4.53701">
        <ele>463</ele>
        <time>2018-10-14T08:49:20Z</time>
      </trkpt>
      <trkpt lat="47.29286" lon="4.53699">
        <ele>464</ele>
        <time>2018-10-14T08:49:23Z</time>
      </trkpt>
      <trkpt lat="47.29304" lon="4.53685">
        <ele>461</ele>
        <time>2018-10-14T08:49:41Z</time>
      </trkpt>
      <trkpt lat="47.29307" lon="4.53681">
        <ele>460</ele>
        <time>2018-10-14T08:49:43Z</time>
      </trkpt>
      <trkpt lat="47.29325" lon="4.53665">
        <ele>458</ele>
        <time>2018-10-14T08:50:02Z</time>
      </trkpt>
      <trkpt lat="47.29329" lon="4.53664">
        <ele>458</ele>
        <time>2018-10-14T08:50:04Z</time>
      </trkpt>
      <trkpt lat="47.29333" lon="4.53662">
        <ele>459</ele>
        <time>2018-10-14T08:50:06Z</time>
      </trkpt>
      <trkpt lat="47.29337" lon="4.53658">
        <ele>457</ele>
        <time>2018-10-14T08:50:08Z</time>
      </trkpt>
      <trkpt lat="47.29345" lon="4.53653">
        <ele>456</ele>
        <time>2018-10-14T08:50:12Z</time>
      </trkpt>
      <trkpt lat="47.29358" lon="4.53649">
        <ele>460</ele>
        <time>2018-10-14T08:50:24Z</time>
      </trkpt>
      <trkpt lat="47.29405" lon="4.53625">
        <ele>459</ele>
        <time>2018-10-14T08:50:55Z</time>
      </trkpt>
      <trkpt lat="47.29408" lon="4.53624">
        <ele>458</ele>
        <time>2018-10-14T08:50:57Z</time>
      </trkpt>
      <trkpt lat="47.29412" lon="4.53619">
        <ele>459</ele>
        <time>2018-10-14T08:51:00Z</time>
      </trkpt>
      <trkpt lat="47.29415" lon="4.53619">
        <ele>460</ele>
        <time>2018-10-14T08:51:04Z</time>
      </trkpt>
      <trkpt lat="47.29418" lon="4.53617">
        <ele>460</ele>
        <time>2018-10-14T08:51:08Z</time>
      </trkpt>
      <trkpt lat="47.29452" lon="4.53602">
        <ele>460</ele>
        <time>2018-10-14T08:51:29Z</time>
      </trkpt>
      <trkpt lat="47.29455" lon="4.53601">
        <ele>461</ele>
        <time>2018-10-14T08:51:33Z</time>
      </trkpt>
      <trkpt lat="47.29459" lon="4.536">
        <ele>460</ele>
        <time>2018-10-14T08:51:37Z</time>
      </trkpt>
      <trkpt lat="47.29467" lon="4.53597">
        <ele>461</ele>
        <time>2018-10-14T08:51:42Z</time>
      </trkpt>
      <trkpt lat="47.29481" lon="4.53595">
        <ele>459</ele>
        <time>2018-10-14T08:51:48Z</time>
      </trkpt>
      <trkpt lat="47.29485" lon="4.53593">
        <ele>459</ele>
        <time>2018-10-14T08:51:50Z</time>
      </trkpt>
      <trkpt lat="47.29496" lon="4.5359">
        <ele>458</ele>
        <time>2018-10-14T08:51:56Z</time>
      </trkpt>
      <trkpt lat="47.29499" lon="4.5359">
        <ele>458</ele>
        <time>2018-10-14T08:51:59Z</time>
      </trkpt>
      <trkpt lat="47.29502" lon="4.5359">
        <ele>457</ele>
        <time>2018-10-14T08:52:05Z</time>
      </trkpt>
      <trkpt lat="47.29519" lon="4.53579">
        <ele>455</ele>
        <time>2018-10-14T08:52:14Z</time>
      </trkpt>
      <trkpt lat="47.29527" lon="4.53575">
        <ele>454</ele>
        <time>2018-10-14T08:52:19Z</time>
      </trkpt>
      <trkpt lat="47.29528" lon="4.53572">
        <ele>458</ele>
        <time>2018-10-14T08:53:12Z</time>
      </trkpt>
      <trkpt lat="47.29531" lon="4.5357">
        <ele>458</ele>
        <time>2018-10-14T08:53:19Z</time>
      </trkpt>
      <trkpt lat="47.29534" lon="4.5357">
        <ele>457</ele>
        <time>2018-10-14T08:53:22Z</time>
      </trkpt>
      <trkpt lat="47.29538" lon="4.53569">
        <ele>458</ele>
        <time>2018-10-14T08:53:25Z</time>
      </trkpt>
      <trkpt lat="47.29541" lon="4.53567">
        <ele>457</ele>
        <time>2018-10-14T08:53:28Z</time>
      </trkpt>
      <trkpt lat="47.29544" lon="4.53566">
        <ele>456</ele>
        <time>2018-10-14T08:53:32Z</time>
      </trkpt>
      <trkpt lat="47.2955" lon="4.53563">
        <ele>454</ele>
        <time>2018-10-14T08:53:37Z</time>
      </trkpt>
      <trkpt lat="47.29554" lon="4.53564">
        <ele>454</ele>
        <time>2018-10-14T08:53:40Z</time>
      </trkpt>
      <trkpt lat="47.2956" lon="4.53559">
        <ele>452</ele>
        <time>2018-10-14T08:53:44Z</time>
      </trkpt>
      <trkpt lat="47.29563" lon="4.53553">
        <ele>453</ele>
        <time>2018-10-14T08:53:47Z</time>
      </trkpt>
      <trkpt lat="47.29564" lon="4.53548">
        <ele>454</ele>
        <time>2018-10-14T08:53:49Z</time>
      </trkpt>
      <trkpt lat="47.29559" lon="4.53535">
        <ele>452</ele>
        <time>2018-10-14T08:53:56Z</time>
      </trkpt>
      <trkpt lat="47.29557" lon="4.53503">
        <ele>454</ele>
        <time>2018-10-14T08:54:17Z</time>
      </trkpt>
      <trkpt lat="47.29555" lon="4.53498">
        <ele>453</ele>
        <time>2018-10-14T08:54:19Z</time>
      </trkpt>
      <trkpt lat="47.29552" lon="4.53484">
        <ele>450</ele>
        <time>2018-10-14T08:54:26Z</time>
      </trkpt>
      <trkpt lat="47.2955" lon="4.5348">
        <ele>449</ele>
        <time>2018-10-14T08:54:30Z</time>
      </trkpt>
      <trkpt lat="47.29543" lon="4.53458">
        <ele>444</ele>
        <time>2018-10-14T08:54:44Z</time>
      </trkpt>
      <trkpt lat="47.29539" lon="4.53448">
        <ele>441</ele>
        <time>2018-10-14T08:54:49Z</time>
      </trkpt>
      <trkpt lat="47.29538" lon="4.53443">
        <ele>441</ele>
        <time>2018-10-14T08:54:52Z</time>
      </trkpt>
      <trkpt lat="47.2953" lon="4.53421">
        <ele>439</ele>
        <time>2018-10-14T08:55:04Z</time>
      </trkpt>
      <trkpt lat="47.29525" lon="4.53407">
        <ele>436</ele>
        <time>2018-10-14T08:55:17Z</time>
      </trkpt>
      <trkpt lat="47.29507" lon="4.53378">
        <ele>433</ele>
        <time>2018-10-14T08:55:37Z</time>
      </trkpt>
      <trkpt lat="47.29502" lon="4.5337">
        <ele>430</ele>
        <time>2018-10-14T08:55:41Z</time>
      </trkpt>
      <trkpt lat="47.29497" lon="4.53359">
        <ele>427</ele>
        <time>2018-10-14T08:55:51Z</time>
      </trkpt>
      <trkpt lat="47.29495" lon="4.5335">
        <ele>427</ele>
        <time>2018-10-14T08:56:00Z</time>
      </trkpt>
      <trkpt lat="47.29494" lon="4.5334">
        <ele>427</ele>
        <time>2018-10-14T08:56:05Z</time>
      </trkpt>
      <trkpt lat="47.29491" lon="4.53336">
        <ele>426</ele>
        <time>2018-10-14T08:56:08Z</time>
      </trkpt>
      <trkpt lat="47.29482" lon="4.53322">
        <ele>424</ele>
        <time>2018-10-14T08:56:16Z</time>
      </trkpt>
      <trkpt lat="47.29472" lon="4.53306">
        <ele>418</ele>
        <time>2018-10-14T08:56:30Z</time>
      </trkpt>
      <trkpt lat="47.29467" lon="4.533">
        <ele>415</ele>
        <time>2018-10-14T08:56:36Z</time>
      </trkpt>
      <trkpt lat="47.29467" lon="4.53295">
        <ele>414</ele>
        <time>2018-10-14T08:56:40Z</time>
      </trkpt>
      <trkpt lat="47.29465" lon="4.53291">
        <ele>415</ele>
        <time>2018-10-14T08:56:44Z</time>
      </trkpt>
      <trkpt lat="47.29463" lon="4.53287">
        <ele>414</ele>
        <time>2018-10-14T08:56:47Z</time>
      </trkpt>
      <trkpt lat="47.29455" lon="4.53277">
        <ele>412</ele>
        <time>2018-10-14T08:56:58Z</time>
      </trkpt>
      <trkpt lat="47.29453" lon="4.53275">
        <ele>411</ele>
        <time>2018-10-14T08:57:01Z</time>
      </trkpt>
      <trkpt lat="47.2945" lon="4.53271">
        <ele>410</ele>
        <time>2018-10-14T08:57:04Z</time>
      </trkpt>
      <trkpt lat="47.29443" lon="4.53265">
        <ele>407</ele>
        <time>2018-10-14T08:57:11Z</time>
      </trkpt>
      <trkpt lat="47.29428" lon="4.5325">
        <ele>405</ele>
        <time>2018-10-14T08:57:25Z</time>
      </trkpt>
      <trkpt lat="47.29421" lon="4.53234">
        <ele>405</ele>
        <time>2018-10-14T08:57:42Z</time>
      </trkpt>
      <trkpt lat="47.29421" lon="4.53228">
        <ele>406</ele>
        <time>2018-10-14T08:57:49Z</time>
      </trkpt>
      <trkpt lat="47.29421" lon="4.53219">
        <ele>406</ele>
        <time>2018-10-14T08:57:53Z</time>
      </trkpt>
      <trkpt lat="47.2942" lon="4.53211">
        <ele>405</ele>
        <time>2018-10-14T08:57:56Z</time>
      </trkpt>
      <trkpt lat="47.29418" lon="4.53197">
        <ele>418</ele>
        <time>2018-10-14T08:58:02Z</time>
      </trkpt>
      <trkpt lat="47.29418" lon="4.53189">
        <ele>410</ele>
        <time>2018-10-14T08:58:06Z</time>
      </trkpt>
      <trkpt lat="47.29416" lon="4.53172">
        <ele>404</ele>
        <time>2018-10-14T08:58:13Z</time>
      </trkpt>
      <trkpt lat="47.29417" lon="4.53164">
        <ele>406</ele>
        <time>2018-10-14T08:58:16Z</time>
      </trkpt>
      <trkpt lat="47.29416" lon="4.53145">
        <ele>408</ele>
        <time>2018-10-14T08:58:21Z</time>
      </trkpt>
      <trkpt lat="47.29416" lon="4.5314">
        <ele>407</ele>
        <time>2018-10-14T08:58:23Z</time>
      </trkpt>
      <trkpt lat="47.29415" lon="4.53133">
        <ele>406</ele>
        <time>2018-10-14T08:58:27Z</time>
      </trkpt>
      <trkpt lat="47.29415" lon="4.53115">
        <ele>405</ele>
        <time>2018-10-14T08:58:33Z</time>
      </trkpt>
      <trkpt lat="47.29416" lon="4.53111">
        <ele>404</ele>
        <time>2018-10-14T08:58:35Z</time>
      </trkpt>
      <trkpt lat="47.29416" lon="4.53101">
        <ele>402</ele>
        <time>2018-10-14T08:58:40Z</time>
      </trkpt>
      <trkpt lat="47.29417" lon="4.53095">
        <ele>403</ele>
        <time>2018-10-14T08:58:45Z</time>
      </trkpt>
      <trkpt lat="47.29419" lon="4.5309">
        <ele>405</ele>
        <time>2018-10-14T08:58:48Z</time>
      </trkpt>
      <trkpt lat="47.29419" lon="4.53084">
        <ele>417</ele>
        <time>2018-10-14T08:58:51Z</time>
      </trkpt>
      <trkpt lat="47.2942" lon="4.53079">
        <ele>413</ele>
        <time>2018-10-14T08:58:54Z</time>
      </trkpt>
      <trkpt lat="47.29421" lon="4.53067">
        <ele>404</ele>
        <time>2018-10-14T08:59:01Z</time>
      </trkpt>
      <trkpt lat="47.29423" lon="4.53044">
        <ele>398</ele>
        <time>2018-10-14T08:59:11Z</time>
      </trkpt>
      <trkpt lat="47.29425" lon="4.53038">
        <ele>399</ele>
        <time>2018-10-14T08:59:13Z</time>
      </trkpt>
      <trkpt lat="47.2944" lon="4.5299">
        <ele>398</ele>
        <time>2018-10-14T08:59:38Z</time>
      </trkpt>
      <trkpt lat="47.29443" lon="4.5298">
        <ele>399</ele>
        <time>2018-10-14T08:59:43Z</time>
      </trkpt>
      <trkpt lat="47.29446" lon="4.52973">
        <ele>398</ele>
        <time>2018-10-14T08:59:48Z</time>
      </trkpt>
      <trkpt lat="47.29448" lon="4.52968">
        <ele>397</ele>
        <time>2018-10-14T08:59:50Z</time>
      </trkpt>
      <trkpt lat="47.29451" lon="4.52957">
        <ele>396</ele>
        <time>2018-10-14T08:59:54Z</time>
      </trkpt>
      <trkpt lat="47.29455" lon="4.52953">
        <ele>395</ele>
        <time>2018-10-14T08:59:57Z</time>
      </trkpt>
      <trkpt lat="47.29458" lon="4.5295">
        <ele>394</ele>
        <time>2018-10-14T09:00:00Z</time>
      </trkpt>
      <trkpt lat="47.29458" lon="4.52946">
        <ele>394</ele>
        <time>2018-10-14T09:00:07Z</time>
      </trkpt>
      <trkpt lat="47.29478" lon="4.52898">
        <ele>390</ele>
        <time>2018-10-14T09:00:28Z</time>
      </trkpt>
      <trkpt lat="47.29481" lon="4.52895">
        <ele>390</ele>
        <time>2018-10-14T09:00:31Z</time>
      </trkpt>
      <trkpt lat="47.29487" lon="4.52887">
        <ele>392</ele>
        <time>2018-10-14T09:00:37Z</time>
      </trkpt>
      <trkpt lat="47.29496" lon="4.52876">
        <ele>392</ele>
        <time>2018-10-14T09:00:49Z</time>
      </trkpt>
      <trkpt lat="47.29515" lon="4.52866">
        <ele>390</ele>
        <time>2018-10-14T09:00:58Z</time>
      </trkpt>
      <trkpt lat="47.29522" lon="4.52864">
        <ele>387</ele>
        <time>2018-10-14T09:01:05Z</time>
      </trkpt>
      <trkpt lat="47.29525" lon="4.52862">
        <ele>387</ele>
        <time>2018-10-14T09:01:08Z</time>
      </trkpt>
      <trkpt lat="47.29528" lon="4.5286">
        <ele>384</ele>
        <time>2018-10-14T09:01:15Z</time>
      </trkpt>
      <trkpt lat="47.29554" lon="4.52848">
        <ele>383</ele>
        <time>2018-10-14T09:01:28Z</time>
      </trkpt>
      <trkpt lat="47.29564" lon="4.52841">
        <ele>382</ele>
        <time>2018-10-14T09:01:36Z</time>
      </trkpt>
      <trkpt lat="47.29568" lon="4.52838">
        <ele>383</ele>
        <time>2018-10-14T09:01:40Z</time>
      </trkpt>
      <trkpt lat="47.29574" lon="4.52833">
        <ele>382</ele>
        <time>2018-10-14T09:01:52Z</time>
      </trkpt>
      <trkpt lat="47.29577" lon="4.52826">
        <ele>381</ele>
        <time>2018-10-14T09:02:05Z</time>
      </trkpt>
      <trkpt lat="47.29581" lon="4.52821">
        <ele>381</ele>
        <time>2018-10-14T09:02:11Z</time>
      </trkpt>
      <trkpt lat="47.29592" lon="4.52801">
        <ele>408</ele>
        <time>2018-10-14T09:02:22Z</time>
      </trkpt>
      <trkpt lat="47.29601" lon="4.52753">
        <ele>387</ele>
        <time>2018-10-14T09:02:36Z</time>
      </trkpt>
      <trkpt lat="47.29601" lon="4.52746">
        <ele>386</ele>
        <time>2018-10-14T09:02:38Z</time>
      </trkpt>
      <trkpt lat="47.296" lon="4.5274">
        <ele>398</ele>
        <time>2018-10-14T09:02:40Z</time>
      </trkpt>
      <trkpt lat="47.29601" lon="4.5273">
        <ele>392</ele>
        <time>2018-10-14T09:02:44Z</time>
      </trkpt>
      <trkpt lat="47.29604" lon="4.52716">
        <ele>386</ele>
        <time>2018-10-14T09:02:50Z</time>
      </trkpt>
      <trkpt lat="47.29604" lon="4.52706">
        <ele>386</ele>
        <time>2018-10-14T09:02:54Z</time>
      </trkpt>
      <trkpt lat="47.29606" lon="4.52702">
        <ele>387</ele>
        <time>2018-10-14T09:02:56Z</time>
      </trkpt>
      <trkpt lat="47.2961" lon="4.52693">
        <ele>387</ele>
        <time>2018-10-14T09:03:00Z</time>
      </trkpt>
      <trkpt lat="47.29613" lon="4.5268">
        <ele>385</ele>
        <time>2018-10-14T09:03:06Z</time>
      </trkpt>
      <trkpt lat="47.29611" lon="4.52674">
        <ele>393</ele>
        <time>2018-10-14T09:03:10Z</time>
      </trkpt>
      <trkpt lat="47.29613" lon="4.52668">
        <ele>390</ele>
        <time>2018-10-14T09:03:16Z</time>
      </trkpt>
      <trkpt lat="47.29616" lon="4.52666">
        <ele>386</ele>
        <time>2018-10-14T09:03:19Z</time>
      </trkpt>
      <trkpt lat="47.29625" lon="4.52657">
        <ele>381</ele>
        <time>2018-10-14T09:03:28Z</time>
      </trkpt>
      <trkpt lat="47.29628" lon="4.52654">
        <ele>380</ele>
        <time>2018-10-14T09:03:32Z</time>
      </trkpt>
      <trkpt lat="47.29633" lon="4.52645">
        <ele>382</ele>
        <time>2018-10-14T09:03:36Z</time>
      </trkpt>
      <trkpt lat="47.29633" lon="4.52641">
        <ele>382</ele>
        <time>2018-10-14T09:03:38Z</time>
      </trkpt>
      <trkpt lat="47.29634" lon="4.52636">
        <ele>384</ele>
        <time>2018-10-14T09:03:41Z</time>
      </trkpt>
      <trkpt lat="47.29635" lon="4.52626">
        <ele>384</ele>
        <time>2018-10-14T09:03:47Z</time>
      </trkpt>
      <trkpt lat="47.29635" lon="4.5262">
        <ele>385</ele>
        <time>2018-10-14T09:03:50Z</time>
      </trkpt>
      <trkpt lat="47.29636" lon="4.52615">
        <ele>386</ele>
        <time>2018-10-14T09:03:52Z</time>
      </trkpt>
      <trkpt lat="47.29636" lon="4.52609">
        <ele>386</ele>
        <time>2018-10-14T09:03:54Z</time>
      </trkpt>
      <trkpt lat="47.29637" lon="4.52604">
        <ele>386</ele>
        <time>2018-10-14T09:03:56Z</time>
      </trkpt>
      <trkpt lat="47.29639" lon="4.52594">
        <ele>387</ele>
        <time>2018-10-14T09:04:01Z</time>
      </trkpt>
      <trkpt lat="47.29639" lon="4.52589">
        <ele>385</ele>
        <time>2018-10-14T09:04:04Z</time>
      </trkpt>
      <trkpt lat="47.29643" lon="4.52586">
        <ele>384</ele>
        <time>2018-10-14T09:04:07Z</time>
      </trkpt>
      <trkpt lat="47.29645" lon="4.52583">
        <ele>383</ele>
        <time>2018-10-14T09:04:09Z</time>
      </trkpt>
      <trkpt lat="47.29648" lon="4.52574">
        <ele>383</ele>
        <time>2018-10-14T09:04:14Z</time>
      </trkpt>
      <trkpt lat="47.29654" lon="4.5257">
        <ele>382</ele>
        <time>2018-10-14T09:04:24Z</time>
      </trkpt>
      <trkpt lat="47.29658" lon="4.5256">
        <ele>382</ele>
        <time>2018-10-14T09:04:31Z</time>
      </trkpt>
      <trkpt lat="47.29668" lon="4.52542">
        <ele>382</ele>
        <time>2018-10-14T09:04:38Z</time>
      </trkpt>
      <trkpt lat="47.2967" lon="4.52536">
        <ele>380</ele>
        <time>2018-10-14T09:04:40Z</time>
      </trkpt>
      <trkpt lat="47.29671" lon="4.52531">
        <ele>379</ele>
        <time>2018-10-14T09:04:43Z</time>
      </trkpt>
      <trkpt lat="47.29673" lon="4.52526">
        <ele>380</ele>
        <time>2018-10-14T09:04:45Z</time>
      </trkpt>
      <trkpt lat="47.29679" lon="4.52518">
        <ele>379</ele>
        <time>2018-10-14T09:04:50Z</time>
      </trkpt>
      <trkpt lat="47.29686" lon="4.525">
        <ele>377</ele>
        <time>2018-10-14T09:05:00Z</time>
      </trkpt>
      <trkpt lat="47.29691" lon="4.52488">
        <ele>378</ele>
        <time>2018-10-14T09:05:11Z</time>
      </trkpt>
      <trkpt lat="47.29694" lon="4.52479">
        <ele>377</ele>
        <time>2018-10-14T09:05:17Z</time>
      </trkpt>
      <trkpt lat="47.29696" lon="4.52474">
        <ele>377</ele>
        <time>2018-10-14T09:05:21Z</time>
      </trkpt>
      <trkpt lat="47.29698" lon="4.52469">
        <ele>376</ele>
        <time>2018-10-14T09:05:24Z</time>
      </trkpt>
      <trkpt lat="47.29701" lon="4.5246">
        <ele>374</ele>
        <time>2018-10-14T09:05:28Z</time>
      </trkpt>
      <trkpt lat="47.29711" lon="4.52433">
        <ele>375</ele>
        <time>2018-10-14T09:06:00Z</time>
      </trkpt>
      <trkpt lat="47.29713" lon="4.5243">
        <ele>375</ele>
        <time>2018-10-14T09:06:09Z</time>
      </trkpt>
      <trkpt lat="47.29717" lon="4.52417">
        <ele>377</ele>
        <time>2018-10-14T09:06:25Z</time>
      </trkpt>
      <trkpt lat="47.29718" lon="4.52412">
        <ele>377</ele>
        <time>2018-10-14T09:06:28Z</time>
      </trkpt>
      <trkpt lat="47.29726" lon="4.52388">
        <ele>376</ele>
        <time>2018-10-14T09:06:41Z</time>
      </trkpt>
      <trkpt lat="47.29727" lon="4.52373">
        <ele>376</ele>
        <time>2018-10-14T09:06:49Z</time>
      </trkpt>
      <trkpt lat="47.29729" lon="4.52369">
        <ele>375</ele>
        <time>2018-10-14T09:06:55Z</time>
      </trkpt>
      <trkpt lat="47.29731" lon="4.52329">
        <ele>374</ele>
        <time>2018-10-14T09:07:09Z</time>
      </trkpt>
      <trkpt lat="47.29733" lon="4.52331">
        <ele>371</ele>
        <time>2018-10-14T09:07:40Z</time>
      </trkpt>
      <trkpt lat="47.29735" lon="4.5233">
        <ele>372</ele>
        <time>2018-10-14T09:08:39Z</time>
      </trkpt>
      <trkpt lat="47.29733" lon="4.52316">
        <ele>370</ele>
        <time>2018-10-14T09:08:45Z</time>
      </trkpt>
      <trkpt lat="47.29733" lon="4.52311">
        <ele>369</ele>
        <time>2018-10-14T09:08:48Z</time>
      </trkpt>
      <trkpt lat="47.29732" lon="4.52302">
        <ele>368</ele>
        <time>2018-10-14T09:08:52Z</time>
      </trkpt>
      <trkpt lat="47.29733" lon="4.52292">
        <ele>366</ele>
        <time>2018-10-14T09:08:58Z</time>
      </trkpt>
      <trkpt lat="47.29737" lon="4.52283">
        <ele>365</ele>
        <time>2018-10-14T09:09:03Z</time>
      </trkpt>
      <trkpt lat="47.29737" lon="4.52278">
        <ele>365</ele>
        <time>2018-10-14T09:09:06Z</time>
      </trkpt>
      <trkpt lat="47.29738" lon="4.52273">
        <ele>364</ele>
        <time>2018-10-14T09:09:10Z</time>
      </trkpt>
      <trkpt lat="47.29738" lon="4.52257">
        <ele>361</ele>
        <time>2018-10-14T09:09:18Z</time>
      </trkpt>
      <trkpt lat="47.29734" lon="4.5224">
        <ele>364</ele>
        <time>2018-10-14T09:09:25Z</time>
      </trkpt>
      <trkpt lat="47.29732" lon="4.5223">
        <ele>366</ele>
        <time>2018-10-14T09:09:29Z</time>
      </trkpt>
      <trkpt lat="47.29731" lon="4.52226">
        <ele>366</ele>
        <time>2018-10-14T09:09:35Z</time>
      </trkpt>
      <trkpt lat="47.29723" lon="4.52207">
        <ele>368</ele>
        <time>2018-10-14T09:09:42Z</time>
      </trkpt>
      <trkpt lat="47.29716" lon="4.52198">
        <ele>369</ele>
        <time>2018-10-14T09:09:46Z</time>
      </trkpt>
      <trkpt lat="47.29715" lon="4.52192">
        <ele>369</ele>
        <time>2018-10-14T09:09:49Z</time>
      </trkpt>
      <trkpt lat="47.29706" lon="4.52184">
        <ele>367</ele>
        <time>2018-10-14T09:09:57Z</time>
      </trkpt>
      <trkpt lat="47.29692" lon="4.52183">
        <ele>366</ele>
        <time>2018-10-14T09:10:07Z</time>
      </trkpt>
      <trkpt lat="47.29674" lon="4.52182">
        <ele>365</ele>
        <time>2018-10-14T09:10:20Z</time>
      </trkpt>
      <trkpt lat="47.29667" lon="4.52184">
        <ele>366</ele>
        <time>2018-10-14T09:10:26Z</time>
      </trkpt>
      <trkpt lat="47.2966" lon="4.52188">
        <ele>367</ele>
        <time>2018-10-14T09:10:31Z</time>
      </trkpt>
      <trkpt lat="47.29645" lon="4.5219">
        <ele>369</ele>
        <time>2018-10-14T09:10:43Z</time>
      </trkpt>
      <trkpt lat="47.29635" lon="4.52186">
        <ele>369</ele>
        <time>2018-10-14T09:10:51Z</time>
      </trkpt>
      <trkpt lat="47.29627" lon="4.52177">
        <ele>370</ele>
        <time>2018-10-14T09:10:58Z</time>
      </trkpt>
      <trkpt lat="47.29625" lon="4.52173">
        <ele>370</ele>
        <time>2018-10-14T09:11:00Z</time>
      </trkpt>
      <trkpt lat="47.29622" lon="4.5217">
        <ele>370</ele>
        <time>2018-10-14T09:11:02Z</time>
      </trkpt>
      <trkpt lat="47.29619" lon="4.52166">
        <ele>370</ele>
        <time>2018-10-14T09:11:04Z</time>
      </trkpt>
      <trkpt lat="47.29616" lon="4.52151">
        <ele>371</ele>
        <time>2018-10-14T09:11:12Z</time>
      </trkpt>
      <trkpt lat="47.29611" lon="4.52099">
        <ele>371</ele>
        <time>2018-10-14T09:11:35Z</time>
      </trkpt>
      <trkpt lat="47.29611" lon="4.52084">
        <ele>371</ele>
        <time>2018-10-14T09:11:42Z</time>
      </trkpt>
      <trkpt lat="47.2961" lon="4.52074">
        <ele>371</ele>
        <time>2018-10-14T09:11:47Z</time>
      </trkpt>
      <trkpt lat="47.2961" lon="4.52058">
        <ele>369</ele>
        <time>2018-10-14T09:11:56Z</time>
      </trkpt>
      <trkpt lat="47.29609" lon="4.52054">
        <ele>369</ele>
        <time>2018-10-14T09:11:58Z</time>
      </trkpt>
      <trkpt lat="47.29611" lon="4.52007">
        <ele>370</ele>
        <time>2018-10-14T09:12:21Z</time>
      </trkpt>
      <trkpt lat="47.29609" lon="4.51978">
        <ele>370</ele>
        <time>2018-10-14T09:12:36Z</time>
      </trkpt>
      <trkpt lat="47.29608" lon="4.5195">
        <ele>370</ele>
        <time>2018-10-14T09:12:44Z</time>
      </trkpt>
      <trkpt lat="47.29606" lon="4.51937">
        <ele>371</ele>
        <time>2018-10-14T09:12:48Z</time>
      </trkpt>
      <trkpt lat="47.29605" lon="4.51932">
        <ele>370</ele>
        <time>2018-10-14T09:12:51Z</time>
      </trkpt>
      <trkpt lat="47.29608" lon="4.51913">
        <ele>367</ele>
        <time>2018-10-14T09:13:08Z</time>
      </trkpt>
      <trkpt lat="47.2961" lon="4.51888">
        <ele>367</ele>
        <time>2018-10-14T09:13:14Z</time>
      </trkpt>
      <trkpt lat="47.2961" lon="4.51875">
        <ele>368</ele>
        <time>2018-10-14T09:13:18Z</time>
      </trkpt>
      <trkpt lat="47.29611" lon="4.5187">
        <ele>369</ele>
        <time>2018-10-14T09:13:20Z</time>
      </trkpt>
      <trkpt lat="47.29613" lon="4.51866">
        <ele>367</ele>
        <time>2018-10-14T09:13:24Z</time>
      </trkpt>
      <trkpt lat="47.29616" lon="4.51851">
        <ele>366</ele>
        <time>2018-10-14T09:13:38Z</time>
      </trkpt>
      <trkpt lat="47.29617" lon="4.51846">
        <ele>367</ele>
        <time>2018-10-14T09:13:40Z</time>
      </trkpt>
      <trkpt lat="47.2962" lon="4.51838">
        <ele>368</ele>
        <time>2018-10-14T09:13:42Z</time>
      </trkpt>
      <trkpt lat="47.29621" lon="4.51834">
        <ele>367</ele>
        <time>2018-10-14T09:13:43Z</time>
      </trkpt>
      <trkpt lat="47.29621" lon="4.5181">
        <ele>365</ele>
        <time>2018-10-14T09:13:51Z</time>
      </trkpt>
      <trkpt lat="47.29628" lon="4.51785">
        <ele>367</ele>
        <time>2018-10-14T09:14:07Z</time>
      </trkpt>
      <trkpt lat="47.29629" lon="4.51779">
        <ele>367</ele>
        <time>2018-10-14T09:14:11Z</time>
      </trkpt>
      <trkpt lat="47.29631" lon="4.51774">
        <ele>368</ele>
        <time>2018-10-14T09:14:13Z</time>
      </trkpt>
      <trkpt lat="47.29633" lon="4.51754">
        <ele>365</ele>
        <time>2018-10-14T09:14:18Z</time>
      </trkpt>
      <trkpt lat="47.29632" lon="4.51743">
        <ele>363</ele>
        <time>2018-10-14T09:14:22Z</time>
      </trkpt>
      <trkpt lat="47.29633" lon="4.51738">
        <ele>364</ele>
        <time>2018-10-14T09:14:26Z</time>
      </trkpt>
      <trkpt lat="47.29633" lon="4.51732">
        <ele>362</ele>
        <time>2018-10-14T09:14:29Z</time>
      </trkpt>
      <trkpt lat="47.29633" lon="4.51727">
        <ele>361</ele>
        <time>2018-10-14T09:14:34Z</time>
      </trkpt>
      <trkpt lat="47.29635" lon="4.51716">
        <ele>362</ele>
        <time>2018-10-14T09:14:40Z</time>
      </trkpt>
      <trkpt lat="47.29638" lon="4.51669">
        <ele>358</ele>
        <time>2018-10-14T09:15:02Z</time>
      </trkpt>
      <trkpt lat="47.29642" lon="4.51659">
        <ele>359</ele>
        <time>2018-10-14T09:15:07Z</time>
      </trkpt>
      <trkpt lat="47.29646" lon="4.51641">
        <ele>360</ele>
        <time>2018-10-14T09:15:13Z</time>
      </trkpt>
      <trkpt lat="47.29648" lon="4.51637">
        <ele>359</ele>
        <time>2018-10-14T09:15:15Z</time>
      </trkpt>
      <trkpt lat="47.2965" lon="4.51633">
        <ele>359</ele>
        <time>2018-10-14T09:15:17Z</time>
      </trkpt>
      <trkpt lat="47.29651" lon="4.51627">
        <ele>380</ele>
        <time>2018-10-14T09:15:21Z</time>
      </trkpt>
      <trkpt lat="47.29663" lon="4.5161">
        <ele>364</ele>
        <time>2018-10-14T09:15:31Z</time>
      </trkpt>
      <trkpt lat="47.29664" lon="4.51604">
        <ele>363</ele>
        <time>2018-10-14T09:15:33Z</time>
      </trkpt>
      <trkpt lat="47.29665" lon="4.51596">
        <ele>361</ele>
        <time>2018-10-14T09:15:36Z</time>
      </trkpt>
      <trkpt lat="47.29664" lon="4.51591">
        <ele>365</ele>
        <time>2018-10-14T09:15:39Z</time>
      </trkpt>
      <trkpt lat="47.29665" lon="4.51587">
        <ele>374</ele>
        <time>2018-10-14T09:15:41Z</time>
      </trkpt>
      <trkpt lat="47.29668" lon="4.51584">
        <ele>371</ele>
        <time>2018-10-14T09:15:43Z</time>
      </trkpt>
      <trkpt lat="47.29671" lon="4.51584">
        <ele>363</ele>
        <time>2018-10-14T09:15:47Z</time>
      </trkpt>
      <trkpt lat="47.29681" lon="4.51566">
        <ele>361</ele>
        <time>2018-10-14T09:15:57Z</time>
      </trkpt>
      <trkpt lat="47.29688" lon="4.51559">
        <ele>361</ele>
        <time>2018-10-14T09:16:00Z</time>
      </trkpt>
      <trkpt lat="47.29693" lon="4.51545">
        <ele>359</ele>
        <time>2018-10-14T09:16:08Z</time>
      </trkpt>
      <trkpt lat="47.29696" lon="4.51542">
        <ele>360</ele>
        <time>2018-10-14T09:16:13Z</time>
      </trkpt>
      <trkpt lat="47.29699" lon="4.5154">
        <ele>361</ele>
        <time>2018-10-14T09:16:17Z</time>
      </trkpt>
      <trkpt lat="47.29703" lon="4.5153">
        <ele>360</ele>
        <time>2018-10-14T09:16:21Z</time>
      </trkpt>
      <trkpt lat="47.29713" lon="4.51515">
        <ele>360</ele>
        <time>2018-10-14T09:16:29Z</time>
      </trkpt>
      <trkpt lat="47.29717" lon="4.5151">
        <ele>361</ele>
        <time>2018-10-14T09:16:32Z</time>
      </trkpt>
      <trkpt lat="47.29724" lon="4.51502">
        <ele>360</ele>
        <time>2018-10-14T09:16:40Z</time>
      </trkpt>
      <trkpt lat="47.2973" lon="4.51492">
        <ele>360</ele>
        <time>2018-10-14T09:16:44Z</time>
      </trkpt>
      <trkpt lat="47.29732" lon="4.51487">
        <ele>359</ele>
        <time>2018-10-14T09:16:46Z</time>
      </trkpt>
      <trkpt lat="47.29733" lon="4.51482">
        <ele>358</ele>
        <time>2018-10-14T09:16:48Z</time>
      </trkpt>
      <trkpt lat="47.29735" lon="4.51476">
        <ele>379</ele>
        <time>2018-10-14T09:16:51Z</time>
      </trkpt>
      <trkpt lat="47.29744" lon="4.51455">
        <ele>361</ele>
        <time>2018-10-14T09:17:06Z</time>
      </trkpt>
      <trkpt lat="47.29745" lon="4.51449">
        <ele>359</ele>
        <time>2018-10-14T09:17:08Z</time>
      </trkpt>
      <trkpt lat="47.29745" lon="4.51442">
        <ele>356</ele>
        <time>2018-10-14T09:17:10Z</time>
      </trkpt>
      <trkpt lat="47.29749" lon="4.51425">
        <ele>355</ele>
        <time>2018-10-14T09:17:17Z</time>
      </trkpt>
      <trkpt lat="47.29752" lon="4.5142">
        <ele>355</ele>
        <time>2018-10-14T09:17:20Z</time>
      </trkpt>
      <trkpt lat="47.29754" lon="4.51416">
        <ele>356</ele>
        <time>2018-10-14T09:17:22Z</time>
      </trkpt>
      <trkpt lat="47.29755" lon="4.51396">
        <ele>358</ele>
        <time>2018-10-14T09:17:33Z</time>
      </trkpt>
      <trkpt lat="47.29751" lon="4.51379">
        <ele>357</ele>
        <time>2018-10-14T09:17:39Z</time>
      </trkpt>
      <trkpt lat="47.29752" lon="4.51373">
        <ele>357</ele>
        <time>2018-10-14T09:17:42Z</time>
      </trkpt>
      <trkpt lat="47.29753" lon="4.51342">
        <ele>357</ele>
        <time>2018-10-14T09:17:56Z</time>
      </trkpt>
      <trkpt lat="47.2975" lon="4.51329">
        <ele>356</ele>
        <time>2018-10-14T09:18:00Z</time>
      </trkpt>
      <trkpt lat="47.29751" lon="4.51324">
        <ele>356</ele>
        <time>2018-10-14T09:18:04Z</time>
      </trkpt>
      <trkpt lat="47.29748" lon="4.51297">
        <ele>355</ele>
        <time>2018-10-14T09:18:18Z</time>
      </trkpt>
      <trkpt lat="47.29748" lon="4.51292">
        <ele>354</ele>
        <time>2018-10-14T09:18:20Z</time>
      </trkpt>
      <trkpt lat="47.29748" lon="4.51281">
        <ele>354</ele>
        <time>2018-10-14T09:18:26Z</time>
      </trkpt>
      <trkpt lat="47.29752" lon="4.51276">
        <ele>355</ele>
        <time>2018-10-14T09:18:29Z</time>
      </trkpt>
      <trkpt lat="47.29755" lon="4.51274">
        <ele>354</ele>
        <time>2018-10-14T09:18:31Z</time>
      </trkpt>
      <trkpt lat="47.29758" lon="4.51273">
        <ele>354</ele>
        <time>2018-10-14T09:18:34Z</time>
      </trkpt>
      <trkpt lat="47.29766" lon="4.51273">
        <ele>354</ele>
        <time>2018-10-14T09:18:38Z</time>
      </trkpt>
      <trkpt lat="47.29769" lon="4.51272">
        <ele>354</ele>
        <time>2018-10-14T09:18:40Z</time>
      </trkpt>
      <trkpt lat="47.29778" lon="4.51264">
        <ele>378</ele>
        <time>2018-10-14T09:18:51Z</time>
      </trkpt>
      <trkpt lat="47.29791" lon="4.51254">
        <ele>361</ele>
        <time>2018-10-14T09:19:01Z</time>
      </trkpt>
      <trkpt lat="47.29793" lon="4.51249">
        <ele>359</ele>
        <time>2018-10-14T09:19:04Z</time>
      </trkpt>
      <trkpt lat="47.29792" lon="4.51245">
        <ele>359</ele>
        <time>2018-10-14T09:19:06Z</time>
      </trkpt>
      <trkpt lat="47.29789" lon="4.51242">
        <ele>357</ele>
        <time>2018-10-14T09:19:10Z</time>
      </trkpt>
      <trkpt lat="47.29791" lon="4.51239">
        <ele>359</ele>
        <time>2018-10-14T09:20:42Z</time>
      </trkpt>
      <trkpt lat="47.29794" lon="4.51236">
        <ele>359</ele>
        <time>2018-10-14T09:20:49Z</time>
      </trkpt>
      <trkpt lat="47.29806" lon="4.51232">
        <ele>358</ele>
        <time>2018-10-14T09:20:57Z</time>
      </trkpt>
      <trkpt lat="47.2981" lon="4.51229">
        <ele>368</ele>
        <time>2018-10-14T09:20:59Z</time>
      </trkpt>
      <trkpt lat="47.29813" lon="4.51226">
        <ele>369</ele>
        <time>2018-10-14T09:21:02Z</time>
      </trkpt>
      <trkpt lat="47.29817" lon="4.51224">
        <ele>365</ele>
        <time>2018-10-14T09:21:04Z</time>
      </trkpt>
      <trkpt lat="47.2985" lon="4.51206">
        <ele>353</ele>
        <time>2018-10-14T09:21:34Z</time>
      </trkpt>
      <trkpt lat="47.29856" lon="4.512">
        <ele>352</ele>
        <time>2018-10-14T09:21:41Z</time>
      </trkpt>
      <trkpt lat="47.29862" lon="4.51196">
        <ele>354</ele>
        <time>2018-10-14T09:21:48Z</time>
      </trkpt>
      <trkpt lat="47.29866" lon="4.51197">
        <ele>355</ele>
        <time>2018-10-14T09:21:54Z</time>
      </trkpt>
      <trkpt lat="47.29869" lon="4.51198">
        <ele>356</ele>
        <time>2018-10-14T09:22:00Z</time>
      </trkpt>
      <trkpt lat="47.29873" lon="4.51196">
        <ele>354</ele>
        <time>2018-10-14T09:22:05Z</time>
      </trkpt>
      <trkpt lat="47.29903" lon="4.51174">
        <ele>349</ele>
        <time>2018-10-14T09:22:29Z</time>
      </trkpt>
      <trkpt lat="47.2992" lon="4.51165">
        <ele>350</ele>
        <time>2018-10-14T09:22:35Z</time>
      </trkpt>
      <trkpt lat="47.29925" lon="4.51163">
        <ele>349</ele>
        <time>2018-10-14T09:22:37Z</time>
      </trkpt>
      <trkpt lat="47.29963" lon="4.51147">
        <ele>356</ele>
        <time>2018-10-14T09:23:08Z</time>
      </trkpt>
      <trkpt lat="47.29973" lon="4.51143">
        <ele>357</ele>
        <time>2018-10-14T09:23:22Z</time>
      </trkpt>
      <trkpt lat="47.29976" lon="4.51143">
        <ele>358</ele>
        <time>2018-10-14T09:23:24Z</time>
      </trkpt>
      <trkpt lat="47.2998" lon="4.51144">
        <ele>358</ele>
        <time>2018-10-14T09:23:26Z</time>
      </trkpt>
      <trkpt lat="47.29983" lon="4.51143">
        <ele>358</ele>
        <time>2018-10-14T09:23:28Z</time>
      </trkpt>
      <trkpt lat="47.29998" lon="4.51133">
        <ele>356</ele>
        <time>2018-10-14T09:23:41Z</time>
      </trkpt>
      <trkpt lat="47.30009" lon="4.51131">
        <ele>357</ele>
        <time>2018-10-14T09:23:49Z</time>
      </trkpt>
      <trkpt lat="47.30028" lon="4.51124">
        <ele>357</ele>
        <time>2018-10-14T09:23:59Z</time>
      </trkpt>
      <trkpt lat="47.30033" lon="4.51123">
        <ele>357</ele>
        <time>2018-10-14T09:24:01Z</time>
      </trkpt>
      <trkpt lat="47.30036" lon="4.51122">
        <ele>357</ele>
        <time>2018-10-14T09:24:03Z</time>
      </trkpt>
      <trkpt lat="47.30082" lon="4.51105">
        <ele>358</ele>
        <time>2018-10-14T09:24:33Z</time>
      </trkpt>
      <trkpt lat="47.30107" lon="4.51094">
        <ele>354</ele>
        <time>2018-10-14T09:24:48Z</time>
      </trkpt>
      <trkpt lat="47.30111" lon="4.51094">
        <ele>381</ele>
        <time>2018-10-14T09:24:50Z</time>
      </trkpt>
      <trkpt lat="47.30124" lon="4.51088">
        <ele>357</ele>
        <time>2018-10-14T09:25:17Z</time>
      </trkpt>
      <trkpt lat="47.3013" lon="4.51082">
        <ele>354</ele>
        <time>2018-10-14T09:25:22Z</time>
      </trkpt>
      <trkpt lat="47.30157" lon="4.51071">
        <ele>355</ele>
        <time>2018-10-14T09:25:33Z</time>
      </trkpt>
      <trkpt lat="47.30162" lon="4.51071">
        <ele>356</ele>
        <time>2018-10-14T09:25:35Z</time>
      </trkpt>
      <trkpt lat="47.30179" lon="4.51068">
        <ele>355</ele>
        <time>2018-10-14T09:25:53Z</time>
      </trkpt>
      <trkpt lat="47.30185" lon="4.51064">
        <ele>354</ele>
        <time>2018-10-14T09:26:02Z</time>
      </trkpt>
      <trkpt lat="47.30188" lon="4.51061">
        <ele>353</ele>
        <time>2018-10-14T09:26:04Z</time>
      </trkpt>
      <trkpt lat="47.30221" lon="4.51048">
        <ele>355</ele>
        <time>2018-10-14T09:26:18Z</time>
      </trkpt>
      <trkpt lat="47.30224" lon="4.51047">
        <ele>355</ele>
        <time>2018-10-14T09:26:22Z</time>
      </trkpt>
      <trkpt lat="47.30227" lon="4.51046">
        <ele>355</ele>
        <time>2018-10-14T09:26:24Z</time>
      </trkpt>
      <trkpt lat="47.30234" lon="4.51045">
        <ele>355</ele>
        <time>2018-10-14T09:26:35Z</time>
      </trkpt>
      <trkpt lat="47.30264" lon="4.51031">
        <ele>357</ele>
        <time>2018-10-14T09:26:50Z</time>
      </trkpt>
      <trkpt lat="47.30271" lon="4.51029">
        <ele>358</ele>
        <time>2018-10-14T09:26:57Z</time>
      </trkpt>
      <trkpt lat="47.3028" lon="4.51025">
        <ele>358</ele>
        <time>2018-10-14T09:27:03Z</time>
      </trkpt>
      <trkpt lat="47.30283" lon="4.51024">
        <ele>358</ele>
        <time>2018-10-14T09:27:09Z</time>
      </trkpt>
      <trkpt lat="47.30286" lon="4.51023">
        <ele>358</ele>
        <time>2018-10-14T09:27:17Z</time>
      </trkpt>
      <trkpt lat="47.3029" lon="4.51022">
        <ele>356</ele>
        <time>2018-10-14T09:27:20Z</time>
      </trkpt>
      <trkpt lat="47.30304" lon="4.51017">
        <ele>357</ele>
        <time>2018-10-14T09:27:26Z</time>
      </trkpt>
      <trkpt lat="47.30313" lon="4.51016">
        <ele>357</ele>
        <time>2018-10-14T09:27:30Z</time>
      </trkpt>
      <trkpt lat="47.3033" lon="4.51011">
        <ele>356</ele>
        <time>2018-10-14T09:27:38Z</time>
      </trkpt>
      <trkpt lat="47.30332" lon="4.51007">
        <ele>355</ele>
        <time>2018-10-14T09:27:43Z</time>
      </trkpt>
      <trkpt lat="47.30338" lon="4.51">
        <ele>354</ele>
        <time>2018-10-14T09:27:48Z</time>
      </trkpt>
      <trkpt lat="47.30344" lon="4.50989">
        <ele>355</ele>
        <time>2018-10-14T09:27:54Z</time>
      </trkpt>
      <trkpt lat="47.30343" lon="4.5097">
        <ele>352</ele>
        <time>2018-10-14T09:28:10Z</time>
      </trkpt>
      <trkpt lat="47.30343" lon="4.50954">
        <ele>351</ele>
        <time>2018-10-14T09:28:14Z</time>
      </trkpt>
      <trkpt lat="47.30335" lon="4.50897">
        <ele>354</ele>
        <time>2018-10-14T09:28:44Z</time>
      </trkpt>
      <trkpt lat="47.3033" lon="4.50884">
        <ele>354</ele>
        <time>2018-10-14T09:28:48Z</time>
      </trkpt>
      <trkpt lat="47.30328" lon="4.5088">
        <ele>354</ele>
        <time>2018-10-14T09:28:50Z</time>
      </trkpt>
      <trkpt lat="47.30326" lon="4.50872">
        <ele>354</ele>
        <time>2018-10-14T09:28:54Z</time>
      </trkpt>
      <trkpt lat="47.3032" lon="4.50836">
        <ele>350</ele>
        <time>2018-10-14T09:29:15Z</time>
      </trkpt>
      <trkpt lat="47.30305" lon="4.50779">
        <ele>348</ele>
        <time>2018-10-14T09:29:47Z</time>
      </trkpt>
      <trkpt lat="47.303" lon="4.50737">
        <ele>353</ele>
        <time>2018-10-14T09:30:02Z</time>
      </trkpt>
      <trkpt lat="47.30299" lon="4.50733">
        <ele>353</ele>
        <time>2018-10-14T09:30:03Z</time>
      </trkpt>
      <trkpt lat="47.30298" lon="4.50726">
        <ele>353</ele>
        <time>2018-10-14T09:30:05Z</time>
      </trkpt>
      <trkpt lat="47.30295" lon="4.50726">
        <ele>355</ele>
        <time>2018-10-14T09:30:14Z</time>
      </trkpt>
      <trkpt lat="47.30293" lon="4.50728">
        <ele>356</ele>
        <time>2018-10-14T09:30:17Z</time>
      </trkpt>
      <trkpt lat="47.30285" lon="4.50732">
        <ele>353</ele>
        <time>2018-10-14T09:30:25Z</time>
      </trkpt>
      <trkpt lat="47.30277" lon="4.50736">
        <ele>352</ele>
        <time>2018-10-14T09:30:29Z</time>
      </trkpt>
      <trkpt lat="47.30275" lon="4.50739">
        <ele>347</ele>
        <time>2018-10-14T09:30:48Z</time>
      </trkpt>
      <trkpt lat="47.30271" lon="4.50738">
        <ele>347</ele>
        <time>2018-10-14T09:30:57Z</time>
      </trkpt>
      <trkpt lat="47.30264" lon="4.50739">
        <ele>368</ele>
        <time>2018-10-14T09:31:02Z</time>
      </trkpt>
      <trkpt lat="47.30258" lon="4.50741">
        <ele>356</ele>
        <time>2018-10-14T09:31:06Z</time>
      </trkpt>
      <trkpt lat="47.30254" lon="4.50741">
        <ele>352</ele>
        <time>2018-10-14T09:31:11Z</time>
      </trkpt>
      <trkpt lat="47.30238" lon="4.50748">
        <ele>350</ele>
        <time>2018-10-14T09:31:19Z</time>
      </trkpt>
      <trkpt lat="47.30232" lon="4.50749">
        <ele>349</ele>
        <time>2018-10-14T09:31:24Z</time>
      </trkpt>
      <trkpt lat="47.30201" lon="4.50762">
        <ele>349</ele>
        <time>2018-10-14T09:31:53Z</time>
      </trkpt>
      <trkpt lat="47.30187" lon="4.50764">
        <ele>348</ele>
        <time>2018-10-14T09:32:03Z</time>
      </trkpt>
      <trkpt lat="47.30184" lon="4.50765">
        <ele>346</ele>
        <time>2018-10-14T09:32:06Z</time>
      </trkpt>
      <trkpt lat="47.3018" lon="4.50766">
        <ele>344</ele>
        <time>2018-10-14T09:32:12Z</time>
      </trkpt>
      <trkpt lat="47.30168" lon="4.50769">
        <ele>342</ele>
        <time>2018-10-14T09:32:17Z</time>
      </trkpt>
      <trkpt lat="47.30163" lon="4.5077">
        <ele>355</ele>
        <time>2018-10-14T09:32:21Z</time>
      </trkpt>
      <trkpt lat="47.30156" lon="4.5077">
        <ele>349</ele>
        <time>2018-10-14T09:32:27Z</time>
      </trkpt>
      <trkpt lat="47.30153" lon="4.50771">
        <ele>344</ele>
        <time>2018-10-14T09:32:30Z</time>
      </trkpt>
      <trkpt lat="47.30129" lon="4.5078">
        <ele>346</ele>
        <time>2018-10-14T09:32:43Z</time>
      </trkpt>
      <trkpt lat="47.30122" lon="4.50781">
        <ele>349</ele>
        <time>2018-10-14T09:32:50Z</time>
      </trkpt>
      <trkpt lat="47.30114" lon="4.50783">
        <ele>349</ele>
        <time>2018-10-14T09:32:54Z</time>
      </trkpt>
      <trkpt lat="47.30109" lon="4.50783">
        <ele>350</ele>
        <time>2018-10-14T09:32:56Z</time>
      </trkpt>
      <trkpt lat="47.30067" lon="4.50793">
        <ele>354</ele>
        <time>2018-10-14T09:33:27Z</time>
      </trkpt>
      <trkpt lat="47.30049" lon="4.50801">
        <ele>352</ele>
        <time>2018-10-14T09:33:36Z</time>
      </trkpt>
      <trkpt lat="47.30046" lon="4.50802">
        <ele>352</ele>
        <time>2018-10-14T09:33:38Z</time>
      </trkpt>
      <trkpt lat="47.30043" lon="4.50804">
        <ele>361</ele>
        <time>2018-10-14T09:33:42Z</time>
      </trkpt>
      <trkpt lat="47.3002" lon="4.50814">
        <ele>354</ele>
        <time>2018-10-14T09:34:03Z</time>
      </trkpt>
      <trkpt lat="47.30016" lon="4.50815">
        <ele>353</ele>
        <time>2018-10-14T09:34:06Z</time>
      </trkpt>
      <trkpt lat="47.29997" lon="4.50821">
        <ele>350</ele>
        <time>2018-10-14T09:34:20Z</time>
      </trkpt>
      <trkpt lat="47.29994" lon="4.50822">
        <ele>352</ele>
        <time>2018-10-14T09:34:26Z</time>
      </trkpt>
      <trkpt lat="47.29991" lon="4.50821">
        <ele>352</ele>
        <time>2018-10-14T09:34:32Z</time>
      </trkpt>
      <trkpt lat="47.29985" lon="4.50822">
        <ele>351</ele>
        <time>2018-10-14T09:34:40Z</time>
      </trkpt>
      <trkpt lat="47.29974" lon="4.50826">
        <ele>349</ele>
        <time>2018-10-14T09:34:49Z</time>
      </trkpt>
      <trkpt lat="47.29965" lon="4.50827">
        <ele>348</ele>
        <time>2018-10-14T09:34:53Z</time>
      </trkpt>
      <trkpt lat="47.29954" lon="4.50829">
        <ele>347</ele>
        <time>2018-10-14T09:34:57Z</time>
      </trkpt>
      <trkpt lat="47.29948" lon="4.50832">
        <ele>369</ele>
        <time>2018-10-14T09:34:59Z</time>
      </trkpt>
      <trkpt lat="47.29944" lon="4.50833">
        <ele>374</ele>
        <time>2018-10-14T09:35:01Z</time>
      </trkpt>
      <trkpt lat="47.2994" lon="4.50833">
        <ele>368</ele>
        <time>2018-10-14T09:35:03Z</time>
      </trkpt>
      <trkpt lat="47.29937" lon="4.50832">
        <ele>360</ele>
        <time>2018-10-14T09:35:05Z</time>
      </trkpt>
      <trkpt lat="47.29934" lon="4.50829">
        <ele>355</ele>
        <time>2018-10-14T09:35:08Z</time>
      </trkpt>
      <trkpt lat="47.2993" lon="4.50832">
        <ele>365</ele>
        <time>2018-10-14T09:35:13Z</time>
      </trkpt>
      <trkpt lat="47.29919" lon="4.5084">
        <ele>351</ele>
        <time>2018-10-14T09:35:21Z</time>
      </trkpt>
      <trkpt lat="47.2991" lon="4.50845">
        <ele>349</ele>
        <time>2018-10-14T09:35:32Z</time>
      </trkpt>
      <trkpt lat="47.29907" lon="4.50846">
        <ele>348</ele>
        <time>2018-10-14T09:35:39Z</time>
      </trkpt>
      <trkpt lat="47.29904" lon="4.50844">
        <ele>348</ele>
        <time>2018-10-14T09:35:42Z</time>
      </trkpt>
      <trkpt lat="47.29901" lon="4.50845">
        <ele>349</ele>
        <time>2018-10-14T09:35:45Z</time>
      </trkpt>
      <trkpt lat="47.29898" lon="4.50844">
        <ele>349</ele>
        <time>2018-10-14T09:35:47Z</time>
      </trkpt>
      <trkpt lat="47.29891" lon="4.50848">
        <ele>351</ele>
        <time>2018-10-14T09:35:54Z</time>
      </trkpt>
      <trkpt lat="47.29885" lon="4.50851">
        <ele>351</ele>
        <time>2018-10-14T09:35:57Z</time>
      </trkpt>
      <trkpt lat="47.29861" lon="4.50853">
        <ele>351</ele>
        <time>2018-10-14T09:36:05Z</time>
      </trkpt>
      <trkpt lat="47.29858" lon="4.5085">
        <ele>351</ele>
        <time>2018-10-14T09:36:07Z</time>
      </trkpt>
      <trkpt lat="47.2985" lon="4.50852">
        <ele>391</ele>
        <time>2018-10-14T09:36:12Z</time>
      </trkpt>
      <trkpt lat="47.29846" lon="4.50854">
        <ele>375</ele>
        <time>2018-10-14T09:36:15Z</time>
      </trkpt>
      <trkpt lat="47.29841" lon="4.50853">
        <ele>365</ele>
        <time>2018-10-14T09:36:19Z</time>
      </trkpt>
      <trkpt lat="47.29834" lon="4.50857">
        <ele>356</ele>
        <time>2018-10-14T09:36:23Z</time>
      </trkpt>
      <trkpt lat="47.29817" lon="4.5087">
        <ele>351</ele>
        <time>2018-10-14T09:36:37Z</time>
      </trkpt>
      <trkpt lat="47.2981" lon="4.5087">
        <ele>348</ele>
        <time>2018-10-14T09:36:42Z</time>
      </trkpt>
      <trkpt lat="47.29789" lon="4.50877">
        <ele>350</ele>
        <time>2018-10-14T09:36:52Z</time>
      </trkpt>
      <trkpt lat="47.29779" lon="4.50884">
        <ele>352</ele>
        <time>2018-10-14T09:36:58Z</time>
      </trkpt>
      <trkpt lat="47.29742" lon="4.50891">
        <ele>355</ele>
        <time>2018-10-14T09:37:28Z</time>
      </trkpt>
      <trkpt lat="47.29739" lon="4.50892">
        <ele>354</ele>
        <time>2018-10-14T09:37:31Z</time>
      </trkpt>
      <trkpt lat="47.29731" lon="4.50895">
        <ele>352</ele>
        <time>2018-10-14T09:37:38Z</time>
      </trkpt>
      <trkpt lat="47.29728" lon="4.50895">
        <ele>370</ele>
        <time>2018-10-14T09:37:40Z</time>
      </trkpt>
      <trkpt lat="47.29719" lon="4.50899">
        <ele>358</ele>
        <time>2018-10-14T09:37:46Z</time>
      </trkpt>
      <trkpt lat="47.29717" lon="4.50901">
        <ele>355</ele>
        <time>2018-10-14T09:37:49Z</time>
      </trkpt>
      <trkpt lat="47.2971" lon="4.50904">
        <ele>351</ele>
        <time>2018-10-14T09:38:00Z</time>
      </trkpt>
      <trkpt lat="47.29703" lon="4.50905">
        <ele>350</ele>
        <time>2018-10-14T09:38:06Z</time>
      </trkpt>
      <trkpt lat="47.297" lon="4.50907">
        <ele>349</ele>
        <time>2018-10-14T09:38:11Z</time>
      </trkpt>
      <trkpt lat="47.29693" lon="4.50907">
        <ele>350</ele>
        <time>2018-10-14T09:38:19Z</time>
      </trkpt>
      <trkpt lat="47.29683" lon="4.50912">
        <ele>349</ele>
        <time>2018-10-14T09:38:25Z</time>
      </trkpt>
      <trkpt lat="47.29672" lon="4.50917">
        <ele>348</ele>
        <time>2018-10-14T09:38:31Z</time>
      </trkpt>
      <trkpt lat="47.29653" lon="4.50925">
        <ele>350</ele>
        <time>2018-10-14T09:38:43Z</time>
      </trkpt>
      <trkpt lat="47.29648" lon="4.50928">
        <ele>351</ele>
        <time>2018-10-14T09:38:47Z</time>
      </trkpt>
      <trkpt lat="47.29637" lon="4.50929">
        <ele>350</ele>
        <time>2018-10-14T09:38:53Z</time>
      </trkpt>
      <trkpt lat="47.29634" lon="4.5093">
        <ele>348</ele>
        <time>2018-10-14T09:38:56Z</time>
      </trkpt>
      <trkpt lat="47.29606" lon="4.50938">
        <ele>344</ele>
        <time>2018-10-14T09:39:26Z</time>
      </trkpt>
      <trkpt lat="47.29599" lon="4.50941">
        <ele>344</ele>
        <time>2018-10-14T09:39:32Z</time>
      </trkpt>
      <trkpt lat="47.29588" lon="4.5094">
        <ele>349</ele>
        <time>2018-10-14T09:39:42Z</time>
      </trkpt>
      <trkpt lat="47.2956" lon="4.50949">
        <ele>348</ele>
        <time>2018-10-14T09:39:58Z</time>
      </trkpt>
      <trkpt lat="47.29552" lon="4.50951">
        <ele>365</ele>
        <time>2018-10-14T09:40:02Z</time>
      </trkpt>
      <trkpt lat="47.29525" lon="4.50956">
        <ele>356</ele>
        <time>2018-10-14T09:40:17Z</time>
      </trkpt>
      <trkpt lat="47.29521" lon="4.50957">
        <ele>375</ele>
        <time>2018-10-14T09:40:21Z</time>
      </trkpt>
      <trkpt lat="47.29516" lon="4.50958">
        <ele>365</ele>
        <time>2018-10-14T09:40:25Z</time>
      </trkpt>
      <trkpt lat="47.29514" lon="4.50955">
        <ele>368</ele>
        <time>2018-10-14T09:40:30Z</time>
      </trkpt>
      <trkpt lat="47.29508" lon="4.50959">
        <ele>352</ele>
        <time>2018-10-14T09:40:37Z</time>
      </trkpt>
      <trkpt lat="47.29501" lon="4.5096">
        <ele>348</ele>
        <time>2018-10-14T09:40:44Z</time>
      </trkpt>
      <trkpt lat="47.29499" lon="4.50958">
        <ele>348</ele>
        <time>2018-10-14T09:40:50Z</time>
      </trkpt>
      <trkpt lat="47.29495" lon="4.5096">
        <ele>348</ele>
        <time>2018-10-14T09:40:55Z</time>
      </trkpt>
      <trkpt lat="47.29486" lon="4.50957">
        <ele>349</ele>
        <time>2018-10-14T09:41:01Z</time>
      </trkpt>
      <trkpt lat="47.29473" lon="4.50962">
        <ele>348</ele>
        <time>2018-10-14T09:41:06Z</time>
      </trkpt>
      <trkpt lat="47.29459" lon="4.50971">
        <ele>349</ele>
        <time>2018-10-14T09:41:12Z</time>
      </trkpt>
      <trkpt lat="47.29455" lon="4.50972">
        <ele>350</ele>
        <time>2018-10-14T09:41:14Z</time>
      </trkpt>
      <trkpt lat="47.29452" lon="4.5097">
        <ele>350</ele>
        <time>2018-10-14T09:41:16Z</time>
      </trkpt>
      <trkpt lat="47.29446" lon="4.50968">
        <ele>352</ele>
        <time>2018-10-14T09:41:23Z</time>
      </trkpt>
      <trkpt lat="47.29443" lon="4.50968">
        <ele>354</ele>
        <time>2018-10-14T09:41:26Z</time>
      </trkpt>
      <trkpt lat="47.2943" lon="4.50976">
        <ele>354</ele>
        <time>2018-10-14T09:41:38Z</time>
      </trkpt>
      <trkpt lat="47.29426" lon="4.50977">
        <ele>374</ele>
        <time>2018-10-14T09:41:41Z</time>
      </trkpt>
      <trkpt lat="47.29423" lon="4.50977">
        <ele>369</ele>
        <time>2018-10-14T09:41:44Z</time>
      </trkpt>
      <trkpt lat="47.29419" lon="4.50979">
        <ele>358</ele>
        <time>2018-10-14T09:41:48Z</time>
      </trkpt>
      <trkpt lat="47.29405" lon="4.50978">
        <ele>353</ele>
        <time>2018-10-14T09:42:03Z</time>
      </trkpt>
      <trkpt lat="47.29396" lon="4.5098">
        <ele>354</ele>
        <time>2018-10-14T09:42:08Z</time>
      </trkpt>
      <trkpt lat="47.2938" lon="4.50984">
        <ele>356</ele>
        <time>2018-10-14T09:42:14Z</time>
      </trkpt>
      <trkpt lat="47.29371" lon="4.50985">
        <ele>358</ele>
        <time>2018-10-14T09:42:17Z</time>
      </trkpt>
      <trkpt lat="47.29364" lon="4.50988">
        <ele>386</ele>
        <time>2018-10-14T09:42:20Z</time>
      </trkpt>
      <trkpt lat="47.29346" lon="4.50991">
        <ele>353</ele>
        <time>2018-10-14T09:42:37Z</time>
      </trkpt>
      <trkpt lat="47.29343" lon="4.50993">
        <ele>373</ele>
        <time>2018-10-14T09:42:40Z</time>
      </trkpt>
      <trkpt lat="47.29337" lon="4.50993">
        <ele>366</ele>
        <time>2018-10-14T09:42:50Z</time>
      </trkpt>
      <trkpt lat="47.29334" lon="4.50994">
        <ele>364</ele>
        <time>2018-10-14T09:42:57Z</time>
      </trkpt>
      <trkpt lat="47.2933" lon="4.50996">
        <ele>355</ele>
        <time>2018-10-14T09:43:02Z</time>
      </trkpt>
      <trkpt lat="47.2932" lon="4.50998">
        <ele>355</ele>
        <time>2018-10-14T09:43:14Z</time>
      </trkpt>
      <trkpt lat="47.2931" lon="4.51001">
        <ele>355</ele>
        <time>2018-10-14T09:43:25Z</time>
      </trkpt>
      <trkpt lat="47.29305" lon="4.50999">
        <ele>356</ele>
        <time>2018-10-14T09:43:30Z</time>
      </trkpt>
      <trkpt lat="47.29299" lon="4.50998">
        <ele>356</ele>
        <time>2018-10-14T09:43:33Z</time>
      </trkpt>
      <trkpt lat="47.29295" lon="4.51002">
        <ele>355</ele>
        <time>2018-10-14T09:43:36Z</time>
      </trkpt>
      <trkpt lat="47.29292" lon="4.51005">
        <ele>353</ele>
        <time>2018-10-14T09:43:39Z</time>
      </trkpt>
      <trkpt lat="47.29288" lon="4.51006">
        <ele>352</ele>
        <time>2018-10-14T09:43:42Z</time>
      </trkpt>
      <trkpt lat="47.29285" lon="4.51005">
        <ele>351</ele>
        <time>2018-10-14T09:43:44Z</time>
      </trkpt>
      <trkpt lat="47.29282" lon="4.51005">
        <ele>352</ele>
        <time>2018-10-14T09:43:46Z</time>
      </trkpt>
      <trkpt lat="47.29278" lon="4.51004">
        <ele>353</ele>
        <time>2018-10-14T09:43:50Z</time>
      </trkpt>
      <trkpt lat="47.29272" lon="4.51">
        <ele>354</ele>
        <time>2018-10-14T09:44:02Z</time>
      </trkpt>
      <trkpt lat="47.29266" lon="4.50998">
        <ele>350</ele>
        <time>2018-10-14T09:44:11Z</time>
      </trkpt>
      <trkpt lat="47.29262" lon="4.50998">
        <ele>348</ele>
        <time>2018-10-14T09:44:14Z</time>
      </trkpt>
      <trkpt lat="47.29258" lon="4.50996">
        <ele>346</ele>
        <time>2018-10-14T09:44:16Z</time>
      </trkpt>
      <trkpt lat="47.29254" lon="4.50994">
        <ele>345</ele>
        <time>2018-10-14T09:44:18Z</time>
      </trkpt>
      <trkpt lat="47.29241" lon="4.50994">
        <ele>345</ele>
        <time>2018-10-14T09:44:22Z</time>
      </trkpt>
      <trkpt lat="47.29231" lon="4.50996">
        <ele>348</ele>
        <time>2018-10-14T09:44:27Z</time>
      </trkpt>
      <trkpt lat="47.29228" lon="4.50995">
        <ele>348</ele>
        <time>2018-10-14T09:44:30Z</time>
      </trkpt>
      <trkpt lat="47.29214" lon="4.50998">
        <ele>347</ele>
        <time>2018-10-14T09:44:41Z</time>
      </trkpt>
      <trkpt lat="47.29206" lon="4.51">
        <ele>347</ele>
        <time>2018-10-14T09:44:56Z</time>
      </trkpt>
      <trkpt lat="47.29195" lon="4.51002">
        <ele>372</ele>
        <time>2018-10-14T09:45:02Z</time>
      </trkpt>
      <trkpt lat="47.29166" lon="4.51011">
        <ele>351</ele>
        <time>2018-10-14T09:45:17Z</time>
      </trkpt>
      <trkpt lat="47.29159" lon="4.51015">
        <ele>349</ele>
        <time>2018-10-14T09:45:21Z</time>
      </trkpt>
      <trkpt lat="47.29156" lon="4.51016">
        <ele>347</ele>
        <time>2018-10-14T09:45:25Z</time>
      </trkpt>
      <trkpt lat="47.29139" lon="4.51015">
        <ele>349</ele>
        <time>2018-10-14T09:45:33Z</time>
      </trkpt>
      <trkpt lat="47.29133" lon="4.51015">
        <ele>351</ele>
        <time>2018-10-14T09:45:37Z</time>
      </trkpt>
      <trkpt lat="47.29124" lon="4.51019">
        <ele>349</ele>
        <time>2018-10-14T09:45:45Z</time>
      </trkpt>
      <trkpt lat="47.29122" lon="4.51024">
        <ele>348</ele>
        <time>2018-10-14T09:45:51Z</time>
      </trkpt>
      <trkpt lat="47.29089" lon="4.51031">
        <ele>349</ele>
        <time>2018-10-14T09:46:11Z</time>
      </trkpt>
      <trkpt lat="47.29082" lon="4.5103">
        <ele>352</ele>
        <time>2018-10-14T09:46:18Z</time>
      </trkpt>
      <trkpt lat="47.29077" lon="4.51027">
        <ele>354</ele>
        <time>2018-10-14T09:46:22Z</time>
      </trkpt>
      <trkpt lat="47.29042" lon="4.51034">
        <ele>352</ele>
        <time>2018-10-14T09:46:42Z</time>
      </trkpt>
      <trkpt lat="47.29014" lon="4.51042">
        <ele>354</ele>
        <time>2018-10-14T09:47:03Z</time>
      </trkpt>
      <trkpt lat="47.29011" lon="4.5104">
        <ele>354</ele>
        <time>2018-10-14T09:47:11Z</time>
      </trkpt>
      <trkpt lat="47.29007" lon="4.5104">
        <ele>353</ele>
        <time>2018-10-14T09:47:15Z</time>
      </trkpt>
      <trkpt lat="47.29002" lon="4.51043">
        <ele>352</ele>
        <time>2018-10-14T09:47:19Z</time>
      </trkpt>
      <trkpt lat="47.28984" lon="4.51046">
        <ele>353</ele>
        <time>2018-10-14T09:47:26Z</time>
      </trkpt>
      <trkpt lat="47.28945" lon="4.51057">
        <ele>355</ele>
        <time>2018-10-14T09:47:56Z</time>
      </trkpt>
      <trkpt lat="47.28924" lon="4.51063">
        <ele>354</ele>
        <time>2018-10-14T09:48:27Z</time>
      </trkpt>
      <trkpt lat="47.28894" lon="4.51065">
        <ele>353</ele>
        <time>2018-10-14T09:48:52Z</time>
      </trkpt>
      <trkpt lat="47.28887" lon="4.51069">
        <ele>354</ele>
        <time>2018-10-14T09:48:58Z</time>
      </trkpt>
      <trkpt lat="47.28864" lon="4.51076">
        <ele>355</ele>
        <time>2018-10-14T09:49:30Z</time>
      </trkpt>
      <trkpt lat="47.2885" lon="4.51079">
        <ele>354</ele>
        <time>2018-10-14T09:49:42Z</time>
      </trkpt>
      <trkpt lat="47.28846" lon="4.5108">
        <ele>355</ele>
        <time>2018-10-14T09:49:45Z</time>
      </trkpt>
      <trkpt lat="47.28842" lon="4.51081">
        <ele>356</ele>
        <time>2018-10-14T09:49:48Z</time>
      </trkpt>
      <trkpt lat="47.28834" lon="4.51081">
        <ele>356</ele>
        <time>2018-10-14T09:49:54Z</time>
      </trkpt>
      <trkpt lat="47.28826" lon="4.5108">
        <ele>354</ele>
        <time>2018-10-14T09:50:00Z</time>
      </trkpt>
      <trkpt lat="47.28805" lon="4.51082">
        <ele>353</ele>
        <time>2018-10-14T09:50:16Z</time>
      </trkpt>
      <trkpt lat="47.28802" lon="4.51083">
        <ele>354</ele>
        <time>2018-10-14T09:50:19Z</time>
      </trkpt>
      <trkpt lat="47.28799" lon="4.51082">
        <ele>353</ele>
        <time>2018-10-14T09:50:28Z</time>
      </trkpt>
      <trkpt lat="47.28795" lon="4.51081">
        <ele>353</ele>
        <time>2018-10-14T09:50:35Z</time>
      </trkpt>
      <trkpt lat="47.28792" lon="4.51082">
        <ele>352</ele>
        <time>2018-10-14T09:50:38Z</time>
      </trkpt>
      <trkpt lat="47.28786" lon="4.51082">
        <ele>352</ele>
        <time>2018-10-14T09:50:46Z</time>
      </trkpt>
      <trkpt lat="47.28783" lon="4.51083">
        <ele>351</ele>
        <time>2018-10-14T09:50:48Z</time>
      </trkpt>
      <trkpt lat="47.28771" lon="4.51082">
        <ele>350</ele>
        <time>2018-10-14T09:50:56Z</time>
      </trkpt>
      <trkpt lat="47.28766" lon="4.51082">
        <ele>350</ele>
        <time>2018-10-14T09:50:59Z</time>
      </trkpt>
      <trkpt lat="47.28762" lon="4.51081">
        <ele>351</ele>
        <time>2018-10-14T09:51:01Z</time>
      </trkpt>
      <trkpt lat="47.28758" lon="4.51082">
        <ele>351</ele>
        <time>2018-10-14T09:51:03Z</time>
      </trkpt>
      <trkpt lat="47.28743" lon="4.51089">
        <ele>352</ele>
        <time>2018-10-14T09:51:09Z</time>
      </trkpt>
      <trkpt lat="47.28736" lon="4.5109">
        <ele>351</ele>
        <time>2018-10-14T09:51:12Z</time>
      </trkpt>
      <trkpt lat="47.28723" lon="4.51094">
        <ele>350</ele>
        <time>2018-10-14T09:51:18Z</time>
      </trkpt>
      <trkpt lat="47.28719" lon="4.51096">
        <ele>350</ele>
        <time>2018-10-14T09:51:20Z</time>
      </trkpt>
      <trkpt lat="47.28697" lon="4.51101">
        <ele>355</ele>
        <time>2018-10-14T09:51:34Z</time>
      </trkpt>
      <trkpt lat="47.28695" lon="4.51103">
        <ele>353</ele>
        <time>2018-10-14T09:51:40Z</time>
      </trkpt>
      <trkpt lat="47.28691" lon="4.51103">
        <ele>351</ele>
        <time>2018-10-14T09:51:43Z</time>
      </trkpt>
      <trkpt lat="47.28685" lon="4.51103">
        <ele>351</ele>
        <time>2018-10-14T09:51:47Z</time>
      </trkpt>
      <trkpt lat="47.28648" lon="4.51114">
        <ele>353</ele>
        <time>2018-10-14T09:52:14Z</time>
      </trkpt>
      <trkpt lat="47.28646" lon="4.51113">
        <ele>352</ele>
        <time>2018-10-14T09:52:18Z</time>
      </trkpt>
      <trkpt lat="47.28643" lon="4.51113">
        <ele>351</ele>
        <time>2018-10-14T09:52:21Z</time>
      </trkpt>
      <trkpt lat="47.28638" lon="4.51115">
        <ele>351</ele>
        <time>2018-10-14T09:52:24Z</time>
      </trkpt>
      <trkpt lat="47.28635" lon="4.51116">
        <ele>351</ele>
        <time>2018-10-14T09:52:28Z</time>
      </trkpt>
      <trkpt lat="47.28618" lon="4.51122">
        <ele>352</ele>
        <time>2018-10-14T09:52:37Z</time>
      </trkpt>
      <trkpt lat="47.28588" lon="4.51131">
        <ele>353</ele>
        <time>2018-10-14T09:53:09Z</time>
      </trkpt>
      <trkpt lat="47.2858" lon="4.51132">
        <ele>353</ele>
        <time>2018-10-14T09:53:20Z</time>
      </trkpt>
      <trkpt lat="47.28577" lon="4.51134">
        <ele>352</ele>
        <time>2018-10-14T09:53:23Z</time>
      </trkpt>
      <trkpt lat="47.28574" lon="4.51137">
        <ele>352</ele>
        <time>2018-10-14T09:53:30Z</time>
      </trkpt>
      <trkpt lat="47.28569" lon="4.51141">
        <ele>350</ele>
        <time>2018-10-14T09:53:38Z</time>
      </trkpt>
      <trkpt lat="47.28564" lon="4.51143">
        <ele>349</ele>
        <time>2018-10-14T09:53:42Z</time>
      </trkpt>
      <trkpt lat="47.28558" lon="4.51148">
        <ele>347</ele>
        <time>2018-10-14T09:53:47Z</time>
      </trkpt>
      <trkpt lat="47.28554" lon="4.51151">
        <ele>347</ele>
        <time>2018-10-14T09:53:50Z</time>
      </trkpt>
      <trkpt lat="47.28552" lon="4.51155">
        <ele>348</ele>
        <time>2018-10-14T09:53:55Z</time>
      </trkpt>
      <trkpt lat="47.28552" lon="4.51165">
        <ele>348</ele>
        <time>2018-10-14T09:53:59Z</time>
      </trkpt>
      <trkpt lat="47.28549" lon="4.51166">
        <ele>348</ele>
        <time>2018-10-14T09:54:02Z</time>
      </trkpt>
      <trkpt lat="47.28547" lon="4.51169">
        <ele>347</ele>
        <time>2018-10-14T09:54:07Z</time>
      </trkpt>
      <trkpt lat="47.28543" lon="4.51171">
        <ele>345</ele>
        <time>2018-10-14T09:54:11Z</time>
      </trkpt>
      <trkpt lat="47.28539" lon="4.51173">
        <ele>345</ele>
        <time>2018-10-14T09:54:14Z</time>
      </trkpt>
      <trkpt lat="47.28534" lon="4.51178">
        <ele>345</ele>
        <time>2018-10-14T09:54:17Z</time>
      </trkpt>
      <trkpt lat="47.28506" lon="4.51184">
        <ele>352</ele>
        <time>2018-10-14T09:54:27Z</time>
      </trkpt>
      <trkpt lat="47.285" lon="4.51189">
        <ele>352</ele>
        <time>2018-10-14T09:54:33Z</time>
      </trkpt>
      <trkpt lat="47.28497" lon="4.51191">
        <ele>353</ele>
        <time>2018-10-14T09:54:36Z</time>
      </trkpt>
      <trkpt lat="47.28495" lon="4.51194">
        <ele>354</ele>
        <time>2018-10-14T09:54:40Z</time>
      </trkpt>
      <trkpt lat="47.28493" lon="4.51196">
        <ele>354</ele>
        <time>2018-10-14T09:54:42Z</time>
      </trkpt>
      <trkpt lat="47.28488" lon="4.51196">
        <ele>354</ele>
        <time>2018-10-14T09:54:44Z</time>
      </trkpt>
      <trkpt lat="47.2848" lon="4.51198">
        <ele>351</ele>
        <time>2018-10-14T09:54:48Z</time>
      </trkpt>
      <trkpt lat="47.28473" lon="4.51199">
        <ele>351</ele>
        <time>2018-10-14T09:54:52Z</time>
      </trkpt>
      <trkpt lat="47.28458" lon="4.51204">
        <ele>353</ele>
        <time>2018-10-14T09:55:00Z</time>
      </trkpt>
      <trkpt lat="47.28436" lon="4.51204">
        <ele>352</ele>
        <time>2018-10-14T09:55:11Z</time>
      </trkpt>
      <trkpt lat="47.28432" lon="4.51207">
        <ele>352</ele>
        <time>2018-10-14T09:55:14Z</time>
      </trkpt>
      <trkpt lat="47.28423" lon="4.5121">
        <ele>353</ele>
        <time>2018-10-14T09:55:22Z</time>
      </trkpt>
      <trkpt lat="47.2842" lon="4.51209">
        <ele>352</ele>
        <time>2018-10-14T09:55:33Z</time>
      </trkpt>
      <trkpt lat="47.28402" lon="4.51213">
        <ele>356</ele>
        <time>2018-10-14T09:55:47Z</time>
      </trkpt>
      <trkpt lat="47.284" lon="4.51218">
        <ele>356</ele>
        <time>2018-10-14T09:55:50Z</time>
      </trkpt>
      <trkpt lat="47.28396" lon="4.5122">
        <ele>356</ele>
        <time>2018-10-14T09:55:55Z</time>
      </trkpt>
      <trkpt lat="47.28396" lon="4.51224">
        <ele>356</ele>
        <time>2018-10-14T09:56:04Z</time>
      </trkpt>
      <trkpt lat="47.28398" lon="4.51228">
        <ele>353</ele>
        <time>2018-10-14T09:56:11Z</time>
      </trkpt>
      <trkpt lat="47.28395" lon="4.51229">
        <ele>355</ele>
        <time>2018-10-14T09:57:10Z</time>
      </trkpt>
      <trkpt lat="47.28391" lon="4.51229">
        <ele>354</ele>
        <time>2018-10-14T09:57:13Z</time>
      </trkpt>
      <trkpt lat="47.28388" lon="4.51225">
        <ele>354</ele>
        <time>2018-10-14T09:57:16Z</time>
      </trkpt>
      <trkpt lat="47.28385" lon="4.51222">
        <ele>354</ele>
        <time>2018-10-14T09:57:19Z</time>
      </trkpt>
      <trkpt lat="47.28378" lon="4.5122">
        <ele>356</ele>
        <time>2018-10-14T09:57:23Z</time>
      </trkpt>
      <trkpt lat="47.28371" lon="4.51221">
        <ele>356</ele>
        <time>2018-10-14T09:57:30Z</time>
      </trkpt>
      <trkpt lat="47.28355" lon="4.51221">
        <ele>356</ele>
        <time>2018-10-14T09:57:40Z</time>
      </trkpt>
      <trkpt lat="47.28349" lon="4.5122">
        <ele>357</ele>
        <time>2018-10-14T09:57:48Z</time>
      </trkpt>
      <trkpt lat="47.28345" lon="4.51221">
        <ele>357</ele>
        <time>2018-10-14T09:57:54Z</time>
      </trkpt>
      <trkpt lat="47.28338" lon="4.51224">
        <ele>354</ele>
        <time>2018-10-14T09:58:05Z</time>
      </trkpt>
      <trkpt lat="47.2833" lon="4.51228">
        <ele>352</ele>
        <time>2018-10-14T09:58:17Z</time>
      </trkpt>
      <trkpt lat="47.28323" lon="4.51232">
        <ele>352</ele>
        <time>2018-10-14T09:58:24Z</time>
      </trkpt>
      <trkpt lat="47.28308" lon="4.51238">
        <ele>351</ele>
        <time>2018-10-14T09:58:34Z</time>
      </trkpt>
      <trkpt lat="47.28254" lon="4.5125">
        <ele>352</ele>
        <time>2018-10-14T09:58:55Z</time>
      </trkpt>
      <trkpt lat="47.28232" lon="4.51252">
        <ele>355</ele>
        <time>2018-10-14T09:59:11Z</time>
      </trkpt>
      <trkpt lat="47.28228" lon="4.51256">
        <ele>352</ele>
        <time>2018-10-14T09:59:15Z</time>
      </trkpt>
      <trkpt lat="47.28212" lon="4.5126">
        <ele>354</ele>
        <time>2018-10-14T09:59:26Z</time>
      </trkpt>
      <trkpt lat="47.28206" lon="4.51261">
        <ele>355</ele>
        <time>2018-10-14T09:59:34Z</time>
      </trkpt>
      <trkpt lat="47.282" lon="4.51263">
        <ele>356</ele>
        <time>2018-10-14T09:59:40Z</time>
      </trkpt>
      <trkpt lat="47.28198" lon="4.51265">
        <ele>355</ele>
        <time>2018-10-14T09:59:42Z</time>
      </trkpt>
      <trkpt lat="47.28192" lon="4.5127">
        <ele>352</ele>
        <time>2018-10-14T09:59:47Z</time>
      </trkpt>
      <trkpt lat="47.28189" lon="4.51274">
        <ele>352</ele>
        <time>2018-10-14T09:59:50Z</time>
      </trkpt>
      <trkpt lat="47.28167" lon="4.51278">
        <ele>356</ele>
        <time>2018-10-14T10:00:00Z</time>
      </trkpt>
      <trkpt lat="47.28167" lon="4.51273">
        <ele>356</ele>
        <time>2018-10-14T10:00:09Z</time>
      </trkpt>
      <trkpt lat="47.28168" lon="4.51269">
        <ele>358</ele>
        <time>2018-10-14T10:00:31Z</time>
      </trkpt>
      <trkpt lat="47.28171" lon="4.51272">
        <ele>359</ele>
        <time>2018-10-14T10:01:04Z</time>
      </trkpt>
      <trkpt lat="47.28167" lon="4.51275">
        <ele>360</ele>
        <time>2018-10-14T10:01:28Z</time>
      </trkpt>
      <trkpt lat="47.28165" lon="4.51276">
        <ele>358</ele>
        <time>2018-10-14T10:01:38Z</time>
      </trkpt>
      <trkpt lat="47.28161" lon="4.51277">
        <ele>358</ele>
        <time>2018-10-14T10:01:41Z</time>
      </trkpt>
      <trkpt lat="47.28158" lon="4.51281">
        <ele>357</ele>
        <time>2018-10-14T10:01:43Z</time>
      </trkpt>
      <trkpt lat="47.28148" lon="4.51285">
        <ele>358</ele>
        <time>2018-10-14T10:01:51Z</time>
      </trkpt>
      <trkpt lat="47.28142" lon="4.51284">
        <ele>358</ele>
        <time>2018-10-14T10:01:59Z</time>
      </trkpt>
      <trkpt lat="47.28138" lon="4.51287">
        <ele>357</ele>
        <time>2018-10-14T10:02:03Z</time>
      </trkpt>
      <trkpt lat="47.28134" lon="4.51291">
        <ele>355</ele>
        <time>2018-10-14T10:02:05Z</time>
      </trkpt>
      <trkpt lat="47.28126" lon="4.51293">
        <ele>354</ele>
        <time>2018-10-14T10:02:08Z</time>
      </trkpt>
      <trkpt lat="47.28112" lon="4.51294">
        <ele>352</ele>
        <time>2018-10-14T10:02:13Z</time>
      </trkpt>
      <trkpt lat="47.28107" lon="4.51293">
        <ele>353</ele>
        <time>2018-10-14T10:02:15Z</time>
      </trkpt>
      <trkpt lat="47.28103" lon="4.51293">
        <ele>354</ele>
        <time>2018-10-14T10:02:18Z</time>
      </trkpt>
      <trkpt lat="47.28099" lon="4.51295">
        <ele>355</ele>
        <time>2018-10-14T10:02:22Z</time>
      </trkpt>
      <trkpt lat="47.28096" lon="4.51294">
        <ele>355</ele>
        <time>2018-10-14T10:02:30Z</time>
      </trkpt>
      <trkpt lat="47.28093" lon="4.51297">
        <ele>354</ele>
        <time>2018-10-14T10:02:34Z</time>
      </trkpt>
      <trkpt lat="47.28067" lon="4.51305">
        <ele>359</ele>
        <time>2018-10-14T10:02:46Z</time>
      </trkpt>
      <trkpt lat="47.2806" lon="4.51316">
        <ele>357</ele>
        <time>2018-10-14T10:03:01Z</time>
      </trkpt>
      <trkpt lat="47.28056" lon="4.51319">
        <ele>356</ele>
        <time>2018-10-14T10:03:05Z</time>
      </trkpt>
      <trkpt lat="47.28054" lon="4.51321">
        <ele>355</ele>
        <time>2018-10-14T10:03:09Z</time>
      </trkpt>
      <trkpt lat="47.28048" lon="4.51328">
        <ele>354</ele>
        <time>2018-10-14T10:03:19Z</time>
      </trkpt>
      <trkpt lat="47.28039" lon="4.51334">
        <ele>354</ele>
        <time>2018-10-14T10:03:29Z</time>
      </trkpt>
      <trkpt lat="47.28034" lon="4.51341">
        <ele>351</ele>
        <time>2018-10-14T10:03:35Z</time>
      </trkpt>
      <trkpt lat="47.27967" lon="4.51376">
        <ele>348</ele>
        <time>2018-10-14T10:04:04Z</time>
      </trkpt>
      <trkpt lat="47.27963" lon="4.51377">
        <ele>351</ele>
        <time>2018-10-14T10:04:07Z</time>
      </trkpt>
      <trkpt lat="47.27959" lon="4.51379">
        <ele>352</ele>
        <time>2018-10-14T10:04:14Z</time>
      </trkpt>
      <trkpt lat="47.27958" lon="4.51384">
        <ele>350</ele>
        <time>2018-10-14T10:04:18Z</time>
      </trkpt>
      <trkpt lat="47.27947" lon="4.51389">
        <ele>350</ele>
        <time>2018-10-14T10:04:35Z</time>
      </trkpt>
      <trkpt lat="47.27941" lon="4.51389">
        <ele>350</ele>
        <time>2018-10-14T10:04:39Z</time>
      </trkpt>
      <trkpt lat="47.27914" lon="4.51404">
        <ele>349</ele>
        <time>2018-10-14T10:04:59Z</time>
      </trkpt>
      <trkpt lat="47.27905" lon="4.51409">
        <ele>350</ele>
        <time>2018-10-14T10:05:05Z</time>
      </trkpt>
      <trkpt lat="47.27894" lon="4.51413">
        <ele>353</ele>
        <time>2018-10-14T10:05:15Z</time>
      </trkpt>
      <trkpt lat="47.27881" lon="4.51419">
        <ele>354</ele>
        <time>2018-10-14T10:05:26Z</time>
      </trkpt>
      <trkpt lat="47.27862" lon="4.51431">
        <ele>358</ele>
        <time>2018-10-14T10:05:56Z</time>
      </trkpt>
      <trkpt lat="47.2784" lon="4.51442">
        <ele>358</ele>
        <time>2018-10-14T10:06:14Z</time>
      </trkpt>
      <trkpt lat="47.27833" lon="4.51447">
        <ele>359</ele>
        <time>2018-10-14T10:06:20Z</time>
      </trkpt>
      <trkpt lat="47.27824" lon="4.51452">
        <ele>359</ele>
        <time>2018-10-14T10:06:39Z</time>
      </trkpt>
      <trkpt lat="47.27815" lon="4.51458">
        <ele>359</ele>
        <time>2018-10-14T10:06:46Z</time>
      </trkpt>
      <trkpt lat="47.27812" lon="4.51457">
        <ele>358</ele>
        <time>2018-10-14T10:06:49Z</time>
      </trkpt>
      <trkpt lat="47.27805" lon="4.51459">
        <ele>356</ele>
        <time>2018-10-14T10:06:59Z</time>
      </trkpt>
      <trkpt lat="47.278" lon="4.5146">
        <ele>356</ele>
        <time>2018-10-14T10:07:02Z</time>
      </trkpt>
      <trkpt lat="47.27795" lon="4.5146">
        <ele>356</ele>
        <time>2018-10-14T10:07:04Z</time>
      </trkpt>
      <trkpt lat="47.27771" lon="4.51475">
        <ele>359</ele>
        <time>2018-10-14T10:07:14Z</time>
      </trkpt>
      <trkpt lat="47.27767" lon="4.51477">
        <ele>360</ele>
        <time>2018-10-14T10:07:21Z</time>
      </trkpt>
      <trkpt lat="47.27757" lon="4.5148">
        <ele>361</ele>
        <time>2018-10-14T10:07:27Z</time>
      </trkpt>
      <trkpt lat="47.27753" lon="4.51481">
        <ele>359</ele>
        <time>2018-10-14T10:07:45Z</time>
      </trkpt>
      <trkpt lat="47.27751" lon="4.51484">
        <ele>358</ele>
        <time>2018-10-14T10:07:48Z</time>
      </trkpt>
      <trkpt lat="47.27748" lon="4.51489">
        <ele>357</ele>
        <time>2018-10-14T10:07:54Z</time>
      </trkpt>
      <trkpt lat="47.27745" lon="4.51491">
        <ele>355</ele>
        <time>2018-10-14T10:07:57Z</time>
      </trkpt>
      <trkpt lat="47.27736" lon="4.51498">
        <ele>351</ele>
        <time>2018-10-14T10:08:07Z</time>
      </trkpt>
      <trkpt lat="47.27712" lon="4.51512">
        <ele>351</ele>
        <time>2018-10-14T10:08:18Z</time>
      </trkpt>
      <trkpt lat="47.27704" lon="4.51521">
        <ele>350</ele>
        <time>2018-10-14T10:08:26Z</time>
      </trkpt>
      <trkpt lat="47.277" lon="4.51522">
        <ele>350</ele>
        <time>2018-10-14T10:08:29Z</time>
      </trkpt>
      <trkpt lat="47.27697" lon="4.51521">
        <ele>351</ele>
        <time>2018-10-14T10:08:35Z</time>
      </trkpt>
      <trkpt lat="47.27693" lon="4.51523">
        <ele>351</ele>
        <time>2018-10-14T10:08:40Z</time>
      </trkpt>
      <trkpt lat="47.2769" lon="4.51526">
        <ele>350</ele>
        <time>2018-10-14T10:08:42Z</time>
      </trkpt>
      <trkpt lat="47.27649" lon="4.51542">
        <ele>353</ele>
        <time>2018-10-14T10:09:03Z</time>
      </trkpt>
      <trkpt lat="47.27646" lon="4.51544">
        <ele>354</ele>
        <time>2018-10-14T10:09:12Z</time>
      </trkpt>
      <trkpt lat="47.27633" lon="4.51555">
        <ele>351</ele>
        <time>2018-10-14T10:09:27Z</time>
      </trkpt>
      <trkpt lat="47.27629" lon="4.51559">
        <ele>350</ele>
        <time>2018-10-14T10:09:30Z</time>
      </trkpt>
      <trkpt lat="47.27604" lon="4.51574">
        <ele>350</ele>
        <time>2018-10-14T10:09:41Z</time>
      </trkpt>
      <trkpt lat="47.27601" lon="4.51576">
        <ele>351</ele>
        <time>2018-10-14T10:09:42Z</time>
      </trkpt>
      <trkpt lat="47.27587" lon="4.51582">
        <ele>355</ele>
        <time>2018-10-14T10:09:48Z</time>
      </trkpt>
      <trkpt lat="47.27576" lon="4.51583">
        <ele>359</ele>
        <time>2018-10-14T10:09:52Z</time>
      </trkpt>
      <trkpt lat="47.27573" lon="4.51586">
        <ele>359</ele>
        <time>2018-10-14T10:09:58Z</time>
      </trkpt>
      <trkpt lat="47.2757" lon="4.51587">
        <ele>359</ele>
        <time>2018-10-14T10:10:01Z</time>
      </trkpt>
      <trkpt lat="47.27567" lon="4.51586">
        <ele>360</ele>
        <time>2018-10-14T10:10:03Z</time>
      </trkpt>
      <trkpt lat="47.27561" lon="4.51589">
        <ele>359</ele>
        <time>2018-10-14T10:10:14Z</time>
      </trkpt>
      <trkpt lat="47.27557" lon="4.51591">
        <ele>360</ele>
        <time>2018-10-14T10:10:16Z</time>
      </trkpt>
      <trkpt lat="47.27551" lon="4.51593">
        <ele>361</ele>
        <time>2018-10-14T10:10:20Z</time>
      </trkpt>
      <trkpt lat="47.27529" lon="4.51605">
        <ele>367</ele>
        <time>2018-10-14T10:10:33Z</time>
      </trkpt>
      <trkpt lat="47.27527" lon="4.51609">
        <ele>365</ele>
        <time>2018-10-14T10:10:39Z</time>
      </trkpt>
      <trkpt lat="47.27524" lon="4.51613">
        <ele>363</ele>
        <time>2018-10-14T10:10:44Z</time>
      </trkpt>
      <trkpt lat="47.27511" lon="4.5162">
        <ele>356</ele>
        <time>2018-10-14T10:10:57Z</time>
      </trkpt>
      <trkpt lat="47.27508" lon="4.5162">
        <ele>357</ele>
        <time>2018-10-14T10:11:04Z</time>
      </trkpt>
      <trkpt lat="47.27505" lon="4.51622">
        <ele>358</ele>
        <time>2018-10-14T10:11:10Z</time>
      </trkpt>
      <trkpt lat="47.27501" lon="4.51625">
        <ele>358</ele>
        <time>2018-10-14T10:11:16Z</time>
      </trkpt>
      <trkpt lat="47.2749" lon="4.51635">
        <ele>355</ele>
        <time>2018-10-14T10:11:29Z</time>
      </trkpt>
      <trkpt lat="47.27486" lon="4.51638">
        <ele>354</ele>
        <time>2018-10-14T10:11:34Z</time>
      </trkpt>
      <trkpt lat="47.2748" lon="4.51642">
        <ele>353</ele>
        <time>2018-10-14T10:11:41Z</time>
      </trkpt>
      <trkpt lat="47.27453" lon="4.51654">
        <ele>357</ele>
        <time>2018-10-14T10:11:51Z</time>
      </trkpt>
      <trkpt lat="47.2745" lon="4.51657">
        <ele>358</ele>
        <time>2018-10-14T10:11:54Z</time>
      </trkpt>
      <trkpt lat="47.27448" lon="4.5166">
        <ele>358</ele>
        <time>2018-10-14T10:11:57Z</time>
      </trkpt>
      <trkpt lat="47.2744" lon="4.51662">
        <ele>359</ele>
        <time>2018-10-14T10:12:01Z</time>
      </trkpt>
      <trkpt lat="47.27411" lon="4.5167">
        <ele>358</ele>
        <time>2018-10-14T10:12:15Z</time>
      </trkpt>
      <trkpt lat="47.27408" lon="4.5167">
        <ele>359</ele>
        <time>2018-10-14T10:12:17Z</time>
      </trkpt>
      <trkpt lat="47.27404" lon="4.5167">
        <ele>360</ele>
        <time>2018-10-14T10:12:21Z</time>
      </trkpt>
      <trkpt lat="47.27401" lon="4.51673">
        <ele>359</ele>
        <time>2018-10-14T10:12:25Z</time>
      </trkpt>
      <trkpt lat="47.27404" lon="4.51676">
        <ele>360</ele>
        <time>2018-10-14T10:12:31Z</time>
      </trkpt>
      <trkpt lat="47.27392" lon="4.51688">
        <ele>358</ele>
        <time>2018-10-14T10:12:56Z</time>
      </trkpt>
      <trkpt lat="47.2736" lon="4.51702">
        <ele>361</ele>
        <time>2018-10-14T10:13:15Z</time>
      </trkpt>
      <trkpt lat="47.27357" lon="4.51704">
        <ele>361</ele>
        <time>2018-10-14T10:13:19Z</time>
      </trkpt>
      <trkpt lat="47.27353" lon="4.51706">
        <ele>362</ele>
        <time>2018-10-14T10:13:23Z</time>
      </trkpt>
      <trkpt lat="47.27345" lon="4.51712">
        <ele>362</ele>
        <time>2018-10-14T10:13:29Z</time>
      </trkpt>
      <trkpt lat="47.27332" lon="4.51718">
        <ele>366</ele>
        <time>2018-10-14T10:13:36Z</time>
      </trkpt>
      <trkpt lat="47.27321" lon="4.51722">
        <ele>364</ele>
        <time>2018-10-14T10:13:43Z</time>
      </trkpt>
      <trkpt lat="47.27319" lon="4.51724">
        <ele>363</ele>
        <time>2018-10-14T10:13:49Z</time>
      </trkpt>
      <trkpt lat="47.2728" lon="4.51743">
        <ele>365</ele>
        <time>2018-10-14T10:14:20Z</time>
      </trkpt>
      <trkpt lat="47.2727" lon="4.51745">
        <ele>365</ele>
        <time>2018-10-14T10:14:24Z</time>
      </trkpt>
      <trkpt lat="47.27267" lon="4.51749">
        <ele>362</ele>
        <time>2018-10-14T10:14:26Z</time>
      </trkpt>
      <trkpt lat="47.2727" lon="4.51753">
        <ele>360</ele>
        <time>2018-10-14T10:14:27Z</time>
      </trkpt>
      <trkpt lat="47.27237" lon="4.51777">
        <ele>359</ele>
        <time>2018-10-14T10:14:58Z</time>
      </trkpt>
      <trkpt lat="47.2723" lon="4.51781">
        <ele>361</ele>
        <time>2018-10-14T10:15:06Z</time>
      </trkpt>
      <trkpt lat="47.27227" lon="4.51783">
        <ele>361</ele>
        <time>2018-10-14T10:15:09Z</time>
      </trkpt>
      <trkpt lat="47.27223" lon="4.51786">
        <ele>362</ele>
        <time>2018-10-14T10:15:12Z</time>
      </trkpt>
      <trkpt lat="47.27206" lon="4.51794">
        <ele>362</ele>
        <time>2018-10-14T10:15:42Z</time>
      </trkpt>
      <trkpt lat="47.272" lon="4.51798">
        <ele>360</ele>
        <time>2018-10-14T10:15:50Z</time>
      </trkpt>
      <trkpt lat="47.27197" lon="4.51801">
        <ele>359</ele>
        <time>2018-10-14T10:16:06Z</time>
      </trkpt>
      <trkpt lat="47.27187" lon="4.51806">
        <ele>361</ele>
        <time>2018-10-14T10:16:15Z</time>
      </trkpt>
      <trkpt lat="47.27183" lon="4.51807">
        <ele>361</ele>
        <time>2018-10-14T10:16:18Z</time>
      </trkpt>
      <trkpt lat="47.2718" lon="4.51805">
        <ele>361</ele>
        <time>2018-10-14T10:16:23Z</time>
      </trkpt>
      <trkpt lat="47.27177" lon="4.51805">
        <ele>363</ele>
        <time>2018-10-14T10:16:28Z</time>
      </trkpt>
      <trkpt lat="47.27162" lon="4.51812">
        <ele>360</ele>
        <time>2018-10-14T10:16:45Z</time>
      </trkpt>
      <trkpt lat="47.27156" lon="4.51816">
        <ele>359</ele>
        <time>2018-10-14T10:16:48Z</time>
      </trkpt>
      <trkpt lat="47.27151" lon="4.51819">
        <ele>356</ele>
        <time>2018-10-14T10:16:51Z</time>
      </trkpt>
      <trkpt lat="47.27138" lon="4.51827">
        <ele>357</ele>
        <time>2018-10-14T10:16:59Z</time>
      </trkpt>
      <trkpt lat="47.27121" lon="4.51831">
        <ele>360</ele>
        <time>2018-10-14T10:17:07Z</time>
      </trkpt>
      <trkpt lat="47.27114" lon="4.51835">
        <ele>360</ele>
        <time>2018-10-14T10:17:12Z</time>
      </trkpt>
      <trkpt lat="47.27113" lon="4.51839">
        <ele>359</ele>
        <time>2018-10-14T10:17:16Z</time>
      </trkpt>
      <trkpt lat="47.27107" lon="4.51843">
        <ele>358</ele>
        <time>2018-10-14T10:17:24Z</time>
      </trkpt>
      <trkpt lat="47.27091" lon="4.51852">
        <ele>357</ele>
        <time>2018-10-14T10:17:41Z</time>
      </trkpt>
      <trkpt lat="47.27079" lon="4.51857">
        <ele>358</ele>
        <time>2018-10-14T10:17:47Z</time>
      </trkpt>
      <trkpt lat="47.27078" lon="4.51861">
        <ele>357</ele>
        <time>2018-10-14T10:17:54Z</time>
      </trkpt>
      <trkpt lat="47.27075" lon="4.51864">
        <ele>357</ele>
        <time>2018-10-14T10:17:58Z</time>
      </trkpt>
      <trkpt lat="47.27072" lon="4.51865">
        <ele>357</ele>
        <time>2018-10-14T10:18:04Z</time>
      </trkpt>
      <trkpt lat="47.27069" lon="4.51868">
        <ele>358</ele>
        <time>2018-10-14T10:18:06Z</time>
      </trkpt>
      <trkpt lat="47.27067" lon="4.5187">
        <ele>358</ele>
        <time>2018-10-14T10:18:08Z</time>
      </trkpt>
      <trkpt lat="47.27064" lon="4.51868">
        <ele>359</ele>
        <time>2018-10-14T10:18:20Z</time>
      </trkpt>
      <trkpt lat="47.27061" lon="4.51869">
        <ele>359</ele>
        <time>2018-10-14T10:18:23Z</time>
      </trkpt>
      <trkpt lat="47.27059" lon="4.51865">
        <ele>359</ele>
        <time>2018-10-14T10:18:27Z</time>
      </trkpt>
      <trkpt lat="47.27059" lon="4.51859">
        <ele>360</ele>
        <time>2018-10-14T10:18:29Z</time>
      </trkpt>
      <trkpt lat="47.2706" lon="4.51853">
        <ele>361</ele>
        <time>2018-10-14T10:18:31Z</time>
      </trkpt>
      <trkpt lat="47.27056" lon="4.51854">
        <ele>362</ele>
        <time>2018-10-14T10:18:38Z</time>
      </trkpt>
      <trkpt lat="47.27053" lon="4.51855">
        <ele>361</ele>
        <time>2018-10-14T10:18:41Z</time>
      </trkpt>
      <trkpt lat="47.27015" lon="4.51868">
        <ele>361</ele>
        <time>2018-10-14T10:19:12Z</time>
      </trkpt>
      <trkpt lat="47.27011" lon="4.5187">
        <ele>360</ele>
        <time>2018-10-14T10:19:16Z</time>
      </trkpt>
      <trkpt lat="47.27006" lon="4.51869">
        <ele>360</ele>
        <time>2018-10-14T10:19:24Z</time>
      </trkpt>
      <trkpt lat="47.26978" lon="4.51884">
        <ele>358</ele>
        <time>2018-10-14T10:19:42Z</time>
      </trkpt>
      <trkpt lat="47.26961" lon="4.5189">
        <ele>360</ele>
        <time>2018-10-14T10:19:52Z</time>
      </trkpt>
      <trkpt lat="47.26943" lon="4.51901">
        <ele>360</ele>
        <time>2018-10-14T10:20:01Z</time>
      </trkpt>
      <trkpt lat="47.2694" lon="4.51902">
        <ele>360</ele>
        <time>2018-10-14T10:20:06Z</time>
      </trkpt>
      <trkpt lat="47.2693" lon="4.51905">
        <ele>361</ele>
        <time>2018-10-14T10:20:10Z</time>
      </trkpt>
      <trkpt lat="47.26896" lon="4.5192">
        <ele>364</ele>
        <time>2018-10-14T10:20:35Z</time>
      </trkpt>
      <trkpt lat="47.26894" lon="4.51924">
        <ele>365</ele>
        <time>2018-10-14T10:20:43Z</time>
      </trkpt>
      <trkpt lat="47.26871" lon="4.51938">
        <ele>364</ele>
        <time>2018-10-14T10:21:11Z</time>
      </trkpt>
      <trkpt lat="47.26869" lon="4.51942">
        <ele>366</ele>
        <time>2018-10-14T10:21:17Z</time>
      </trkpt>
      <trkpt lat="47.26869" lon="4.51947">
        <ele>368</ele>
        <time>2018-10-14T10:21:30Z</time>
      </trkpt>
      <trkpt lat="47.26866" lon="4.5195">
        <ele>367</ele>
        <time>2018-10-14T10:21:32Z</time>
      </trkpt>
      <trkpt lat="47.26856" lon="4.51959">
        <ele>365</ele>
        <time>2018-10-14T10:21:40Z</time>
      </trkpt>
      <trkpt lat="47.26848" lon="4.51963">
        <ele>362</ele>
        <time>2018-10-14T10:21:49Z</time>
      </trkpt>
      <trkpt lat="47.26819" lon="4.52002">
        <ele>361</ele>
        <time>2018-10-14T10:22:16Z</time>
      </trkpt>
      <trkpt lat="47.26817" lon="4.52007">
        <ele>363</ele>
        <time>2018-10-14T10:22:25Z</time>
      </trkpt>
      <trkpt lat="47.26813" lon="4.52011">
        <ele>359</ele>
        <time>2018-10-14T10:22:27Z</time>
      </trkpt>
      <trkpt lat="47.26799" lon="4.5203">
        <ele>357</ele>
        <time>2018-10-14T10:22:35Z</time>
      </trkpt>
      <trkpt lat="47.26794" lon="4.52038">
        <ele>359</ele>
        <time>2018-10-14T10:22:39Z</time>
      </trkpt>
      <trkpt lat="47.26779" lon="4.52056">
        <ele>362</ele>
        <time>2018-10-14T10:22:56Z</time>
      </trkpt>
      <trkpt lat="47.26779" lon="4.52061">
        <ele>363</ele>
        <time>2018-10-14T10:23:00Z</time>
      </trkpt>
      <trkpt lat="47.26778" lon="4.52065">
        <ele>363</ele>
        <time>2018-10-14T10:23:04Z</time>
      </trkpt>
      <trkpt lat="47.26775" lon="4.52065">
        <ele>363</ele>
        <time>2018-10-14T10:23:09Z</time>
      </trkpt>
      <trkpt lat="47.26769" lon="4.52067">
        <ele>362</ele>
        <time>2018-10-14T10:23:14Z</time>
      </trkpt>
      <trkpt lat="47.26766" lon="4.5207">
        <ele>361</ele>
        <time>2018-10-14T10:23:24Z</time>
      </trkpt>
      <trkpt lat="47.26764" lon="4.52075">
        <ele>360</ele>
        <time>2018-10-14T10:23:28Z</time>
      </trkpt>
      <trkpt lat="47.26763" lon="4.5208">
        <ele>360</ele>
        <time>2018-10-14T10:23:31Z</time>
      </trkpt>
      <trkpt lat="47.26748" lon="4.52112">
        <ele>362</ele>
        <time>2018-10-14T10:23:41Z</time>
      </trkpt>
      <trkpt lat="47.26734" lon="4.52138">
        <ele>362</ele>
        <time>2018-10-14T10:23:57Z</time>
      </trkpt>
      <trkpt lat="47.26731" lon="4.52148">
        <ele>362</ele>
        <time>2018-10-14T10:24:09Z</time>
      </trkpt>
      <trkpt lat="47.26725" lon="4.52174">
        <ele>360</ele>
        <time>2018-10-14T10:24:17Z</time>
      </trkpt>
      <trkpt lat="47.26725" lon="4.52179">
        <ele>359</ele>
        <time>2018-10-14T10:24:19Z</time>
      </trkpt>
      <trkpt lat="47.26725" lon="4.52185">
        <ele>359</ele>
        <time>2018-10-14T10:24:21Z</time>
      </trkpt>
      <trkpt lat="47.26723" lon="4.52232">
        <ele>361</ele>
        <time>2018-10-14T10:24:51Z</time>
      </trkpt>
      <trkpt lat="47.26724" lon="4.52242">
        <ele>362</ele>
        <time>2018-10-14T10:25:00Z</time>
      </trkpt>
      <trkpt lat="47.26724" lon="4.52247">
        <ele>363</ele>
        <time>2018-10-14T10:25:05Z</time>
      </trkpt>
      <trkpt lat="47.26724" lon="4.52267">
        <ele>363</ele>
        <time>2018-10-14T10:25:13Z</time>
      </trkpt>
      <trkpt lat="47.26726" lon="4.52322">
        <ele>365</ele>
        <time>2018-10-14T10:25:28Z</time>
      </trkpt>
      <trkpt lat="47.26727" lon="4.52328">
        <ele>366</ele>
        <time>2018-10-14T10:25:30Z</time>
      </trkpt>
      <trkpt lat="47.26727" lon="4.52339">
        <ele>365</ele>
        <time>2018-10-14T10:25:35Z</time>
      </trkpt>
      <trkpt lat="47.26727" lon="4.52345">
        <ele>366</ele>
        <time>2018-10-14T10:25:38Z</time>
      </trkpt>
      <trkpt lat="47.26727" lon="4.52351">
        <ele>366</ele>
        <time>2018-10-14T10:25:42Z</time>
      </trkpt>
      <trkpt lat="47.26726" lon="4.52396">
        <ele>364</ele>
        <time>2018-10-14T10:26:01Z</time>
      </trkpt>
      <trkpt lat="47.26728" lon="4.52393">
        <ele>364</ele>
        <time>2018-10-14T10:26:06Z</time>
      </trkpt>
      <trkpt lat="47.26735" lon="4.52439">
        <ele>368</ele>
        <time>2018-10-14T10:26:28Z</time>
      </trkpt>
      <trkpt lat="47.26732" lon="4.52448">
        <ele>368</ele>
        <time>2018-10-14T10:26:34Z</time>
      </trkpt>
      <trkpt lat="47.26729" lon="4.52457">
        <ele>370</ele>
        <time>2018-10-14T10:26:45Z</time>
      </trkpt>
      <trkpt lat="47.2673" lon="4.52472">
        <ele>370</ele>
        <time>2018-10-14T10:26:53Z</time>
      </trkpt>
      <trkpt lat="47.26731" lon="4.52476">
        <ele>370</ele>
        <time>2018-10-14T10:26:57Z</time>
      </trkpt>
      <trkpt lat="47.26731" lon="4.52487">
        <ele>369</ele>
        <time>2018-10-14T10:27:04Z</time>
      </trkpt>
      <trkpt lat="47.26732" lon="4.52496">
        <ele>369</ele>
        <time>2018-10-14T10:27:08Z</time>
      </trkpt>
      <trkpt lat="47.26731" lon="4.52503">
        <ele>371</ele>
        <time>2018-10-14T10:27:12Z</time>
      </trkpt>
      <trkpt lat="47.26735" lon="4.52563">
        <ele>374</ele>
        <time>2018-10-14T10:27:43Z</time>
      </trkpt>
      <trkpt lat="47.26734" lon="4.52584">
        <ele>374</ele>
        <time>2018-10-14T10:27:55Z</time>
      </trkpt>
      <trkpt lat="47.26734" lon="4.5259">
        <ele>375</ele>
        <time>2018-10-14T10:27:58Z</time>
      </trkpt>
      <trkpt lat="47.26735" lon="4.52653">
        <ele>368</ele>
        <time>2018-10-14T10:28:28Z</time>
      </trkpt>
      <trkpt lat="47.26734" lon="4.52657">
        <ele>369</ele>
        <time>2018-10-14T10:28:31Z</time>
      </trkpt>
      <trkpt lat="47.26733" lon="4.52662">
        <ele>371</ele>
        <time>2018-10-14T10:28:35Z</time>
      </trkpt>
      <trkpt lat="47.26731" lon="4.52666">
        <ele>372</ele>
        <time>2018-10-14T10:28:41Z</time>
      </trkpt>
      <trkpt lat="47.26731" lon="4.52672">
        <ele>372</ele>
        <time>2018-10-14T10:28:43Z</time>
      </trkpt>
      <trkpt lat="47.26734" lon="4.52714">
        <ele>369</ele>
        <time>2018-10-14T10:28:57Z</time>
      </trkpt>
      <trkpt lat="47.26738" lon="4.52735">
        <ele>366</ele>
        <time>2018-10-14T10:29:12Z</time>
      </trkpt>
      <trkpt lat="47.26738" lon="4.5274">
        <ele>367</ele>
        <time>2018-10-14T10:29:15Z</time>
      </trkpt>
      <trkpt lat="47.26735" lon="4.52756">
        <ele>366</ele>
        <time>2018-10-14T10:29:27Z</time>
      </trkpt>
      <trkpt lat="47.26736" lon="4.52762">
        <ele>366</ele>
        <time>2018-10-14T10:29:30Z</time>
      </trkpt>
      <trkpt lat="47.26735" lon="4.52768">
        <ele>368</ele>
        <time>2018-10-14T10:29:33Z</time>
      </trkpt>
      <trkpt lat="47.26734" lon="4.52772">
        <ele>368</ele>
        <time>2018-10-14T10:29:36Z</time>
      </trkpt>
      <trkpt lat="47.26735" lon="4.52778">
        <ele>369</ele>
        <time>2018-10-14T10:29:40Z</time>
      </trkpt>
      <trkpt lat="47.26736" lon="4.52804">
        <ele>371</ele>
        <time>2018-10-14T10:29:50Z</time>
      </trkpt>
      <trkpt lat="47.26736" lon="4.52812">
        <ele>371</ele>
        <time>2018-10-14T10:29:52Z</time>
      </trkpt>
      <trkpt lat="47.26736" lon="4.52844">
        <ele>370</ele>
        <time>2018-10-14T10:30:04Z</time>
      </trkpt>
      <trkpt lat="47.2674" lon="4.52861">
        <ele>365</ele>
        <time>2018-10-14T10:30:11Z</time>
      </trkpt>
      <trkpt lat="47.26739" lon="4.52879">
        <ele>365</ele>
        <time>2018-10-14T10:30:18Z</time>
      </trkpt>
      <trkpt lat="47.26739" lon="4.52901">
        <ele>365</ele>
        <time>2018-10-14T10:30:27Z</time>
      </trkpt>
      <trkpt lat="47.26737" lon="4.52911">
        <ele>363</ele>
        <time>2018-10-14T10:30:33Z</time>
      </trkpt>
      <trkpt lat="47.26739" lon="4.52915">
        <ele>367</ele>
        <time>2018-10-14T10:30:47Z</time>
      </trkpt>
      <trkpt lat="47.26741" lon="4.52928">
        <ele>372</ele>
        <time>2018-10-14T10:30:57Z</time>
      </trkpt>
      <trkpt lat="47.2674" lon="4.52952">
        <ele>370</ele>
        <time>2018-10-14T10:31:07Z</time>
      </trkpt>
      <trkpt lat="47.2674" lon="4.52956">
        <ele>371</ele>
        <time>2018-10-14T10:31:10Z</time>
      </trkpt>
      <trkpt lat="47.2674" lon="4.52961">
        <ele>372</ele>
        <time>2018-10-14T10:31:16Z</time>
      </trkpt>
      <trkpt lat="47.26739" lon="4.52972">
        <ele>373</ele>
        <time>2018-10-14T10:31:23Z</time>
      </trkpt>
      <trkpt lat="47.26744" lon="4.53037">
        <ele>371</ele>
        <time>2018-10-14T10:31:53Z</time>
      </trkpt>
      <trkpt lat="47.26744" lon="4.53041">
        <ele>372</ele>
        <time>2018-10-14T10:31:58Z</time>
      </trkpt>
      <trkpt lat="47.26745" lon="4.5308">
        <ele>375</ele>
        <time>2018-10-14T10:32:12Z</time>
      </trkpt>
      <trkpt lat="47.26745" lon="4.53087">
        <ele>375</ele>
        <time>2018-10-14T10:32:14Z</time>
      </trkpt>
      <trkpt lat="47.26748" lon="4.53144">
        <ele>374</ele>
        <time>2018-10-14T10:32:44Z</time>
      </trkpt>
      <trkpt lat="47.26747" lon="4.53156">
        <ele>375</ele>
        <time>2018-10-14T10:32:52Z</time>
      </trkpt>
      <trkpt lat="47.26745" lon="4.53183">
        <ele>376</ele>
        <time>2018-10-14T10:33:12Z</time>
      </trkpt>
      <trkpt lat="47.26747" lon="4.53203">
        <ele>376</ele>
        <time>2018-10-14T10:33:18Z</time>
      </trkpt>
      <trkpt lat="47.26747" lon="4.53235">
        <ele>376</ele>
        <time>2018-10-14T10:33:32Z</time>
      </trkpt>
      <trkpt lat="47.26746" lon="4.53245">
        <ele>378</ele>
        <time>2018-10-14T10:33:38Z</time>
      </trkpt>
      <trkpt lat="47.26749" lon="4.53287">
        <ele>376</ele>
        <time>2018-10-14T10:34:09Z</time>
      </trkpt>
      <trkpt lat="47.26751" lon="4.53354">
        <ele>378</ele>
        <time>2018-10-14T10:34:40Z</time>
      </trkpt>
      <trkpt lat="47.26752" lon="4.53397">
        <ele>375</ele>
        <time>2018-10-14T10:35:04Z</time>
      </trkpt>
      <trkpt lat="47.26752" lon="4.53402">
        <ele>374</ele>
        <time>2018-10-14T10:35:07Z</time>
      </trkpt>
      <trkpt lat="47.26752" lon="4.5343">
        <ele>375</ele>
        <time>2018-10-14T10:35:23Z</time>
      </trkpt>
      <trkpt lat="47.26752" lon="4.53434">
        <ele>375</ele>
        <time>2018-10-14T10:35:32Z</time>
      </trkpt>
      <trkpt lat="47.26752" lon="4.53439">
        <ele>375</ele>
        <time>2018-10-14T10:35:36Z</time>
      </trkpt>
      <trkpt lat="47.2675" lon="4.53464">
        <ele>378</ele>
        <time>2018-10-14T10:35:46Z</time>
      </trkpt>
      <trkpt lat="47.26754" lon="4.53488">
        <ele>377</ele>
        <time>2018-10-14T10:35:54Z</time>
      </trkpt>
      <trkpt lat="47.26753" lon="4.53493">
        <ele>377</ele>
        <time>2018-10-14T10:35:56Z</time>
      </trkpt>
      <trkpt lat="47.26754" lon="4.53525">
        <ele>376</ele>
        <time>2018-10-14T10:36:10Z</time>
      </trkpt>
      <trkpt lat="47.26753" lon="4.53529">
        <ele>377</ele>
        <time>2018-10-14T10:36:14Z</time>
      </trkpt>
      <trkpt lat="47.26752" lon="4.53534">
        <ele>377</ele>
        <time>2018-10-14T10:36:17Z</time>
      </trkpt>
      <trkpt lat="47.26754" lon="4.5355">
        <ele>377</ele>
        <time>2018-10-14T10:36:26Z</time>
      </trkpt>
      <trkpt lat="47.26754" lon="4.5356">
        <ele>378</ele>
        <time>2018-10-14T10:36:32Z</time>
      </trkpt>
      <trkpt lat="47.26753" lon="4.53565">
        <ele>378</ele>
        <time>2018-10-14T10:36:35Z</time>
      </trkpt>
      <trkpt lat="47.26753" lon="4.53587">
        <ele>379</ele>
        <time>2018-10-14T10:36:46Z</time>
      </trkpt>
      <trkpt lat="47.26754" lon="4.53591">
        <ele>379</ele>
        <time>2018-10-14T10:36:49Z</time>
      </trkpt>
      <trkpt lat="47.26755" lon="4.53613">
        <ele>377</ele>
        <time>2018-10-14T10:37:00Z</time>
      </trkpt>
      <trkpt lat="47.26753" lon="4.53623">
        <ele>376</ele>
        <time>2018-10-14T10:37:06Z</time>
      </trkpt>
      <trkpt lat="47.26753" lon="4.53628">
        <ele>377</ele>
        <time>2018-10-14T10:37:12Z</time>
      </trkpt>
      <trkpt lat="47.2676" lon="4.53669">
        <ele>380</ele>
        <time>2018-10-14T10:37:29Z</time>
      </trkpt>
      <trkpt lat="47.26763" lon="4.53671">
        <ele>380</ele>
        <time>2018-10-14T10:37:32Z</time>
      </trkpt>
      <trkpt lat="47.26774" lon="4.53668">
        <ele>379</ele>
        <time>2018-10-14T10:37:45Z</time>
      </trkpt>
      <trkpt lat="47.26783" lon="4.53674">
        <ele>381</ele>
        <time>2018-10-14T10:37:55Z</time>
      </trkpt>
      <trkpt lat="47.268" lon="4.53688">
        <ele>379</ele>
        <time>2018-10-14T10:38:06Z</time>
      </trkpt>
      <trkpt lat="47.2681" lon="4.53694">
        <ele>379</ele>
        <time>2018-10-14T10:38:13Z</time>
      </trkpt>
      <trkpt lat="47.26815" lon="4.537">
        <ele>379</ele>
        <time>2018-10-14T10:38:20Z</time>
      </trkpt>
      <trkpt lat="47.26818" lon="4.53703">
        <ele>379</ele>
        <time>2018-10-14T10:38:23Z</time>
      </trkpt>
      <trkpt lat="47.26822" lon="4.53704">
        <ele>379</ele>
        <time>2018-10-14T10:38:25Z</time>
      </trkpt>
      <trkpt lat="47.26825" lon="4.53709">
        <ele>381</ele>
        <time>2018-10-14T10:38:28Z</time>
      </trkpt>
      <trkpt lat="47.26838" lon="4.53719">
        <ele>381</ele>
        <time>2018-10-14T10:38:37Z</time>
      </trkpt>
      <trkpt lat="47.2684" lon="4.53728">
        <ele>382</ele>
        <time>2018-10-14T10:38:42Z</time>
      </trkpt>
      <trkpt lat="47.26846" lon="4.53735">
        <ele>381</ele>
        <time>2018-10-14T10:38:46Z</time>
      </trkpt>
      <trkpt lat="47.26851" lon="4.53742">
        <ele>381</ele>
        <time>2018-10-14T10:38:51Z</time>
      </trkpt>
      <trkpt lat="47.26853" lon="4.53746">
        <ele>380</ele>
        <time>2018-10-14T10:38:53Z</time>
      </trkpt>
      <trkpt lat="47.26851" lon="4.53756">
        <ele>378</ele>
        <time>2018-10-14T10:38:58Z</time>
      </trkpt>
      <trkpt lat="47.26849" lon="4.53765">
        <ele>378</ele>
        <time>2018-10-14T10:39:05Z</time>
      </trkpt>
      <trkpt lat="47.26849" lon="4.5377">
        <ele>378</ele>
        <time>2018-10-14T10:39:09Z</time>
      </trkpt>
      <trkpt lat="47.26849" lon="4.538">
        <ele>380</ele>
        <time>2018-10-14T10:39:33Z</time>
      </trkpt>
      <trkpt lat="47.26852" lon="4.5381">
        <ele>379</ele>
        <time>2018-10-14T10:39:39Z</time>
      </trkpt>
      <trkpt lat="47.26851" lon="4.53827">
        <ele>377</ele>
        <time>2018-10-14T10:39:47Z</time>
      </trkpt>
      <trkpt lat="47.26852" lon="4.53854">
        <ele>375</ele>
        <time>2018-10-14T10:40:09Z</time>
      </trkpt>
      <trkpt lat="47.26852" lon="4.53859">
        <ele>375</ele>
        <time>2018-10-14T10:40:14Z</time>
      </trkpt>
      <trkpt lat="47.26853" lon="4.53863">
        <ele>375</ele>
        <time>2018-10-14T10:40:20Z</time>
      </trkpt>
      <trkpt lat="47.2686" lon="4.53877">
        <ele>374</ele>
        <time>2018-10-14T10:40:30Z</time>
      </trkpt>
      <trkpt lat="47.26862" lon="4.53883">
        <ele>374</ele>
        <time>2018-10-14T10:40:33Z</time>
      </trkpt>
      <trkpt lat="47.26866" lon="4.53889">
        <ele>374</ele>
        <time>2018-10-14T10:40:36Z</time>
      </trkpt>
      <trkpt lat="47.26871" lon="4.53895">
        <ele>374</ele>
        <time>2018-10-14T10:40:39Z</time>
      </trkpt>
      <trkpt lat="47.26874" lon="4.53913">
        <ele>376</ele>
        <time>2018-10-14T10:40:44Z</time>
      </trkpt>
      <trkpt lat="47.26874" lon="4.53927">
        <ele>376</ele>
        <time>2018-10-14T10:40:48Z</time>
      </trkpt>
      <trkpt lat="47.26874" lon="4.53987">
        <ele>376</ele>
        <time>2018-10-14T10:41:05Z</time>
      </trkpt>
      <trkpt lat="47.26874" lon="4.54026">
        <ele>378</ele>
        <time>2018-10-14T10:41:27Z</time>
      </trkpt>
      <trkpt lat="47.26872" lon="4.54044">
        <ele>379</ele>
        <time>2018-10-14T10:41:37Z</time>
      </trkpt>
      <trkpt lat="47.26878" lon="4.54089">
        <ele>386</ele>
        <time>2018-10-14T10:42:07Z</time>
      </trkpt>
      <trkpt lat="47.26879" lon="4.54095">
        <ele>381</ele>
        <time>2018-10-14T10:42:11Z</time>
      </trkpt>
      <trkpt lat="47.26878" lon="4.54114">
        <ele>383</ele>
        <time>2018-10-14T10:42:22Z</time>
      </trkpt>
      <trkpt lat="47.26881" lon="4.54116">
        <ele>383</ele>
        <time>2018-10-14T10:42:27Z</time>
      </trkpt>
      <trkpt lat="47.26881" lon="4.54123">
        <ele>385</ele>
        <time>2018-10-14T10:42:32Z</time>
      </trkpt>
      <trkpt lat="47.2688" lon="4.54129">
        <ele>385</ele>
        <time>2018-10-14T10:42:35Z</time>
      </trkpt>
      <trkpt lat="47.26878" lon="4.54207">
        <ele>390</ele>
        <time>2018-10-14T10:43:02Z</time>
      </trkpt>
      <trkpt lat="47.26875" lon="4.54224">
        <ele>393</ele>
        <time>2018-10-14T10:43:08Z</time>
      </trkpt>
      <trkpt lat="47.26878" lon="4.5426">
        <ele>387</ele>
        <time>2018-10-14T10:43:33Z</time>
      </trkpt>
      <trkpt lat="47.26878" lon="4.54265">
        <ele>386</ele>
        <time>2018-10-14T10:43:36Z</time>
      </trkpt>
      <trkpt lat="47.26878" lon="4.54278">
        <ele>386</ele>
        <time>2018-10-14T10:43:42Z</time>
      </trkpt>
      <trkpt lat="47.26877" lon="4.54296">
        <ele>383</ele>
        <time>2018-10-14T10:43:49Z</time>
      </trkpt>
      <trkpt lat="47.26882" lon="4.54316">
        <ele>384</ele>
        <time>2018-10-14T10:43:58Z</time>
      </trkpt>
      <trkpt lat="47.2688" lon="4.54352">
        <ele>386</ele>
        <time>2018-10-14T10:44:29Z</time>
      </trkpt>
      <trkpt lat="47.26883" lon="4.54397">
        <ele>386</ele>
        <time>2018-10-14T10:44:43Z</time>
      </trkpt>
      <trkpt lat="47.26884" lon="4.54402">
        <ele>386</ele>
        <time>2018-10-14T10:44:46Z</time>
      </trkpt>
      <trkpt lat="47.26885" lon="4.54407">
        <ele>385</ele>
        <time>2018-10-14T10:44:49Z</time>
      </trkpt>
      <trkpt lat="47.26884" lon="4.5443">
        <ele>383</ele>
        <time>2018-10-14T10:45:00Z</time>
      </trkpt>
      <trkpt lat="47.26883" lon="4.54435">
        <ele>383</ele>
        <time>2018-10-14T10:45:05Z</time>
      </trkpt>
      <trkpt lat="47.26884" lon="4.54449">
        <ele>388</ele>
        <time>2018-10-14T10:45:16Z</time>
      </trkpt>
      <trkpt lat="47.26884" lon="4.54473">
        <ele>385</ele>
        <time>2018-10-14T10:45:37Z</time>
      </trkpt>
      <trkpt lat="47.26885" lon="4.54478">
        <ele>382</ele>
        <time>2018-10-14T10:45:40Z</time>
      </trkpt>
      <trkpt lat="47.26886" lon="4.54489">
        <ele>380</ele>
        <time>2018-10-14T10:45:46Z</time>
      </trkpt>
      <trkpt lat="47.26887" lon="4.54495">
        <ele>380</ele>
        <time>2018-10-14T10:45:50Z</time>
      </trkpt>
      <trkpt lat="47.26888" lon="4.54504">
        <ele>382</ele>
        <time>2018-10-14T10:45:56Z</time>
      </trkpt>
      <trkpt lat="47.26888" lon="4.54514">
        <ele>377</ele>
        <time>2018-10-14T10:46:03Z</time>
      </trkpt>
      <trkpt lat="47.26887" lon="4.5453">
        <ele>384</ele>
        <time>2018-10-14T10:46:10Z</time>
      </trkpt>
      <trkpt lat="47.26888" lon="4.54558">
        <ele>389</ele>
        <time>2018-10-14T10:46:20Z</time>
      </trkpt>
      <trkpt lat="47.26889" lon="4.54563">
        <ele>388</ele>
        <time>2018-10-14T10:46:23Z</time>
      </trkpt>
      <trkpt lat="47.26889" lon="4.54568">
        <ele>389</ele>
        <time>2018-10-14T10:46:26Z</time>
      </trkpt>
      <trkpt lat="47.26888" lon="4.54578">
        <ele>394</ele>
        <time>2018-10-14T10:46:31Z</time>
      </trkpt>
      <trkpt lat="47.26886" lon="4.54587">
        <ele>394</ele>
        <time>2018-10-14T10:46:39Z</time>
      </trkpt>
      <trkpt lat="47.26888" lon="4.54611">
        <ele>381</ele>
        <time>2018-10-14T10:46:53Z</time>
      </trkpt>
      <trkpt lat="47.26891" lon="4.54637">
        <ele>384</ele>
        <time>2018-10-14T10:47:02Z</time>
      </trkpt>
      <trkpt lat="47.26891" lon="4.54642">
        <ele>383</ele>
        <time>2018-10-14T10:47:04Z</time>
      </trkpt>
      <trkpt lat="47.26889" lon="4.54649">
        <ele>383</ele>
        <time>2018-10-14T10:47:06Z</time>
      </trkpt>
      <trkpt lat="47.26885" lon="4.54671">
        <ele>384</ele>
        <time>2018-10-14T10:47:14Z</time>
      </trkpt>
      <trkpt lat="47.26882" lon="4.54685">
        <ele>384</ele>
        <time>2018-10-14T10:47:27Z</time>
      </trkpt>
      <trkpt lat="47.26886" lon="4.54694">
        <ele>387</ele>
        <time>2018-10-14T10:47:34Z</time>
      </trkpt>
      <trkpt lat="47.26888" lon="4.54699">
        <ele>387</ele>
        <time>2018-10-14T10:47:38Z</time>
      </trkpt>
      <trkpt lat="47.26885" lon="4.54704">
        <ele>388</ele>
        <time>2018-10-14T10:47:41Z</time>
      </trkpt>
      <trkpt lat="47.26883" lon="4.54706">
        <ele>388</ele>
        <time>2018-10-14T10:47:44Z</time>
      </trkpt>
      <trkpt lat="47.26855" lon="4.54739">
        <ele>388</ele>
        <time>2018-10-14T10:48:10Z</time>
      </trkpt>
      <trkpt lat="47.26851" lon="4.54748">
        <ele>388</ele>
        <time>2018-10-14T10:48:14Z</time>
      </trkpt>
      <trkpt lat="47.26849" lon="4.54751">
        <ele>387</ele>
        <time>2018-10-14T10:48:19Z</time>
      </trkpt>
      <trkpt lat="47.26846" lon="4.54752">
        <ele>387</ele>
        <time>2018-10-14T10:48:27Z</time>
      </trkpt>
      <trkpt lat="47.26844" lon="4.54756">
        <ele>386</ele>
        <time>2018-10-14T10:48:36Z</time>
      </trkpt>
      <trkpt lat="47.26836" lon="4.54773">
        <ele>383</ele>
        <time>2018-10-14T10:48:43Z</time>
      </trkpt>
      <trkpt lat="47.26834" lon="4.5479">
        <ele>385</ele>
        <time>2018-10-14T10:48:50Z</time>
      </trkpt>
      <trkpt lat="47.26833" lon="4.548">
        <ele>388</ele>
        <time>2018-10-14T10:48:57Z</time>
      </trkpt>
      <trkpt lat="47.26832" lon="4.54809">
        <ele>388</ele>
        <time>2018-10-14T10:49:03Z</time>
      </trkpt>
      <trkpt lat="47.26833" lon="4.54814">
        <ele>389</ele>
        <time>2018-10-14T10:49:08Z</time>
      </trkpt>
      <trkpt lat="47.26833" lon="4.54824">
        <ele>390</ele>
        <time>2018-10-14T10:49:16Z</time>
      </trkpt>
      <trkpt lat="47.26838" lon="4.54858">
        <ele>391</ele>
        <time>2018-10-14T10:49:36Z</time>
      </trkpt>
      <trkpt lat="47.26839" lon="4.54873">
        <ele>387</ele>
        <time>2018-10-14T10:49:43Z</time>
      </trkpt>
      <trkpt lat="47.26838" lon="4.54879">
        <ele>388</ele>
        <time>2018-10-14T10:49:45Z</time>
      </trkpt>
      <trkpt lat="47.26834" lon="4.54917">
        <ele>389</ele>
        <time>2018-10-14T10:50:00Z</time>
      </trkpt>
      <trkpt lat="47.26836" lon="4.54952">
        <ele>391</ele>
        <time>2018-10-14T10:50:15Z</time>
      </trkpt>
      <trkpt lat="47.26842" lon="4.54993">
        <ele>393</ele>
        <time>2018-10-14T10:50:37Z</time>
      </trkpt>
      <trkpt lat="47.26846" lon="4.55002">
        <ele>395</ele>
        <time>2018-10-14T10:50:44Z</time>
      </trkpt>
      <trkpt lat="47.26847" lon="4.55005">
        <ele>395</ele>
        <time>2018-10-14T10:50:49Z</time>
      </trkpt>
      <trkpt lat="47.2685" lon="4.5501">
        <ele>394</ele>
        <time>2018-10-14T10:50:52Z</time>
      </trkpt>
      <trkpt lat="47.2686" lon="4.55016">
        <ele>392</ele>
        <time>2018-10-14T10:50:59Z</time>
      </trkpt>
      <trkpt lat="47.26883" lon="4.55022">
        <ele>393</ele>
        <time>2018-10-14T10:51:14Z</time>
      </trkpt>
      <trkpt lat="47.26895" lon="4.55025">
        <ele>393</ele>
        <time>2018-10-14T10:51:21Z</time>
      </trkpt>
      <trkpt lat="47.26905" lon="4.5503">
        <ele>396</ele>
        <time>2018-10-14T10:51:27Z</time>
      </trkpt>
      <trkpt lat="47.26909" lon="4.55031">
        <ele>396</ele>
        <time>2018-10-14T10:51:30Z</time>
      </trkpt>
      <trkpt lat="47.26915" lon="4.55037">
        <ele>396</ele>
        <time>2018-10-14T10:51:45Z</time>
      </trkpt>
      <trkpt lat="47.2692" lon="4.55042">
        <ele>393</ele>
        <time>2018-10-14T10:51:49Z</time>
      </trkpt>
      <trkpt lat="47.26927" lon="4.55052">
        <ele>392</ele>
        <time>2018-10-14T10:51:55Z</time>
      </trkpt>
      <trkpt lat="47.2693" lon="4.55066">
        <ele>394</ele>
        <time>2018-10-14T10:52:02Z</time>
      </trkpt>
      <trkpt lat="47.2693" lon="4.5507">
        <ele>397</ele>
        <time>2018-10-14T10:52:10Z</time>
      </trkpt>
      <trkpt lat="47.26928" lon="4.55122">
        <ele>398</ele>
        <time>2018-10-14T10:52:31Z</time>
      </trkpt>
      <trkpt lat="47.26929" lon="4.55126">
        <ele>400</ele>
        <time>2018-10-14T10:52:37Z</time>
      </trkpt>
      <trkpt lat="47.2693" lon="4.55132">
        <ele>402</ele>
        <time>2018-10-14T10:52:43Z</time>
      </trkpt>
      <trkpt lat="47.26928" lon="4.55137">
        <ele>401</ele>
        <time>2018-10-14T10:52:45Z</time>
      </trkpt>
      <trkpt lat="47.26926" lon="4.55141">
        <ele>401</ele>
        <time>2018-10-14T10:52:48Z</time>
      </trkpt>
      <trkpt lat="47.26914" lon="4.55158">
        <ele>399</ele>
        <time>2018-10-14T10:52:59Z</time>
      </trkpt>
      <trkpt lat="47.26894" lon="4.5516">
        <ele>402</ele>
        <time>2018-10-14T10:53:07Z</time>
      </trkpt>
      <trkpt lat="47.2689" lon="4.55162">
        <ele>402</ele>
        <time>2018-10-14T10:53:10Z</time>
      </trkpt>
      <trkpt lat="47.26885" lon="4.55166">
        <ele>399</ele>
        <time>2018-10-14T10:53:19Z</time>
      </trkpt>
      <trkpt lat="47.26867" lon="4.55169">
        <ele>397</ele>
        <time>2018-10-14T10:53:34Z</time>
      </trkpt>
      <trkpt lat="47.26847" lon="4.55177">
        <ele>397</ele>
        <time>2018-10-14T10:53:52Z</time>
      </trkpt>
      <trkpt lat="47.26842" lon="4.55186">
        <ele>399</ele>
        <time>2018-10-14T10:53:58Z</time>
      </trkpt>
      <trkpt lat="47.26837" lon="4.55195">
        <ele>400</ele>
        <time>2018-10-14T10:54:04Z</time>
      </trkpt>
      <trkpt lat="47.26825" lon="4.55223">
        <ele>402</ele>
        <time>2018-10-14T10:54:22Z</time>
      </trkpt>
      <trkpt lat="47.26809" lon="4.55246">
        <ele>400</ele>
        <time>2018-10-14T10:54:40Z</time>
      </trkpt>
    </trkseg>
  </trk>
</gpx>